<?xml version="1.0" encoding="UTF-8" standalone="no" ?>
<gpx xmlns="http://www.topografix.com/GPX/1/1" xmlns:xsi="http://www.w3.org/2001/XMLSchema-instance" xsi:schemaLocation="http://www.topografix.com/GPX/1/1 http://www.topografix.com/GPX/1/1/gpx.xsd" version="1.1" creator="VisuGPX - https://www.visugpx.com">
  <metadata>
    <name>Entre Biron et Blanquefort</name>
    <desc><![CDATA[30 kms pas trop dur au départ de Biron et allant jusqu\'à Blanquefort.]]></desc>
  </metadata>
  <trk>
    <name><![CDATA[Entre Biron et Blanquefort_1]]></name>
    <trkseg>
      <trkpt lat="44.63095" lon="0.87145">
        <ele>187</ele>
        <time>2012-09-30T05:50:52Z</time>
      </trkpt>
      <trkpt lat="44.63118" lon="0.8712">
        <ele>203</ele>
        <time>2012-09-30T05:51:32Z</time>
      </trkpt>
      <trkpt lat="44.63136" lon="0.87114">
        <ele>201</ele>
        <time>2012-09-30T05:51:37Z</time>
      </trkpt>
      <trkpt lat="44.63155" lon="0.87109">
        <ele>198</ele>
        <time>2012-09-30T05:51:42Z</time>
      </trkpt>
      <trkpt lat="44.63173" lon="0.87105">
        <ele>197</ele>
        <time>2012-09-30T05:51:48Z</time>
      </trkpt>
      <trkpt lat="44.6319" lon="0.87105">
        <ele>197</ele>
        <time>2012-09-30T05:51:53Z</time>
      </trkpt>
      <trkpt lat="44.63208" lon="0.87107">
        <ele>196</ele>
        <time>2012-09-30T05:51:58Z</time>
      </trkpt>
      <trkpt lat="44.63222" lon="0.87113">
        <ele>196</ele>
        <time>2012-09-30T05:52:03Z</time>
      </trkpt>
      <trkpt lat="44.63237" lon="0.87122">
        <ele>196</ele>
        <time>2012-09-30T05:52:08Z</time>
      </trkpt>
      <trkpt lat="44.63252" lon="0.87137">
        <ele>196</ele>
        <time>2012-09-30T05:52:13Z</time>
      </trkpt>
      <trkpt lat="44.63266" lon="0.87159">
        <ele>196</ele>
        <time>2012-09-30T05:52:19Z</time>
      </trkpt>
      <trkpt lat="44.63279" lon="0.87182">
        <ele>198</ele>
        <time>2012-09-30T05:52:24Z</time>
      </trkpt>
      <trkpt lat="44.6329" lon="0.87206">
        <ele>198</ele>
        <time>2012-09-30T05:52:29Z</time>
      </trkpt>
      <trkpt lat="44.63291" lon="0.87234">
        <ele>198</ele>
        <time>2012-09-30T05:52:35Z</time>
      </trkpt>
      <trkpt lat="44.6329" lon="0.87256">
        <ele>200</ele>
        <time>2012-09-30T05:52:40Z</time>
      </trkpt>
      <trkpt lat="44.63291" lon="0.87278">
        <ele>205</ele>
        <time>2012-09-30T05:52:45Z</time>
      </trkpt>
      <trkpt lat="44.63298" lon="0.87302">
        <ele>209</ele>
        <time>2012-09-30T05:52:50Z</time>
      </trkpt>
      <trkpt lat="44.63318" lon="0.87334">
        <ele>209</ele>
        <time>2012-09-30T05:52:55Z</time>
      </trkpt>
      <trkpt lat="44.63344" lon="0.87377">
        <ele>208</ele>
        <time>2012-09-30T05:53:00Z</time>
      </trkpt>
      <trkpt lat="44.63372" lon="0.87436">
        <ele>203</ele>
        <time>2012-09-30T05:53:05Z</time>
      </trkpt>
      <trkpt lat="44.63404" lon="0.87502">
        <ele>198</ele>
        <time>2012-09-30T05:53:10Z</time>
      </trkpt>
      <trkpt lat="44.63434" lon="0.87571">
        <ele>193</ele>
        <time>2012-09-30T05:53:15Z</time>
      </trkpt>
      <trkpt lat="44.63458" lon="0.87636">
        <ele>192</ele>
        <time>2012-09-30T05:53:20Z</time>
      </trkpt>
      <trkpt lat="44.63471" lon="0.87695">
        <ele>192</ele>
        <time>2012-09-30T05:53:25Z</time>
      </trkpt>
      <trkpt lat="44.63483" lon="0.87746">
        <ele>192</ele>
        <time>2012-09-30T05:53:30Z</time>
      </trkpt>
      <trkpt lat="44.63495" lon="0.87793">
        <ele>192</ele>
        <time>2012-09-30T05:53:35Z</time>
      </trkpt>
      <trkpt lat="44.63492" lon="0.87839">
        <ele>192</ele>
        <time>2012-09-30T05:53:40Z</time>
      </trkpt>
      <trkpt lat="44.63472" lon="0.8788">
        <ele>192</ele>
        <time>2012-09-30T05:53:46Z</time>
      </trkpt>
      <trkpt lat="44.63456" lon="0.8791">
        <ele>192</ele>
        <time>2012-09-30T05:53:51Z</time>
      </trkpt>
      <trkpt lat="44.63435" lon="0.87945">
        <ele>193</ele>
        <time>2012-09-30T05:53:57Z</time>
      </trkpt>
      <trkpt lat="44.63419" lon="0.87977">
        <ele>196</ele>
        <time>2012-09-30T05:54:02Z</time>
      </trkpt>
      <trkpt lat="44.63407" lon="0.8801">
        <ele>198</ele>
        <time>2012-09-30T05:54:07Z</time>
      </trkpt>
      <trkpt lat="44.63401" lon="0.88046">
        <ele>200</ele>
        <time>2012-09-30T05:54:12Z</time>
      </trkpt>
      <trkpt lat="44.634" lon="0.8808">
        <ele>202</ele>
        <time>2012-09-30T05:54:17Z</time>
      </trkpt>
      <trkpt lat="44.63406" lon="0.8811">
        <ele>203</ele>
        <time>2012-09-30T05:54:22Z</time>
      </trkpt>
      <trkpt lat="44.63416" lon="0.88138">
        <ele>205</ele>
        <time>2012-09-30T05:54:27Z</time>
      </trkpt>
      <trkpt lat="44.63433" lon="0.88166">
        <ele>205</ele>
        <time>2012-09-30T05:54:32Z</time>
      </trkpt>
      <trkpt lat="44.63454" lon="0.88192">
        <ele>205</ele>
        <time>2012-09-30T05:54:37Z</time>
      </trkpt>
      <trkpt lat="44.63472" lon="0.8822">
        <ele>205</ele>
        <time>2012-09-30T05:54:42Z</time>
      </trkpt>
      <trkpt lat="44.63486" lon="0.88251">
        <ele>204</ele>
        <time>2012-09-30T05:54:47Z</time>
      </trkpt>
      <trkpt lat="44.63497" lon="0.8828">
        <ele>202</ele>
        <time>2012-09-30T05:54:52Z</time>
      </trkpt>
      <trkpt lat="44.63508" lon="0.88307">
        <ele>202</ele>
        <time>2012-09-30T05:54:57Z</time>
      </trkpt>
      <trkpt lat="44.63519" lon="0.88334">
        <ele>202</ele>
        <time>2012-09-30T05:55:02Z</time>
      </trkpt>
      <trkpt lat="44.63527" lon="0.88358">
        <ele>202</ele>
        <time>2012-09-30T05:55:07Z</time>
      </trkpt>
      <trkpt lat="44.63534" lon="0.88377">
        <ele>202</ele>
        <time>2012-09-30T05:55:12Z</time>
      </trkpt>
      <trkpt lat="44.63542" lon="0.884">
        <ele>202</ele>
        <time>2012-09-30T05:55:17Z</time>
      </trkpt>
      <trkpt lat="44.6355" lon="0.88422">
        <ele>203</ele>
        <time>2012-09-30T05:55:22Z</time>
      </trkpt>
      <trkpt lat="44.63557" lon="0.88442">
        <ele>204</ele>
        <time>2012-09-30T05:55:27Z</time>
      </trkpt>
      <trkpt lat="44.63562" lon="0.88465">
        <ele>205</ele>
        <time>2012-09-30T05:55:32Z</time>
      </trkpt>
      <trkpt lat="44.63562" lon="0.88487">
        <ele>207</ele>
        <time>2012-09-30T05:55:37Z</time>
      </trkpt>
      <trkpt lat="44.63565" lon="0.88513">
        <ele>208</ele>
        <time>2012-09-30T05:55:42Z</time>
      </trkpt>
      <trkpt lat="44.6357" lon="0.88542">
        <ele>208</ele>
        <time>2012-09-30T05:55:47Z</time>
      </trkpt>
      <trkpt lat="44.6357" lon="0.8857">
        <ele>209</ele>
        <time>2012-09-30T05:55:52Z</time>
      </trkpt>
      <trkpt lat="44.63568" lon="0.88601">
        <ele>210</ele>
        <time>2012-09-30T05:55:57Z</time>
      </trkpt>
      <trkpt lat="44.63565" lon="0.88631">
        <ele>214</ele>
        <time>2012-09-30T05:56:02Z</time>
      </trkpt>
      <trkpt lat="44.63561" lon="0.8867">
        <ele>216</ele>
        <time>2012-09-30T05:56:07Z</time>
      </trkpt>
      <trkpt lat="44.63557" lon="0.887">
        <ele>216</ele>
        <time>2012-09-30T05:56:12Z</time>
      </trkpt>
      <trkpt lat="44.63552" lon="0.88729">
        <ele>216</ele>
        <time>2012-09-30T05:56:17Z</time>
      </trkpt>
      <trkpt lat="44.63552" lon="0.88766">
        <ele>217</ele>
        <time>2012-09-30T05:56:22Z</time>
      </trkpt>
      <trkpt lat="44.63559" lon="0.88798">
        <ele>217</ele>
        <time>2012-09-30T05:56:27Z</time>
      </trkpt>
      <trkpt lat="44.63569" lon="0.88826">
        <ele>216</ele>
        <time>2012-09-30T05:56:32Z</time>
      </trkpt>
      <trkpt lat="44.63583" lon="0.88858">
        <ele>212</ele>
        <time>2012-09-30T05:56:37Z</time>
      </trkpt>
      <trkpt lat="44.63595" lon="0.88887">
        <ele>211</ele>
        <time>2012-09-30T05:56:42Z</time>
      </trkpt>
      <trkpt lat="44.63607" lon="0.88916">
        <ele>207</ele>
        <time>2012-09-30T05:56:47Z</time>
      </trkpt>
      <trkpt lat="44.63622" lon="0.88953">
        <ele>205</ele>
        <time>2012-09-30T05:56:52Z</time>
      </trkpt>
      <trkpt lat="44.63641" lon="0.89001">
        <ele>200</ele>
        <time>2012-09-30T05:56:57Z</time>
      </trkpt>
      <trkpt lat="44.63646" lon="0.89033">
        <ele>197</ele>
        <time>2012-09-30T05:57:02Z</time>
      </trkpt>
      <trkpt lat="44.63628" lon="0.89051">
        <ele>199</ele>
        <time>2012-09-30T05:57:07Z</time>
      </trkpt>
      <trkpt lat="44.63606" lon="0.89078">
        <ele>203</ele>
        <time>2012-09-30T05:57:12Z</time>
      </trkpt>
      <trkpt lat="44.63585" lon="0.89096">
        <ele>207</ele>
        <time>2012-09-30T05:57:17Z</time>
      </trkpt>
      <trkpt lat="44.63572" lon="0.89102">
        <ele>211</ele>
        <time>2012-09-30T05:57:22Z</time>
      </trkpt>
      <trkpt lat="44.63557" lon="0.89111">
        <ele>213</ele>
        <time>2012-09-30T05:57:27Z</time>
      </trkpt>
      <trkpt lat="44.6354" lon="0.89129">
        <ele>213</ele>
        <time>2012-09-30T05:57:32Z</time>
      </trkpt>
      <trkpt lat="44.63533" lon="0.89141">
        <ele>213</ele>
        <time>2012-09-30T05:57:37Z</time>
      </trkpt>
      <trkpt lat="44.63529" lon="0.89151">
        <ele>210</ele>
        <time>2012-09-30T05:57:42Z</time>
      </trkpt>
      <trkpt lat="44.6352" lon="0.8916">
        <ele>206</ele>
        <time>2012-09-30T05:57:47Z</time>
      </trkpt>
      <trkpt lat="44.63511" lon="0.89175">
        <ele>201</ele>
        <time>2012-09-30T05:57:52Z</time>
      </trkpt>
      <trkpt lat="44.63498" lon="0.89196">
        <ele>196</ele>
        <time>2012-09-30T05:57:57Z</time>
      </trkpt>
      <trkpt lat="44.63481" lon="0.89213">
        <ele>192</ele>
        <time>2012-09-30T05:58:02Z</time>
      </trkpt>
      <trkpt lat="44.63469" lon="0.89229">
        <ele>192</ele>
        <time>2012-09-30T05:58:07Z</time>
      </trkpt>
      <trkpt lat="44.63453" lon="0.89249">
        <ele>189</ele>
        <time>2012-09-30T05:58:12Z</time>
      </trkpt>
      <trkpt lat="44.63432" lon="0.8927">
        <ele>187</ele>
        <time>2012-09-30T05:58:17Z</time>
      </trkpt>
      <trkpt lat="44.63419" lon="0.89293">
        <ele>182</ele>
        <time>2012-09-30T05:58:22Z</time>
      </trkpt>
      <trkpt lat="44.63406" lon="0.8931">
        <ele>177</ele>
        <time>2012-09-30T05:58:27Z</time>
      </trkpt>
      <trkpt lat="44.63389" lon="0.8933">
        <ele>173</ele>
        <time>2012-09-30T05:58:32Z</time>
      </trkpt>
      <trkpt lat="44.63369" lon="0.89354">
        <ele>174</ele>
        <time>2012-09-30T05:58:37Z</time>
      </trkpt>
      <trkpt lat="44.63345" lon="0.89379">
        <ele>175</ele>
        <time>2012-09-30T05:58:42Z</time>
      </trkpt>
      <trkpt lat="44.63314" lon="0.89407">
        <ele>172</ele>
        <time>2012-09-30T05:58:47Z</time>
      </trkpt>
      <trkpt lat="44.63293" lon="0.89429">
        <ele>169</ele>
        <time>2012-09-30T05:58:52Z</time>
      </trkpt>
      <trkpt lat="44.6328" lon="0.89445">
        <ele>168</ele>
        <time>2012-09-30T05:58:57Z</time>
      </trkpt>
      <trkpt lat="44.63263" lon="0.89461">
        <ele>168</ele>
        <time>2012-09-30T05:59:02Z</time>
      </trkpt>
      <trkpt lat="44.63263" lon="0.89474">
        <ele>168</ele>
        <time>2012-09-30T05:59:07Z</time>
      </trkpt>
      <trkpt lat="44.63274" lon="0.89493">
        <ele>168</ele>
        <time>2012-09-30T05:59:12Z</time>
      </trkpt>
      <trkpt lat="44.63284" lon="0.89509">
        <ele>168</ele>
        <time>2012-09-30T05:59:17Z</time>
      </trkpt>
      <trkpt lat="44.63294" lon="0.89526">
        <ele>168</ele>
        <time>2012-09-30T05:59:22Z</time>
      </trkpt>
      <trkpt lat="44.63306" lon="0.89541">
        <ele>168</ele>
        <time>2012-09-30T05:59:27Z</time>
      </trkpt>
      <trkpt lat="44.63317" lon="0.89555">
        <ele>168</ele>
        <time>2012-09-30T05:59:32Z</time>
      </trkpt>
      <trkpt lat="44.63321" lon="0.89574">
        <ele>168</ele>
        <time>2012-09-30T05:59:37Z</time>
      </trkpt>
      <trkpt lat="44.63324" lon="0.89584">
        <ele>168</ele>
        <time>2012-09-30T05:59:42Z</time>
      </trkpt>
      <trkpt lat="44.63332" lon="0.89596">
        <ele>171</ele>
        <time>2012-09-30T05:59:47Z</time>
      </trkpt>
      <trkpt lat="44.63341" lon="0.89616">
        <ele>172</ele>
        <time>2012-09-30T05:59:52Z</time>
      </trkpt>
      <trkpt lat="44.63344" lon="0.89637">
        <ele>177</ele>
        <time>2012-09-30T05:59:57Z</time>
      </trkpt>
      <trkpt lat="44.63343" lon="0.89663">
        <ele>182</ele>
        <time>2012-09-30T06:00:03Z</time>
      </trkpt>
      <trkpt lat="44.63348" lon="0.89685">
        <ele>182</ele>
        <time>2012-09-30T06:00:08Z</time>
      </trkpt>
      <trkpt lat="44.63354" lon="0.89706">
        <ele>180</ele>
        <time>2012-09-30T06:00:13Z</time>
      </trkpt>
      <trkpt lat="44.63358" lon="0.89727">
        <ele>176</ele>
        <time>2012-09-30T06:00:18Z</time>
      </trkpt>
      <trkpt lat="44.63356" lon="0.89745">
        <ele>175</ele>
        <time>2012-09-30T06:00:23Z</time>
      </trkpt>
      <trkpt lat="44.63359" lon="0.89757">
        <ele>175</ele>
        <time>2012-09-30T06:00:28Z</time>
      </trkpt>
      <trkpt lat="44.63361" lon="0.89762">
        <ele>175</ele>
        <time>2012-09-30T06:00:38Z</time>
      </trkpt>
      <trkpt lat="44.63363" lon="0.89761">
        <ele>175</ele>
        <time>2012-09-30T06:00:45Z</time>
      </trkpt>
      <trkpt lat="44.63363" lon="0.89764">
        <ele>175</ele>
        <time>2012-09-30T06:00:50Z</time>
      </trkpt>
      <trkpt lat="44.63363" lon="0.89768">
        <ele>175</ele>
        <time>2012-09-30T06:00:56Z</time>
      </trkpt>
      <trkpt lat="44.63366" lon="0.89778">
        <ele>175</ele>
        <time>2012-09-30T06:01:01Z</time>
      </trkpt>
      <trkpt lat="44.63373" lon="0.89787">
        <ele>174</ele>
        <time>2012-09-30T06:01:06Z</time>
      </trkpt>
      <trkpt lat="44.63382" lon="0.89801">
        <ele>173</ele>
        <time>2012-09-30T06:01:11Z</time>
      </trkpt>
      <trkpt lat="44.6339" lon="0.8982">
        <ele>172</ele>
        <time>2012-09-30T06:01:16Z</time>
      </trkpt>
      <trkpt lat="44.63402" lon="0.8984">
        <ele>172</ele>
        <time>2012-09-30T06:01:21Z</time>
      </trkpt>
      <trkpt lat="44.63412" lon="0.89858">
        <ele>172</ele>
        <time>2012-09-30T06:01:26Z</time>
      </trkpt>
      <trkpt lat="44.63422" lon="0.89877">
        <ele>172</ele>
        <time>2012-09-30T06:01:31Z</time>
      </trkpt>
      <trkpt lat="44.6343" lon="0.89896">
        <ele>172</ele>
        <time>2012-09-30T06:01:36Z</time>
      </trkpt>
      <trkpt lat="44.63421" lon="0.89912">
        <ele>175</ele>
        <time>2012-09-30T06:01:41Z</time>
      </trkpt>
      <trkpt lat="44.63416" lon="0.89936">
        <ele>176</ele>
        <time>2012-09-30T06:01:46Z</time>
      </trkpt>
      <trkpt lat="44.63406" lon="0.89954">
        <ele>181</ele>
        <time>2012-09-30T06:01:51Z</time>
      </trkpt>
      <trkpt lat="44.63396" lon="0.89968">
        <ele>186</ele>
        <time>2012-09-30T06:01:56Z</time>
      </trkpt>
      <trkpt lat="44.63393" lon="0.89986">
        <ele>192</ele>
        <time>2012-09-30T06:02:01Z</time>
      </trkpt>
      <trkpt lat="44.63397" lon="0.90006">
        <ele>197</ele>
        <time>2012-09-30T06:02:06Z</time>
      </trkpt>
      <trkpt lat="44.63395" lon="0.90031">
        <ele>202</ele>
        <time>2012-09-30T06:02:11Z</time>
      </trkpt>
      <trkpt lat="44.63396" lon="0.9006">
        <ele>206</ele>
        <time>2012-09-30T06:02:16Z</time>
      </trkpt>
      <trkpt lat="44.63388" lon="0.90082">
        <ele>206</ele>
        <time>2012-09-30T06:02:21Z</time>
      </trkpt>
      <trkpt lat="44.63384" lon="0.90115">
        <ele>206</ele>
        <time>2012-09-30T06:02:26Z</time>
      </trkpt>
      <trkpt lat="44.63373" lon="0.90143">
        <ele>206</ele>
        <time>2012-09-30T06:02:31Z</time>
      </trkpt>
      <trkpt lat="44.63377" lon="0.90158">
        <ele>206</ele>
        <time>2012-09-30T06:02:36Z</time>
      </trkpt>
      <trkpt lat="44.63387" lon="0.90165">
        <ele>201</ele>
        <time>2012-09-30T06:02:41Z</time>
      </trkpt>
      <trkpt lat="44.63397" lon="0.90183">
        <ele>192</ele>
        <time>2012-09-30T06:02:46Z</time>
      </trkpt>
      <trkpt lat="44.63403" lon="0.90205">
        <ele>186</ele>
        <time>2012-09-30T06:02:51Z</time>
      </trkpt>
      <trkpt lat="44.63406" lon="0.90223">
        <ele>183</ele>
        <time>2012-09-30T06:02:56Z</time>
      </trkpt>
      <trkpt lat="44.63409" lon="0.9024">
        <ele>181</ele>
        <time>2012-09-30T06:03:01Z</time>
      </trkpt>
      <trkpt lat="44.63407" lon="0.90263">
        <ele>179</ele>
        <time>2012-09-30T06:03:06Z</time>
      </trkpt>
      <trkpt lat="44.63399" lon="0.90283">
        <ele>182</ele>
        <time>2012-09-30T06:03:11Z</time>
      </trkpt>
      <trkpt lat="44.6339" lon="0.9029">
        <ele>183</ele>
        <time>2012-09-30T06:03:17Z</time>
      </trkpt>
      <trkpt lat="44.63382" lon="0.90297">
        <ele>183</ele>
        <time>2012-09-30T06:03:22Z</time>
      </trkpt>
      <trkpt lat="44.63369" lon="0.90302">
        <ele>183</ele>
        <time>2012-09-30T06:03:27Z</time>
      </trkpt>
      <trkpt lat="44.63351" lon="0.90308">
        <ele>183</ele>
        <time>2012-09-30T06:03:32Z</time>
      </trkpt>
      <trkpt lat="44.63329" lon="0.90312">
        <ele>183</ele>
        <time>2012-09-30T06:03:37Z</time>
      </trkpt>
      <trkpt lat="44.6331" lon="0.90312">
        <ele>183</ele>
        <time>2012-09-30T06:03:42Z</time>
      </trkpt>
      <trkpt lat="44.63287" lon="0.90309">
        <ele>184</ele>
        <time>2012-09-30T06:03:47Z</time>
      </trkpt>
      <trkpt lat="44.63266" lon="0.90304">
        <ele>184</ele>
        <time>2012-09-30T06:03:52Z</time>
      </trkpt>
      <trkpt lat="44.63245" lon="0.903">
        <ele>184</ele>
        <time>2012-09-30T06:03:57Z</time>
      </trkpt>
      <trkpt lat="44.63226" lon="0.90297">
        <ele>184</ele>
        <time>2012-09-30T06:04:02Z</time>
      </trkpt>
      <trkpt lat="44.63206" lon="0.90296">
        <ele>184</ele>
        <time>2012-09-30T06:04:07Z</time>
      </trkpt>
      <trkpt lat="44.63188" lon="0.90297">
        <ele>184</ele>
        <time>2012-09-30T06:04:12Z</time>
      </trkpt>
      <trkpt lat="44.6317" lon="0.90297">
        <ele>186</ele>
        <time>2012-09-30T06:04:17Z</time>
      </trkpt>
      <trkpt lat="44.63157" lon="0.903">
        <ele>187</ele>
        <time>2012-09-30T06:04:22Z</time>
      </trkpt>
      <trkpt lat="44.63139" lon="0.90301">
        <ele>188</ele>
        <time>2012-09-30T06:04:27Z</time>
      </trkpt>
      <trkpt lat="44.63117" lon="0.90302">
        <ele>191</ele>
        <time>2012-09-30T06:04:32Z</time>
      </trkpt>
      <trkpt lat="44.631" lon="0.90304">
        <ele>193</ele>
        <time>2012-09-30T06:04:37Z</time>
      </trkpt>
      <trkpt lat="44.63086" lon="0.90303">
        <ele>195</ele>
        <time>2012-09-30T06:04:42Z</time>
      </trkpt>
      <trkpt lat="44.63073" lon="0.90301">
        <ele>195</ele>
        <time>2012-09-30T06:04:47Z</time>
      </trkpt>
      <trkpt lat="44.63057" lon="0.90301">
        <ele>196</ele>
        <time>2012-09-30T06:04:52Z</time>
      </trkpt>
      <trkpt lat="44.63042" lon="0.90302">
        <ele>198</ele>
        <time>2012-09-30T06:04:57Z</time>
      </trkpt>
      <trkpt lat="44.6303" lon="0.90308">
        <ele>200</ele>
        <time>2012-09-30T06:05:02Z</time>
      </trkpt>
      <trkpt lat="44.63018" lon="0.90323">
        <ele>201</ele>
        <time>2012-09-30T06:05:07Z</time>
      </trkpt>
      <trkpt lat="44.62996" lon="0.90347">
        <ele>201</ele>
        <time>2012-09-30T06:05:12Z</time>
      </trkpt>
      <trkpt lat="44.62983" lon="0.9039">
        <ele>201</ele>
        <time>2012-09-30T06:05:17Z</time>
      </trkpt>
      <trkpt lat="44.62975" lon="0.90436">
        <ele>201</ele>
        <time>2012-09-30T06:05:22Z</time>
      </trkpt>
      <trkpt lat="44.6296" lon="0.90481">
        <ele>201</ele>
        <time>2012-09-30T06:05:27Z</time>
      </trkpt>
      <trkpt lat="44.62944" lon="0.90515">
        <ele>201</ele>
        <time>2012-09-30T06:05:32Z</time>
      </trkpt>
      <trkpt lat="44.62925" lon="0.90534">
        <ele>202</ele>
        <time>2012-09-30T06:05:37Z</time>
      </trkpt>
      <trkpt lat="44.62904" lon="0.90535">
        <ele>202</ele>
        <time>2012-09-30T06:05:42Z</time>
      </trkpt>
      <trkpt lat="44.62892" lon="0.90548">
        <ele>201</ele>
        <time>2012-09-30T06:05:47Z</time>
      </trkpt>
      <trkpt lat="44.62867" lon="0.90564">
        <ele>199</ele>
        <time>2012-09-30T06:05:52Z</time>
      </trkpt>
      <trkpt lat="44.62849" lon="0.90585">
        <ele>199</ele>
        <time>2012-09-30T06:05:57Z</time>
      </trkpt>
      <trkpt lat="44.62831" lon="0.90603">
        <ele>200</ele>
        <time>2012-09-30T06:06:02Z</time>
      </trkpt>
      <trkpt lat="44.62811" lon="0.90615">
        <ele>205</ele>
        <time>2012-09-30T06:06:07Z</time>
      </trkpt>
      <trkpt lat="44.62796" lon="0.90624">
        <ele>210</ele>
        <time>2012-09-30T06:06:12Z</time>
      </trkpt>
      <trkpt lat="44.62798" lon="0.90641">
        <ele>212</ele>
        <time>2012-09-30T06:06:17Z</time>
      </trkpt>
      <trkpt lat="44.62791" lon="0.9066">
        <ele>216</ele>
        <time>2012-09-30T06:06:22Z</time>
      </trkpt>
      <trkpt lat="44.62786" lon="0.90679">
        <ele>221</ele>
        <time>2012-09-30T06:06:27Z</time>
      </trkpt>
      <trkpt lat="44.6278" lon="0.90696">
        <ele>226</ele>
        <time>2012-09-30T06:06:32Z</time>
      </trkpt>
      <trkpt lat="44.62776" lon="0.90716">
        <ele>226</ele>
        <time>2012-09-30T06:06:37Z</time>
      </trkpt>
      <trkpt lat="44.62769" lon="0.90732">
        <ele>228</ele>
        <time>2012-09-30T06:06:42Z</time>
      </trkpt>
      <trkpt lat="44.62762" lon="0.90746">
        <ele>233</ele>
        <time>2012-09-30T06:06:47Z</time>
      </trkpt>
      <trkpt lat="44.62761" lon="0.9076">
        <ele>238</ele>
        <time>2012-09-30T06:06:52Z</time>
      </trkpt>
      <trkpt lat="44.62762" lon="0.90771">
        <ele>239</ele>
        <time>2012-09-30T06:06:58Z</time>
      </trkpt>
      <trkpt lat="44.62768" lon="0.90776">
        <ele>236</ele>
        <time>2012-09-30T06:07:03Z</time>
      </trkpt>
      <trkpt lat="44.62769" lon="0.90777">
        <ele>228</ele>
        <time>2012-09-30T06:07:09Z</time>
      </trkpt>
      <trkpt lat="44.62767" lon="0.90775">
        <ele>223</ele>
        <time>2012-09-30T06:07:14Z</time>
      </trkpt>
      <trkpt lat="44.62768" lon="0.90776">
        <ele>218</ele>
        <time>2012-09-30T06:07:20Z</time>
      </trkpt>
      <trkpt lat="44.62763" lon="0.90783">
        <ele>218</ele>
        <time>2012-09-30T06:07:25Z</time>
      </trkpt>
      <trkpt lat="44.62752" lon="0.90794">
        <ele>218</ele>
        <time>2012-09-30T06:07:30Z</time>
      </trkpt>
      <trkpt lat="44.62736" lon="0.90805">
        <ele>223</ele>
        <time>2012-09-30T06:07:35Z</time>
      </trkpt>
      <trkpt lat="44.6272" lon="0.90814">
        <ele>228</ele>
        <time>2012-09-30T06:07:40Z</time>
      </trkpt>
      <trkpt lat="44.62708" lon="0.90831">
        <ele>232</ele>
        <time>2012-09-30T06:07:45Z</time>
      </trkpt>
      <trkpt lat="44.62699" lon="0.90842">
        <ele>234</ele>
        <time>2012-09-30T06:07:51Z</time>
      </trkpt>
      <trkpt lat="44.62688" lon="0.90846">
        <ele>237</ele>
        <time>2012-09-30T06:07:56Z</time>
      </trkpt>
      <trkpt lat="44.62683" lon="0.90849">
        <ele>238</ele>
        <time>2012-09-30T06:08:01Z</time>
      </trkpt>
      <trkpt lat="44.62679" lon="0.90855">
        <ele>238</ele>
        <time>2012-09-30T06:08:06Z</time>
      </trkpt>
      <trkpt lat="44.62669" lon="0.9086">
        <ele>238</ele>
        <time>2012-09-30T06:08:11Z</time>
      </trkpt>
      <trkpt lat="44.62661" lon="0.90865">
        <ele>238</ele>
        <time>2012-09-30T06:08:16Z</time>
      </trkpt>
      <trkpt lat="44.6265" lon="0.90865">
        <ele>236</ele>
        <time>2012-09-30T06:08:21Z</time>
      </trkpt>
      <trkpt lat="44.62637" lon="0.90866">
        <ele>234</ele>
        <time>2012-09-30T06:08:26Z</time>
      </trkpt>
      <trkpt lat="44.62626" lon="0.90872">
        <ele>231</ele>
        <time>2012-09-30T06:08:31Z</time>
      </trkpt>
      <trkpt lat="44.62613" lon="0.90878">
        <ele>230</ele>
        <time>2012-09-30T06:08:36Z</time>
      </trkpt>
      <trkpt lat="44.62603" lon="0.90886">
        <ele>230</ele>
        <time>2012-09-30T06:08:41Z</time>
      </trkpt>
      <trkpt lat="44.6259" lon="0.90894">
        <ele>230</ele>
        <time>2012-09-30T06:08:46Z</time>
      </trkpt>
      <trkpt lat="44.62578" lon="0.90904">
        <ele>230</ele>
        <time>2012-09-30T06:08:51Z</time>
      </trkpt>
      <trkpt lat="44.62567" lon="0.90918">
        <ele>230</ele>
        <time>2012-09-30T06:08:56Z</time>
      </trkpt>
      <trkpt lat="44.62556" lon="0.90929">
        <ele>232</ele>
        <time>2012-09-30T06:09:01Z</time>
      </trkpt>
      <trkpt lat="44.62543" lon="0.90939">
        <ele>236</ele>
        <time>2012-09-30T06:09:06Z</time>
      </trkpt>
      <trkpt lat="44.62534" lon="0.90947">
        <ele>236</ele>
        <time>2012-09-30T06:09:11Z</time>
      </trkpt>
      <trkpt lat="44.62531" lon="0.90961">
        <ele>233</ele>
        <time>2012-09-30T06:09:16Z</time>
      </trkpt>
      <trkpt lat="44.62525" lon="0.90976">
        <ele>232</ele>
        <time>2012-09-30T06:09:21Z</time>
      </trkpt>
      <trkpt lat="44.62518" lon="0.90989">
        <ele>232</ele>
        <time>2012-09-30T06:09:26Z</time>
      </trkpt>
      <trkpt lat="44.62511" lon="0.91004">
        <ele>235</ele>
        <time>2012-09-30T06:09:31Z</time>
      </trkpt>
      <trkpt lat="44.625" lon="0.9102">
        <ele>240</ele>
        <time>2012-09-30T06:09:36Z</time>
      </trkpt>
      <trkpt lat="44.62487" lon="0.91034">
        <ele>245</ele>
        <time>2012-09-30T06:09:41Z</time>
      </trkpt>
      <trkpt lat="44.62476" lon="0.91053">
        <ele>251</ele>
        <time>2012-09-30T06:09:46Z</time>
      </trkpt>
      <trkpt lat="44.62461" lon="0.91069">
        <ele>257</ele>
        <time>2012-09-30T06:09:52Z</time>
      </trkpt>
      <trkpt lat="44.6245" lon="0.91076">
        <ele>258</ele>
        <time>2012-09-30T06:09:57Z</time>
      </trkpt>
      <trkpt lat="44.62439" lon="0.91086">
        <ele>258</ele>
        <time>2012-09-30T06:10:02Z</time>
      </trkpt>
      <trkpt lat="44.62435" lon="0.911">
        <ele>258</ele>
        <time>2012-09-30T06:10:07Z</time>
      </trkpt>
      <trkpt lat="44.62434" lon="0.91117">
        <ele>256</ele>
        <time>2012-09-30T06:10:12Z</time>
      </trkpt>
      <trkpt lat="44.62434" lon="0.91136">
        <ele>256</ele>
        <time>2012-09-30T06:10:17Z</time>
      </trkpt>
      <trkpt lat="44.62435" lon="0.91153">
        <ele>256</ele>
        <time>2012-09-30T06:10:22Z</time>
      </trkpt>
      <trkpt lat="44.62442" lon="0.91171">
        <ele>251</ele>
        <time>2012-09-30T06:10:27Z</time>
      </trkpt>
      <trkpt lat="44.62438" lon="0.91189">
        <ele>249</ele>
        <time>2012-09-30T06:10:32Z</time>
      </trkpt>
      <trkpt lat="44.62436" lon="0.91206">
        <ele>249</ele>
        <time>2012-09-30T06:10:37Z</time>
      </trkpt>
      <trkpt lat="44.62424" lon="0.91218">
        <ele>249</ele>
        <time>2012-09-30T06:10:42Z</time>
      </trkpt>
      <trkpt lat="44.62413" lon="0.91232">
        <ele>253</ele>
        <time>2012-09-30T06:10:47Z</time>
      </trkpt>
      <trkpt lat="44.62401" lon="0.91247">
        <ele>258</ele>
        <time>2012-09-30T06:10:52Z</time>
      </trkpt>
      <trkpt lat="44.62388" lon="0.9126">
        <ele>260</ele>
        <time>2012-09-30T06:10:57Z</time>
      </trkpt>
      <trkpt lat="44.62387" lon="0.91271">
        <ele>265</ele>
        <time>2012-09-30T06:11:02Z</time>
      </trkpt>
      <trkpt lat="44.6239" lon="0.9128">
        <ele>266</ele>
        <time>2012-09-30T06:11:07Z</time>
      </trkpt>
      <trkpt lat="44.62396" lon="0.91291">
        <ele>263</ele>
        <time>2012-09-30T06:11:13Z</time>
      </trkpt>
      <trkpt lat="44.62403" lon="0.91301">
        <ele>258</ele>
        <time>2012-09-30T06:11:18Z</time>
      </trkpt>
      <trkpt lat="44.6241" lon="0.91312">
        <ele>253</ele>
        <time>2012-09-30T06:11:23Z</time>
      </trkpt>
      <trkpt lat="44.6242" lon="0.91327">
        <ele>243</ele>
        <time>2012-09-30T06:11:28Z</time>
      </trkpt>
      <trkpt lat="44.62431" lon="0.91342">
        <ele>236</ele>
        <time>2012-09-30T06:11:33Z</time>
      </trkpt>
      <trkpt lat="44.62433" lon="0.91354">
        <ele>231</ele>
        <time>2012-09-30T06:11:38Z</time>
      </trkpt>
      <trkpt lat="44.6244" lon="0.91368">
        <ele>230</ele>
        <time>2012-09-30T06:11:43Z</time>
      </trkpt>
      <trkpt lat="44.62448" lon="0.91383">
        <ele>230</ele>
        <time>2012-09-30T06:11:48Z</time>
      </trkpt>
      <trkpt lat="44.62455" lon="0.91399">
        <ele>229</ele>
        <time>2012-09-30T06:11:53Z</time>
      </trkpt>
      <trkpt lat="44.6246" lon="0.91417">
        <ele>228</ele>
        <time>2012-09-30T06:11:58Z</time>
      </trkpt>
      <trkpt lat="44.62463" lon="0.91437">
        <ele>230</ele>
        <time>2012-09-30T06:12:03Z</time>
      </trkpt>
      <trkpt lat="44.62468" lon="0.91457">
        <ele>235</ele>
        <time>2012-09-30T06:12:08Z</time>
      </trkpt>
      <trkpt lat="44.62477" lon="0.91479">
        <ele>238</ele>
        <time>2012-09-30T06:12:13Z</time>
      </trkpt>
      <trkpt lat="44.62481" lon="0.91499">
        <ele>238</ele>
        <time>2012-09-30T06:12:18Z</time>
      </trkpt>
      <trkpt lat="44.62477" lon="0.9152">
        <ele>238</ele>
        <time>2012-09-30T06:12:23Z</time>
      </trkpt>
      <trkpt lat="44.62462" lon="0.91545">
        <ele>240</ele>
        <time>2012-09-30T06:12:28Z</time>
      </trkpt>
      <trkpt lat="44.62441" lon="0.91579">
        <ele>240</ele>
        <time>2012-09-30T06:12:33Z</time>
      </trkpt>
      <trkpt lat="44.62424" lon="0.9162">
        <ele>240</ele>
        <time>2012-09-30T06:12:38Z</time>
      </trkpt>
      <trkpt lat="44.6242" lon="0.91662">
        <ele>240</ele>
        <time>2012-09-30T06:12:43Z</time>
      </trkpt>
      <trkpt lat="44.6242" lon="0.91712">
        <ele>240</ele>
        <time>2012-09-30T06:12:48Z</time>
      </trkpt>
      <trkpt lat="44.62419" lon="0.91752">
        <ele>240</ele>
        <time>2012-09-30T06:12:53Z</time>
      </trkpt>
      <trkpt lat="44.62414" lon="0.91786">
        <ele>245</ele>
        <time>2012-09-30T06:12:58Z</time>
      </trkpt>
      <trkpt lat="44.62405" lon="0.918">
        <ele>250</ele>
        <time>2012-09-30T06:13:03Z</time>
      </trkpt>
      <trkpt lat="44.62402" lon="0.91816">
        <ele>252</ele>
        <time>2012-09-30T06:13:08Z</time>
      </trkpt>
      <trkpt lat="44.62402" lon="0.91849">
        <ele>255</ele>
        <time>2012-09-30T06:13:13Z</time>
      </trkpt>
      <trkpt lat="44.62383" lon="0.91915">
        <ele>250</ele>
        <time>2012-09-30T06:13:18Z</time>
      </trkpt>
      <trkpt lat="44.62372" lon="0.91959">
        <ele>245</ele>
        <time>2012-09-30T06:13:23Z</time>
      </trkpt>
      <trkpt lat="44.62365" lon="0.91981">
        <ele>243</ele>
        <time>2012-09-30T06:13:28Z</time>
      </trkpt>
      <trkpt lat="44.62363" lon="0.91999">
        <ele>243</ele>
        <time>2012-09-30T06:13:33Z</time>
      </trkpt>
      <trkpt lat="44.62358" lon="0.92013">
        <ele>243</ele>
        <time>2012-09-30T06:13:38Z</time>
      </trkpt>
      <trkpt lat="44.62356" lon="0.92025">
        <ele>243</ele>
        <time>2012-09-30T06:13:43Z</time>
      </trkpt>
      <trkpt lat="44.62356" lon="0.92041">
        <ele>243</ele>
        <time>2012-09-30T06:13:48Z</time>
      </trkpt>
      <trkpt lat="44.62357" lon="0.92055">
        <ele>243</ele>
        <time>2012-09-30T06:13:53Z</time>
      </trkpt>
      <trkpt lat="44.62356" lon="0.9207">
        <ele>244</ele>
        <time>2012-09-30T06:13:58Z</time>
      </trkpt>
      <trkpt lat="44.62355" lon="0.92086">
        <ele>248</ele>
        <time>2012-09-30T06:14:03Z</time>
      </trkpt>
      <trkpt lat="44.62354" lon="0.92102">
        <ele>251</ele>
        <time>2012-09-30T06:14:08Z</time>
      </trkpt>
      <trkpt lat="44.62357" lon="0.92118">
        <ele>253</ele>
        <time>2012-09-30T06:14:13Z</time>
      </trkpt>
      <trkpt lat="44.62363" lon="0.92135">
        <ele>253</ele>
        <time>2012-09-30T06:14:18Z</time>
      </trkpt>
      <trkpt lat="44.6236" lon="0.92152">
        <ele>253</ele>
        <time>2012-09-30T06:14:23Z</time>
      </trkpt>
      <trkpt lat="44.62356" lon="0.9216">
        <ele>253</ele>
        <time>2012-09-30T06:14:28Z</time>
      </trkpt>
      <trkpt lat="44.62354" lon="0.92165">
        <ele>259</ele>
        <time>2012-09-30T06:14:39Z</time>
      </trkpt>
      <trkpt lat="44.62354" lon="0.92163">
        <ele>260</ele>
        <time>2012-09-30T06:14:47Z</time>
      </trkpt>
      <trkpt lat="44.62354" lon="0.92162">
        <ele>260</ele>
        <time>2012-09-30T06:14:52Z</time>
      </trkpt>
      <trkpt lat="44.62352" lon="0.92158">
        <ele>261</ele>
        <time>2012-09-30T06:14:57Z</time>
      </trkpt>
      <trkpt lat="44.62353" lon="0.9216">
        <ele>264</ele>
        <time>2012-09-30T06:15:04Z</time>
      </trkpt>
      <trkpt lat="44.62352" lon="0.92168">
        <ele>263</ele>
        <time>2012-09-30T06:15:09Z</time>
      </trkpt>
      <trkpt lat="44.6235" lon="0.92193">
        <ele>261</ele>
        <time>2012-09-30T06:15:14Z</time>
      </trkpt>
      <trkpt lat="44.62337" lon="0.92228">
        <ele>261</ele>
        <time>2012-09-30T06:15:19Z</time>
      </trkpt>
      <trkpt lat="44.62318" lon="0.92267">
        <ele>265</ele>
        <time>2012-09-30T06:15:24Z</time>
      </trkpt>
      <trkpt lat="44.62303" lon="0.92297">
        <ele>266</ele>
        <time>2012-09-30T06:15:29Z</time>
      </trkpt>
      <trkpt lat="44.62299" lon="0.92326">
        <ele>265</ele>
        <time>2012-09-30T06:15:34Z</time>
      </trkpt>
      <trkpt lat="44.62301" lon="0.92351">
        <ele>260</ele>
        <time>2012-09-30T06:15:39Z</time>
      </trkpt>
      <trkpt lat="44.62294" lon="0.92378">
        <ele>259</ele>
        <time>2012-09-30T06:15:44Z</time>
      </trkpt>
      <trkpt lat="44.62292" lon="0.92403">
        <ele>254</ele>
        <time>2012-09-30T06:15:49Z</time>
      </trkpt>
      <trkpt lat="44.62289" lon="0.92425">
        <ele>253</ele>
        <time>2012-09-30T06:15:54Z</time>
      </trkpt>
      <trkpt lat="44.6229" lon="0.92444">
        <ele>253</ele>
        <time>2012-09-30T06:15:59Z</time>
      </trkpt>
      <trkpt lat="44.62288" lon="0.9246">
        <ele>257</ele>
        <time>2012-09-30T06:16:04Z</time>
      </trkpt>
      <trkpt lat="44.62283" lon="0.92473">
        <ele>262</ele>
        <time>2012-09-30T06:16:09Z</time>
      </trkpt>
      <trkpt lat="44.62276" lon="0.9249">
        <ele>265</ele>
        <time>2012-09-30T06:16:14Z</time>
      </trkpt>
      <trkpt lat="44.62272" lon="0.92505">
        <ele>267</ele>
        <time>2012-09-30T06:16:19Z</time>
      </trkpt>
      <trkpt lat="44.62264" lon="0.92524">
        <ele>267</ele>
        <time>2012-09-30T06:16:24Z</time>
      </trkpt>
      <trkpt lat="44.62256" lon="0.9254">
        <ele>272</ele>
        <time>2012-09-30T06:16:29Z</time>
      </trkpt>
      <trkpt lat="44.6225" lon="0.92553">
        <ele>275</ele>
        <time>2012-09-30T06:16:34Z</time>
      </trkpt>
      <trkpt lat="44.62246" lon="0.92564">
        <ele>276</ele>
        <time>2012-09-30T06:16:39Z</time>
      </trkpt>
      <trkpt lat="44.62247" lon="0.92569">
        <ele>277</ele>
        <time>2012-09-30T06:16:44Z</time>
      </trkpt>
      <trkpt lat="44.62246" lon="0.92575">
        <ele>277</ele>
        <time>2012-09-30T06:16:49Z</time>
      </trkpt>
      <trkpt lat="44.62249" lon="0.92574">
        <ele>281</ele>
        <time>2012-09-30T06:16:54Z</time>
      </trkpt>
      <trkpt lat="44.62257" lon="0.92571">
        <ele>277</ele>
        <time>2012-09-30T06:17:01Z</time>
      </trkpt>
      <trkpt lat="44.62255" lon="0.92571">
        <ele>277</ele>
        <time>2012-09-30T06:17:06Z</time>
      </trkpt>
      <trkpt lat="44.62257" lon="0.92571">
        <ele>278</ele>
        <time>2012-09-30T06:17:11Z</time>
      </trkpt>
      <trkpt lat="44.62261" lon="0.92572">
        <ele>277</ele>
        <time>2012-09-30T06:17:16Z</time>
      </trkpt>
      <trkpt lat="44.62268" lon="0.92571">
        <ele>266</ele>
        <time>2012-09-30T06:17:23Z</time>
      </trkpt>
      <trkpt lat="44.62265" lon="0.92577">
        <ele>259</ele>
        <time>2012-09-30T06:17:28Z</time>
      </trkpt>
      <trkpt lat="44.62275" lon="0.92583">
        <ele>253</ele>
        <time>2012-09-30T06:17:33Z</time>
      </trkpt>
      <trkpt lat="44.62291" lon="0.92612">
        <ele>248</ele>
        <time>2012-09-30T06:17:38Z</time>
      </trkpt>
      <trkpt lat="44.62311" lon="0.92659">
        <ele>243</ele>
        <time>2012-09-30T06:17:43Z</time>
      </trkpt>
      <trkpt lat="44.62337" lon="0.92739">
        <ele>239</ele>
        <time>2012-09-30T06:17:48Z</time>
      </trkpt>
      <trkpt lat="44.6235" lon="0.92819">
        <ele>237</ele>
        <time>2012-09-30T06:17:53Z</time>
      </trkpt>
      <trkpt lat="44.6237" lon="0.92895">
        <ele>234</ele>
        <time>2012-09-30T06:17:58Z</time>
      </trkpt>
      <trkpt lat="44.62402" lon="0.92962">
        <ele>230</ele>
        <time>2012-09-30T06:18:03Z</time>
      </trkpt>
      <trkpt lat="44.62432" lon="0.93021">
        <ele>225</ele>
        <time>2012-09-30T06:18:09Z</time>
      </trkpt>
      <trkpt lat="44.6247" lon="0.93063">
        <ele>219</ele>
        <time>2012-09-30T06:18:14Z</time>
      </trkpt>
      <trkpt lat="44.62494" lon="0.93101">
        <ele>210</ele>
        <time>2012-09-30T06:18:19Z</time>
      </trkpt>
      <trkpt lat="44.62505" lon="0.93137">
        <ele>205</ele>
        <time>2012-09-30T06:18:24Z</time>
      </trkpt>
      <trkpt lat="44.62513" lon="0.93169">
        <ele>205</ele>
        <time>2012-09-30T06:18:29Z</time>
      </trkpt>
      <trkpt lat="44.62523" lon="0.93195">
        <ele>205</ele>
        <time>2012-09-30T06:18:34Z</time>
      </trkpt>
      <trkpt lat="44.62506" lon="0.93199">
        <ele>207</ele>
        <time>2012-09-30T06:18:39Z</time>
      </trkpt>
      <trkpt lat="44.62478" lon="0.93199">
        <ele>210</ele>
        <time>2012-09-30T06:18:44Z</time>
      </trkpt>
      <trkpt lat="44.62449" lon="0.93185">
        <ele>211</ele>
        <time>2012-09-30T06:18:49Z</time>
      </trkpt>
      <trkpt lat="44.6242" lon="0.93166">
        <ele>211</ele>
        <time>2012-09-30T06:18:54Z</time>
      </trkpt>
      <trkpt lat="44.62395" lon="0.93158">
        <ele>211</ele>
        <time>2012-09-30T06:18:59Z</time>
      </trkpt>
      <trkpt lat="44.62372" lon="0.93174">
        <ele>216</ele>
        <time>2012-09-30T06:19:04Z</time>
      </trkpt>
      <trkpt lat="44.62349" lon="0.93198">
        <ele>221</ele>
        <time>2012-09-30T06:19:09Z</time>
      </trkpt>
      <trkpt lat="44.62324" lon="0.93215">
        <ele>226</ele>
        <time>2012-09-30T06:19:14Z</time>
      </trkpt>
      <trkpt lat="44.623" lon="0.93239">
        <ele>231</ele>
        <time>2012-09-30T06:19:19Z</time>
      </trkpt>
      <trkpt lat="44.62276" lon="0.93272">
        <ele>236</ele>
        <time>2012-09-30T06:19:24Z</time>
      </trkpt>
      <trkpt lat="44.62256" lon="0.93296">
        <ele>240</ele>
        <time>2012-09-30T06:19:29Z</time>
      </trkpt>
      <trkpt lat="44.62247" lon="0.9332">
        <ele>243</ele>
        <time>2012-09-30T06:19:34Z</time>
      </trkpt>
      <trkpt lat="44.62236" lon="0.93353">
        <ele>245</ele>
        <time>2012-09-30T06:19:39Z</time>
      </trkpt>
      <trkpt lat="44.62238" lon="0.93362">
        <ele>247</ele>
        <time>2012-09-30T06:19:46Z</time>
      </trkpt>
      <trkpt lat="44.62244" lon="0.93366">
        <ele>243</ele>
        <time>2012-09-30T06:19:51Z</time>
      </trkpt>
      <trkpt lat="44.62249" lon="0.93366">
        <ele>234</ele>
        <time>2012-09-30T06:19:57Z</time>
      </trkpt>
      <trkpt lat="44.62247" lon="0.93365">
        <ele>222</ele>
        <time>2012-09-30T06:20:05Z</time>
      </trkpt>
      <trkpt lat="44.62249" lon="0.93366">
        <ele>216</ele>
        <time>2012-09-30T06:20:11Z</time>
      </trkpt>
      <trkpt lat="44.62247" lon="0.93368">
        <ele>209</ele>
        <time>2012-09-30T06:20:18Z</time>
      </trkpt>
      <trkpt lat="44.62243" lon="0.93369">
        <ele>208</ele>
        <time>2012-09-30T06:20:25Z</time>
      </trkpt>
      <trkpt lat="44.62232" lon="0.93375">
        <ele>208</ele>
        <time>2012-09-30T06:20:30Z</time>
      </trkpt>
      <trkpt lat="44.62223" lon="0.93388">
        <ele>213</ele>
        <time>2012-09-30T06:20:35Z</time>
      </trkpt>
      <trkpt lat="44.62216" lon="0.93399">
        <ele>219</ele>
        <time>2012-09-30T06:20:40Z</time>
      </trkpt>
      <trkpt lat="44.6221" lon="0.93407">
        <ele>224</ele>
        <time>2012-09-30T06:20:45Z</time>
      </trkpt>
      <trkpt lat="44.62201" lon="0.93416">
        <ele>229</ele>
        <time>2012-09-30T06:20:50Z</time>
      </trkpt>
      <trkpt lat="44.62194" lon="0.93423">
        <ele>234</ele>
        <time>2012-09-30T06:20:55Z</time>
      </trkpt>
      <trkpt lat="44.62186" lon="0.93435">
        <ele>239</ele>
        <time>2012-09-30T06:21:00Z</time>
      </trkpt>
      <trkpt lat="44.6218" lon="0.93446">
        <ele>244</ele>
        <time>2012-09-30T06:21:05Z</time>
      </trkpt>
      <trkpt lat="44.6217" lon="0.93458">
        <ele>249</ele>
        <time>2012-09-30T06:21:10Z</time>
      </trkpt>
      <trkpt lat="44.62161" lon="0.93469">
        <ele>254</ele>
        <time>2012-09-30T06:21:15Z</time>
      </trkpt>
      <trkpt lat="44.62158" lon="0.93483">
        <ele>259</ele>
        <time>2012-09-30T06:21:20Z</time>
      </trkpt>
      <trkpt lat="44.62151" lon="0.93497">
        <ele>264</ele>
        <time>2012-09-30T06:21:25Z</time>
      </trkpt>
      <trkpt lat="44.62143" lon="0.93517">
        <ele>268</ele>
        <time>2012-09-30T06:21:30Z</time>
      </trkpt>
      <trkpt lat="44.62135" lon="0.9354">
        <ele>267</ele>
        <time>2012-09-30T06:21:35Z</time>
      </trkpt>
      <trkpt lat="44.62111" lon="0.93564">
        <ele>263</ele>
        <time>2012-09-30T06:21:40Z</time>
      </trkpt>
      <trkpt lat="44.62108" lon="0.93565">
        <ele>255</ele>
        <time>2012-09-30T06:21:47Z</time>
      </trkpt>
      <trkpt lat="44.62111" lon="0.93564">
        <ele>242</ele>
        <time>2012-09-30T06:21:54Z</time>
      </trkpt>
      <trkpt lat="44.62112" lon="0.93565">
        <ele>225</ele>
        <time>2012-09-30T06:22:06Z</time>
      </trkpt>
      <trkpt lat="44.62113" lon="0.93563">
        <ele>220</ele>
        <time>2012-09-30T06:22:12Z</time>
      </trkpt>
      <trkpt lat="44.62116" lon="0.93561">
        <ele>215</ele>
        <time>2012-09-30T06:22:17Z</time>
      </trkpt>
      <trkpt lat="44.62119" lon="0.93559">
        <ele>202</ele>
        <time>2012-09-30T06:22:25Z</time>
      </trkpt>
      <trkpt lat="44.62124" lon="0.93555">
        <ele>192</ele>
        <time>2012-09-30T06:22:30Z</time>
      </trkpt>
      <trkpt lat="44.62123" lon="0.93555">
        <ele>182</ele>
        <time>2012-09-30T06:22:35Z</time>
      </trkpt>
      <trkpt lat="44.62119" lon="0.93557">
        <ele>180</ele>
        <time>2012-09-30T06:22:41Z</time>
      </trkpt>
      <trkpt lat="44.62111" lon="0.93561">
        <ele>184</ele>
        <time>2012-09-30T06:22:46Z</time>
      </trkpt>
      <trkpt lat="44.62094" lon="0.93563">
        <ele>189</ele>
        <time>2012-09-30T06:22:51Z</time>
      </trkpt>
      <trkpt lat="44.62068" lon="0.93568">
        <ele>194</ele>
        <time>2012-09-30T06:22:56Z</time>
      </trkpt>
      <trkpt lat="44.62042" lon="0.93587">
        <ele>199</ele>
        <time>2012-09-30T06:23:01Z</time>
      </trkpt>
      <trkpt lat="44.62017" lon="0.93613">
        <ele>202</ele>
        <time>2012-09-30T06:23:06Z</time>
      </trkpt>
      <trkpt lat="44.61988" lon="0.93641">
        <ele>199</ele>
        <time>2012-09-30T06:23:11Z</time>
      </trkpt>
      <trkpt lat="44.61937" lon="0.93686">
        <ele>195</ele>
        <time>2012-09-30T06:23:16Z</time>
      </trkpt>
      <trkpt lat="44.61888" lon="0.93723">
        <ele>192</ele>
        <time>2012-09-30T06:23:22Z</time>
      </trkpt>
      <trkpt lat="44.61851" lon="0.9374">
        <ele>191</ele>
        <time>2012-09-30T06:23:27Z</time>
      </trkpt>
      <trkpt lat="44.61837" lon="0.93748">
        <ele>188</ele>
        <time>2012-09-30T06:23:32Z</time>
      </trkpt>
      <trkpt lat="44.6184" lon="0.93761">
        <ele>186</ele>
        <time>2012-09-30T06:23:37Z</time>
      </trkpt>
      <trkpt lat="44.61842" lon="0.93777">
        <ele>185</ele>
        <time>2012-09-30T06:23:42Z</time>
      </trkpt>
      <trkpt lat="44.61834" lon="0.9378">
        <ele>186</ele>
        <time>2012-09-30T06:23:47Z</time>
      </trkpt>
      <trkpt lat="44.61819" lon="0.93778">
        <ele>191</ele>
        <time>2012-09-30T06:23:52Z</time>
      </trkpt>
      <trkpt lat="44.61804" lon="0.93769">
        <ele>196</ele>
        <time>2012-09-30T06:23:57Z</time>
      </trkpt>
      <trkpt lat="44.61792" lon="0.93762">
        <ele>201</ele>
        <time>2012-09-30T06:24:02Z</time>
      </trkpt>
      <trkpt lat="44.61782" lon="0.93764">
        <ele>202</ele>
        <time>2012-09-30T06:24:07Z</time>
      </trkpt>
      <trkpt lat="44.61773" lon="0.93777">
        <ele>203</ele>
        <time>2012-09-30T06:24:12Z</time>
      </trkpt>
      <trkpt lat="44.61762" lon="0.93791">
        <ele>207</ele>
        <time>2012-09-30T06:24:17Z</time>
      </trkpt>
      <trkpt lat="44.61752" lon="0.93804">
        <ele>212</ele>
        <time>2012-09-30T06:24:22Z</time>
      </trkpt>
      <trkpt lat="44.61742" lon="0.93816">
        <ele>221</ele>
        <time>2012-09-30T06:24:27Z</time>
      </trkpt>
      <trkpt lat="44.61729" lon="0.93826">
        <ele>228</ele>
        <time>2012-09-30T06:24:32Z</time>
      </trkpt>
      <trkpt lat="44.61719" lon="0.93835">
        <ele>232</ele>
        <time>2012-09-30T06:24:37Z</time>
      </trkpt>
      <trkpt lat="44.61708" lon="0.93844">
        <ele>232</ele>
        <time>2012-09-30T06:24:42Z</time>
      </trkpt>
      <trkpt lat="44.61698" lon="0.93853">
        <ele>228</ele>
        <time>2012-09-30T06:24:47Z</time>
      </trkpt>
      <trkpt lat="44.61687" lon="0.9386">
        <ele>223</ele>
        <time>2012-09-30T06:24:52Z</time>
      </trkpt>
      <trkpt lat="44.61676" lon="0.93862">
        <ele>218</ele>
        <time>2012-09-30T06:24:57Z</time>
      </trkpt>
      <trkpt lat="44.61663" lon="0.93854">
        <ele>216</ele>
        <time>2012-09-30T06:25:02Z</time>
      </trkpt>
      <trkpt lat="44.61651" lon="0.93848">
        <ele>216</ele>
        <time>2012-09-30T06:25:07Z</time>
      </trkpt>
      <trkpt lat="44.61639" lon="0.93844">
        <ele>216</ele>
        <time>2012-09-30T06:25:12Z</time>
      </trkpt>
      <trkpt lat="44.61631" lon="0.93844">
        <ele>216</ele>
        <time>2012-09-30T06:25:17Z</time>
      </trkpt>
      <trkpt lat="44.61631" lon="0.93846">
        <ele>216</ele>
        <time>2012-09-30T06:25:29Z</time>
      </trkpt>
      <trkpt lat="44.6163" lon="0.93847">
        <ele>216</ele>
        <time>2012-09-30T06:25:34Z</time>
      </trkpt>
      <trkpt lat="44.61628" lon="0.93858">
        <ele>216</ele>
        <time>2012-09-30T06:25:39Z</time>
      </trkpt>
      <trkpt lat="44.61623" lon="0.93871">
        <ele>219</ele>
        <time>2012-09-30T06:25:44Z</time>
      </trkpt>
      <trkpt lat="44.61619" lon="0.93877">
        <ele>224</ele>
        <time>2012-09-30T06:25:49Z</time>
      </trkpt>
      <trkpt lat="44.61618" lon="0.9389">
        <ele>225</ele>
        <time>2012-09-30T06:25:54Z</time>
      </trkpt>
      <trkpt lat="44.61616" lon="0.93904">
        <ele>230</ele>
        <time>2012-09-30T06:25:59Z</time>
      </trkpt>
      <trkpt lat="44.61614" lon="0.93918">
        <ele>235</ele>
        <time>2012-09-30T06:26:04Z</time>
      </trkpt>
      <trkpt lat="44.61612" lon="0.93933">
        <ele>236</ele>
        <time>2012-09-30T06:26:09Z</time>
      </trkpt>
      <trkpt lat="44.61611" lon="0.93949">
        <ele>236</ele>
        <time>2012-09-30T06:26:14Z</time>
      </trkpt>
      <trkpt lat="44.61606" lon="0.93963">
        <ele>236</ele>
        <time>2012-09-30T06:26:19Z</time>
      </trkpt>
      <trkpt lat="44.61603" lon="0.9397">
        <ele>236</ele>
        <time>2012-09-30T06:26:25Z</time>
      </trkpt>
      <trkpt lat="44.61605" lon="0.93967">
        <ele>232</ele>
        <time>2012-09-30T06:26:37Z</time>
      </trkpt>
      <trkpt lat="44.61606" lon="0.93966">
        <ele>227</ele>
        <time>2012-09-30T06:26:45Z</time>
      </trkpt>
      <trkpt lat="44.61606" lon="0.93964">
        <ele>224</ele>
        <time>2012-09-30T06:26:51Z</time>
      </trkpt>
      <trkpt lat="44.61607" lon="0.93963">
        <ele>222</ele>
        <time>2012-09-30T06:26:56Z</time>
      </trkpt>
      <trkpt lat="44.61607" lon="0.93961">
        <ele>220</ele>
        <time>2012-09-30T06:27:01Z</time>
      </trkpt>
      <trkpt lat="44.61608" lon="0.9396">
        <ele>216</ele>
        <time>2012-09-30T06:27:27Z</time>
      </trkpt>
      <trkpt lat="44.61608" lon="0.93958">
        <ele>215</ele>
        <time>2012-09-30T06:27:43Z</time>
      </trkpt>
      <trkpt lat="44.61606" lon="0.93964">
        <ele>215</ele>
        <time>2012-09-30T06:27:48Z</time>
      </trkpt>
      <trkpt lat="44.61604" lon="0.93977">
        <ele>215</ele>
        <time>2012-09-30T06:27:53Z</time>
      </trkpt>
      <trkpt lat="44.61602" lon="0.93996">
        <ele>215</ele>
        <time>2012-09-30T06:27:58Z</time>
      </trkpt>
      <trkpt lat="44.61599" lon="0.94017">
        <ele>215</ele>
        <time>2012-09-30T06:28:03Z</time>
      </trkpt>
      <trkpt lat="44.61592" lon="0.94034">
        <ele>220</ele>
        <time>2012-09-30T06:28:08Z</time>
      </trkpt>
      <trkpt lat="44.61586" lon="0.94057">
        <ele>225</ele>
        <time>2012-09-30T06:28:13Z</time>
      </trkpt>
      <trkpt lat="44.61577" lon="0.94074">
        <ele>230</ele>
        <time>2012-09-30T06:28:18Z</time>
      </trkpt>
      <trkpt lat="44.61572" lon="0.9409">
        <ele>235</ele>
        <time>2012-09-30T06:28:23Z</time>
      </trkpt>
      <trkpt lat="44.61565" lon="0.94112">
        <ele>238</ele>
        <time>2012-09-30T06:28:28Z</time>
      </trkpt>
      <trkpt lat="44.61551" lon="0.9413">
        <ele>238</ele>
        <time>2012-09-30T06:28:33Z</time>
      </trkpt>
      <trkpt lat="44.61534" lon="0.94162">
        <ele>236</ele>
        <time>2012-09-30T06:28:38Z</time>
      </trkpt>
      <trkpt lat="44.61524" lon="0.94196">
        <ele>231</ele>
        <time>2012-09-30T06:28:43Z</time>
      </trkpt>
      <trkpt lat="44.61511" lon="0.9423">
        <ele>231</ele>
        <time>2012-09-30T06:28:48Z</time>
      </trkpt>
      <trkpt lat="44.615" lon="0.94263">
        <ele>236</ele>
        <time>2012-09-30T06:28:53Z</time>
      </trkpt>
      <trkpt lat="44.61486" lon="0.94292">
        <ele>242</ele>
        <time>2012-09-30T06:28:58Z</time>
      </trkpt>
      <trkpt lat="44.61471" lon="0.94312">
        <ele>245</ele>
        <time>2012-09-30T06:29:04Z</time>
      </trkpt>
      <trkpt lat="44.61461" lon="0.9434">
        <ele>245</ele>
        <time>2012-09-30T06:29:09Z</time>
      </trkpt>
      <trkpt lat="44.61451" lon="0.9436">
        <ele>246</ele>
        <time>2012-09-30T06:29:14Z</time>
      </trkpt>
      <trkpt lat="44.61441" lon="0.94378">
        <ele>247</ele>
        <time>2012-09-30T06:29:19Z</time>
      </trkpt>
      <trkpt lat="44.61433" lon="0.94395">
        <ele>249</ele>
        <time>2012-09-30T06:29:24Z</time>
      </trkpt>
      <trkpt lat="44.61424" lon="0.94413">
        <ele>253</ele>
        <time>2012-09-30T06:29:29Z</time>
      </trkpt>
      <trkpt lat="44.61418" lon="0.94429">
        <ele>255</ele>
        <time>2012-09-30T06:29:34Z</time>
      </trkpt>
      <trkpt lat="44.61415" lon="0.94448">
        <ele>253</ele>
        <time>2012-09-30T06:29:39Z</time>
      </trkpt>
      <trkpt lat="44.61415" lon="0.94464">
        <ele>250</ele>
        <time>2012-09-30T06:29:44Z</time>
      </trkpt>
      <trkpt lat="44.61417" lon="0.94482">
        <ele>246</ele>
        <time>2012-09-30T06:29:49Z</time>
      </trkpt>
      <trkpt lat="44.6142" lon="0.94503">
        <ele>245</ele>
        <time>2012-09-30T06:29:54Z</time>
      </trkpt>
      <trkpt lat="44.61423" lon="0.94526">
        <ele>244</ele>
        <time>2012-09-30T06:29:59Z</time>
      </trkpt>
      <trkpt lat="44.61424" lon="0.94542">
        <ele>242</ele>
        <time>2012-09-30T06:30:04Z</time>
      </trkpt>
      <trkpt lat="44.61422" lon="0.94568">
        <ele>240</ele>
        <time>2012-09-30T06:30:09Z</time>
      </trkpt>
      <trkpt lat="44.61419" lon="0.94592">
        <ele>243</ele>
        <time>2012-09-30T06:30:14Z</time>
      </trkpt>
      <trkpt lat="44.61416" lon="0.94616">
        <ele>245</ele>
        <time>2012-09-30T06:30:19Z</time>
      </trkpt>
      <trkpt lat="44.61417" lon="0.94637">
        <ele>245</ele>
        <time>2012-09-30T06:30:24Z</time>
      </trkpt>
      <trkpt lat="44.61417" lon="0.94654">
        <ele>248</ele>
        <time>2012-09-30T06:30:30Z</time>
      </trkpt>
      <trkpt lat="44.61417" lon="0.94672">
        <ele>250</ele>
        <time>2012-09-30T06:30:35Z</time>
      </trkpt>
      <trkpt lat="44.61418" lon="0.94692">
        <ele>254</ele>
        <time>2012-09-30T06:30:40Z</time>
      </trkpt>
      <trkpt lat="44.61417" lon="0.94712">
        <ele>257</ele>
        <time>2012-09-30T06:30:45Z</time>
      </trkpt>
      <trkpt lat="44.61418" lon="0.94735">
        <ele>257</ele>
        <time>2012-09-30T06:30:51Z</time>
      </trkpt>
      <trkpt lat="44.61422" lon="0.94762">
        <ele>254</ele>
        <time>2012-09-30T06:30:56Z</time>
      </trkpt>
      <trkpt lat="44.6142" lon="0.94791">
        <ele>256</ele>
        <time>2012-09-30T06:31:01Z</time>
      </trkpt>
      <trkpt lat="44.6142" lon="0.94817">
        <ele>258</ele>
        <time>2012-09-30T06:31:06Z</time>
      </trkpt>
      <trkpt lat="44.61415" lon="0.94823">
        <ele>258</ele>
        <time>2012-09-30T06:31:13Z</time>
      </trkpt>
      <trkpt lat="44.61411" lon="0.94823">
        <ele>256</ele>
        <time>2012-09-30T06:31:18Z</time>
      </trkpt>
      <trkpt lat="44.61409" lon="0.94822">
        <ele>255</ele>
        <time>2012-09-30T06:31:23Z</time>
      </trkpt>
      <trkpt lat="44.61408" lon="0.9482">
        <ele>253</ele>
        <time>2012-09-30T06:31:31Z</time>
      </trkpt>
      <trkpt lat="44.61407" lon="0.94819">
        <ele>253</ele>
        <time>2012-09-30T06:31:38Z</time>
      </trkpt>
      <trkpt lat="44.61406" lon="0.94819">
        <ele>254</ele>
        <time>2012-09-30T06:31:48Z</time>
      </trkpt>
      <trkpt lat="44.61407" lon="0.94817">
        <ele>254</ele>
        <time>2012-09-30T06:31:54Z</time>
      </trkpt>
      <trkpt lat="44.61408" lon="0.94816">
        <ele>254</ele>
        <time>2012-09-30T06:31:59Z</time>
      </trkpt>
      <trkpt lat="44.61407" lon="0.94814">
        <ele>254</ele>
        <time>2012-09-30T06:32:07Z</time>
      </trkpt>
      <trkpt lat="44.61401" lon="0.94811">
        <ele>251</ele>
        <time>2012-09-30T06:32:12Z</time>
      </trkpt>
      <trkpt lat="44.6139" lon="0.94805">
        <ele>249</ele>
        <time>2012-09-30T06:32:17Z</time>
      </trkpt>
      <trkpt lat="44.61379" lon="0.94795">
        <ele>245</ele>
        <time>2012-09-30T06:32:22Z</time>
      </trkpt>
      <trkpt lat="44.61369" lon="0.94784">
        <ele>241</ele>
        <time>2012-09-30T06:32:27Z</time>
      </trkpt>
      <trkpt lat="44.61358" lon="0.94772">
        <ele>236</ele>
        <time>2012-09-30T06:32:32Z</time>
      </trkpt>
      <trkpt lat="44.61347" lon="0.9476">
        <ele>231</ele>
        <time>2012-09-30T06:32:37Z</time>
      </trkpt>
      <trkpt lat="44.61335" lon="0.94751">
        <ele>227</ele>
        <time>2012-09-30T06:32:42Z</time>
      </trkpt>
      <trkpt lat="44.61317" lon="0.94739">
        <ele>227</ele>
        <time>2012-09-30T06:32:47Z</time>
      </trkpt>
      <trkpt lat="44.61298" lon="0.94721">
        <ele>227</ele>
        <time>2012-09-30T06:32:52Z</time>
      </trkpt>
      <trkpt lat="44.61273" lon="0.94703">
        <ele>227</ele>
        <time>2012-09-30T06:32:57Z</time>
      </trkpt>
      <trkpt lat="44.61249" lon="0.94681">
        <ele>227</ele>
        <time>2012-09-30T06:33:02Z</time>
      </trkpt>
      <trkpt lat="44.61223" lon="0.94657">
        <ele>227</ele>
        <time>2012-09-30T06:33:07Z</time>
      </trkpt>
      <trkpt lat="44.61195" lon="0.94636">
        <ele>226</ele>
        <time>2012-09-30T06:33:12Z</time>
      </trkpt>
      <trkpt lat="44.6117" lon="0.94615">
        <ele>226</ele>
        <time>2012-09-30T06:33:17Z</time>
      </trkpt>
      <trkpt lat="44.61147" lon="0.94594">
        <ele>226</ele>
        <time>2012-09-30T06:33:22Z</time>
      </trkpt>
      <trkpt lat="44.61129" lon="0.94573">
        <ele>226</ele>
        <time>2012-09-30T06:33:27Z</time>
      </trkpt>
      <trkpt lat="44.61111" lon="0.9455">
        <ele>226</ele>
        <time>2012-09-30T06:33:32Z</time>
      </trkpt>
      <trkpt lat="44.61091" lon="0.94528">
        <ele>229</ele>
        <time>2012-09-30T06:33:37Z</time>
      </trkpt>
      <trkpt lat="44.61071" lon="0.94504">
        <ele>232</ele>
        <time>2012-09-30T06:33:42Z</time>
      </trkpt>
      <trkpt lat="44.61047" lon="0.94478">
        <ele>232</ele>
        <time>2012-09-30T06:33:47Z</time>
      </trkpt>
      <trkpt lat="44.61029" lon="0.94472">
        <ele>232</ele>
        <time>2012-09-30T06:33:52Z</time>
      </trkpt>
      <trkpt lat="44.61029" lon="0.94505">
        <ele>232</ele>
        <time>2012-09-30T06:33:57Z</time>
      </trkpt>
      <trkpt lat="44.6102" lon="0.94534">
        <ele>232</ele>
        <time>2012-09-30T06:34:02Z</time>
      </trkpt>
      <trkpt lat="44.60997" lon="0.94559">
        <ele>230</ele>
        <time>2012-09-30T06:34:07Z</time>
      </trkpt>
      <trkpt lat="44.6098" lon="0.94595">
        <ele>228</ele>
        <time>2012-09-30T06:34:12Z</time>
      </trkpt>
      <trkpt lat="44.60952" lon="0.9462">
        <ele>228</ele>
        <time>2012-09-30T06:34:17Z</time>
      </trkpt>
      <trkpt lat="44.60924" lon="0.94638">
        <ele>228</ele>
        <time>2012-09-30T06:34:22Z</time>
      </trkpt>
      <trkpt lat="44.60904" lon="0.94663">
        <ele>229</ele>
        <time>2012-09-30T06:34:27Z</time>
      </trkpt>
      <trkpt lat="44.60885" lon="0.94688">
        <ele>234</ele>
        <time>2012-09-30T06:34:32Z</time>
      </trkpt>
      <trkpt lat="44.60873" lon="0.94705">
        <ele>239</ele>
        <time>2012-09-30T06:34:37Z</time>
      </trkpt>
      <trkpt lat="44.60863" lon="0.94708">
        <ele>242</ele>
        <time>2012-09-30T06:34:42Z</time>
      </trkpt>
      <trkpt lat="44.60858" lon="0.94711">
        <ele>242</ele>
        <time>2012-09-30T06:34:48Z</time>
      </trkpt>
      <trkpt lat="44.60858" lon="0.94714">
        <ele>242</ele>
        <time>2012-09-30T06:34:56Z</time>
      </trkpt>
      <trkpt lat="44.60855" lon="0.94715">
        <ele>242</ele>
        <time>2012-09-30T06:35:01Z</time>
      </trkpt>
      <trkpt lat="44.60848" lon="0.94722">
        <ele>242</ele>
        <time>2012-09-30T06:35:07Z</time>
      </trkpt>
      <trkpt lat="44.60835" lon="0.9474">
        <ele>242</ele>
        <time>2012-09-30T06:35:12Z</time>
      </trkpt>
      <trkpt lat="44.60815" lon="0.94762">
        <ele>236</ele>
        <time>2012-09-30T06:35:17Z</time>
      </trkpt>
      <trkpt lat="44.60801" lon="0.94773">
        <ele>232</ele>
        <time>2012-09-30T06:35:23Z</time>
      </trkpt>
      <trkpt lat="44.60797" lon="0.94775">
        <ele>230</ele>
        <time>2012-09-30T06:35:34Z</time>
      </trkpt>
      <trkpt lat="44.6079" lon="0.94785">
        <ele>230</ele>
        <time>2012-09-30T06:35:39Z</time>
      </trkpt>
      <trkpt lat="44.60772" lon="0.94802">
        <ele>230</ele>
        <time>2012-09-30T06:35:44Z</time>
      </trkpt>
      <trkpt lat="44.6075" lon="0.94829">
        <ele>230</ele>
        <time>2012-09-30T06:35:49Z</time>
      </trkpt>
      <trkpt lat="44.60734" lon="0.94845">
        <ele>230</ele>
        <time>2012-09-30T06:35:54Z</time>
      </trkpt>
      <trkpt lat="44.60715" lon="0.94868">
        <ele>230</ele>
        <time>2012-09-30T06:35:59Z</time>
      </trkpt>
      <trkpt lat="44.60695" lon="0.94889">
        <ele>230</ele>
        <time>2012-09-30T06:36:04Z</time>
      </trkpt>
      <trkpt lat="44.6067" lon="0.9492">
        <ele>230</ele>
        <time>2012-09-30T06:36:09Z</time>
      </trkpt>
      <trkpt lat="44.60646" lon="0.94949">
        <ele>230</ele>
        <time>2012-09-30T06:36:14Z</time>
      </trkpt>
      <trkpt lat="44.60629" lon="0.94967">
        <ele>230</ele>
        <time>2012-09-30T06:36:19Z</time>
      </trkpt>
      <trkpt lat="44.60626" lon="0.94998">
        <ele>230</ele>
        <time>2012-09-30T06:36:24Z</time>
      </trkpt>
      <trkpt lat="44.60635" lon="0.95033">
        <ele>230</ele>
        <time>2012-09-30T06:36:29Z</time>
      </trkpt>
      <trkpt lat="44.60647" lon="0.95063">
        <ele>227</ele>
        <time>2012-09-30T06:36:34Z</time>
      </trkpt>
      <trkpt lat="44.60679" lon="0.95075">
        <ele>222</ele>
        <time>2012-09-30T06:36:39Z</time>
      </trkpt>
      <trkpt lat="44.60714" lon="0.95082">
        <ele>220</ele>
        <time>2012-09-30T06:36:44Z</time>
      </trkpt>
      <trkpt lat="44.60753" lon="0.95079">
        <ele>220</ele>
        <time>2012-09-30T06:36:49Z</time>
      </trkpt>
      <trkpt lat="44.60798" lon="0.95063">
        <ele>220</ele>
        <time>2012-09-30T06:36:54Z</time>
      </trkpt>
      <trkpt lat="44.60845" lon="0.95048">
        <ele>220</ele>
        <time>2012-09-30T06:36:59Z</time>
      </trkpt>
      <trkpt lat="44.60898" lon="0.95087">
        <ele>216</ele>
        <time>2012-09-30T06:37:04Z</time>
      </trkpt>
      <trkpt lat="44.60934" lon="0.95134">
        <ele>210</ele>
        <time>2012-09-30T06:37:09Z</time>
      </trkpt>
      <trkpt lat="44.60945" lon="0.95166">
        <ele>205</ele>
        <time>2012-09-30T06:37:14Z</time>
      </trkpt>
      <trkpt lat="44.60908" lon="0.95175">
        <ele>196</ele>
        <time>2012-09-30T06:37:19Z</time>
      </trkpt>
      <trkpt lat="44.6088" lon="0.95212">
        <ele>187</ele>
        <time>2012-09-30T06:37:24Z</time>
      </trkpt>
      <trkpt lat="44.60862" lon="0.95272">
        <ele>185</ele>
        <time>2012-09-30T06:37:29Z</time>
      </trkpt>
      <trkpt lat="44.6083" lon="0.95318">
        <ele>187</ele>
        <time>2012-09-30T06:37:34Z</time>
      </trkpt>
      <trkpt lat="44.60808" lon="0.95344">
        <ele>191</ele>
        <time>2012-09-30T06:37:39Z</time>
      </trkpt>
      <trkpt lat="44.60799" lon="0.95354">
        <ele>196</ele>
        <time>2012-09-30T06:37:44Z</time>
      </trkpt>
      <trkpt lat="44.60791" lon="0.95366">
        <ele>201</ele>
        <time>2012-09-30T06:37:49Z</time>
      </trkpt>
      <trkpt lat="44.60789" lon="0.95367">
        <ele>207</ele>
        <time>2012-09-30T06:37:55Z</time>
      </trkpt>
      <trkpt lat="44.60786" lon="0.95373">
        <ele>207</ele>
        <time>2012-09-30T06:38:00Z</time>
      </trkpt>
      <trkpt lat="44.60783" lon="0.95375">
        <ele>207</ele>
        <time>2012-09-30T06:38:05Z</time>
      </trkpt>
      <trkpt lat="44.60776" lon="0.95383">
        <ele>205</ele>
        <time>2012-09-30T06:38:10Z</time>
      </trkpt>
      <trkpt lat="44.60766" lon="0.95391">
        <ele>201</ele>
        <time>2012-09-30T06:38:15Z</time>
      </trkpt>
      <trkpt lat="44.60755" lon="0.95402">
        <ele>201</ele>
        <time>2012-09-30T06:38:20Z</time>
      </trkpt>
      <trkpt lat="44.60741" lon="0.95417">
        <ele>201</ele>
        <time>2012-09-30T06:38:25Z</time>
      </trkpt>
      <trkpt lat="44.60728" lon="0.95433">
        <ele>204</ele>
        <time>2012-09-30T06:38:30Z</time>
      </trkpt>
      <trkpt lat="44.6072" lon="0.95448">
        <ele>207</ele>
        <time>2012-09-30T06:38:35Z</time>
      </trkpt>
      <trkpt lat="44.6071" lon="0.95464">
        <ele>210</ele>
        <time>2012-09-30T06:38:40Z</time>
      </trkpt>
      <trkpt lat="44.60699" lon="0.95486">
        <ele>213</ele>
        <time>2012-09-30T06:38:45Z</time>
      </trkpt>
      <trkpt lat="44.60685" lon="0.95512">
        <ele>216</ele>
        <time>2012-09-30T06:38:50Z</time>
      </trkpt>
      <trkpt lat="44.60669" lon="0.95542">
        <ele>216</ele>
        <time>2012-09-30T06:38:55Z</time>
      </trkpt>
      <trkpt lat="44.60658" lon="0.95564">
        <ele>216</ele>
        <time>2012-09-30T06:39:00Z</time>
      </trkpt>
      <trkpt lat="44.60652" lon="0.95573">
        <ele>216</ele>
        <time>2012-09-30T06:39:08Z</time>
      </trkpt>
      <trkpt lat="44.6065" lon="0.95575">
        <ele>217</ele>
        <time>2012-09-30T06:39:14Z</time>
      </trkpt>
      <trkpt lat="44.60642" lon="0.95588">
        <ele>218</ele>
        <time>2012-09-30T06:39:19Z</time>
      </trkpt>
      <trkpt lat="44.60633" lon="0.95603">
        <ele>218</ele>
        <time>2012-09-30T06:39:24Z</time>
      </trkpt>
      <trkpt lat="44.60624" lon="0.95618">
        <ele>218</ele>
        <time>2012-09-30T06:39:29Z</time>
      </trkpt>
      <trkpt lat="44.60615" lon="0.95634">
        <ele>218</ele>
        <time>2012-09-30T06:39:34Z</time>
      </trkpt>
      <trkpt lat="44.60607" lon="0.95657">
        <ele>216</ele>
        <time>2012-09-30T06:39:39Z</time>
      </trkpt>
      <trkpt lat="44.60608" lon="0.95681">
        <ele>211</ele>
        <time>2012-09-30T06:39:44Z</time>
      </trkpt>
      <trkpt lat="44.60604" lon="0.95692">
        <ele>207</ele>
        <time>2012-09-30T06:39:49Z</time>
      </trkpt>
      <trkpt lat="44.60601" lon="0.95693">
        <ele>207</ele>
        <time>2012-09-30T06:39:56Z</time>
      </trkpt>
      <trkpt lat="44.606" lon="0.95695">
        <ele>207</ele>
        <time>2012-09-30T06:40:04Z</time>
      </trkpt>
      <trkpt lat="44.60591" lon="0.95696">
        <ele>207</ele>
        <time>2012-09-30T06:40:09Z</time>
      </trkpt>
      <trkpt lat="44.60584" lon="0.957">
        <ele>202</ele>
        <time>2012-09-30T06:40:15Z</time>
      </trkpt>
      <trkpt lat="44.6057" lon="0.95713">
        <ele>197</ele>
        <time>2012-09-30T06:40:20Z</time>
      </trkpt>
      <trkpt lat="44.60553" lon="0.95722">
        <ele>192</ele>
        <time>2012-09-30T06:40:25Z</time>
      </trkpt>
      <trkpt lat="44.60533" lon="0.95714">
        <ele>187</ele>
        <time>2012-09-30T06:40:30Z</time>
      </trkpt>
      <trkpt lat="44.6052" lon="0.95697">
        <ele>183</ele>
        <time>2012-09-30T06:40:35Z</time>
      </trkpt>
      <trkpt lat="44.60505" lon="0.95687">
        <ele>179</ele>
        <time>2012-09-30T06:40:40Z</time>
      </trkpt>
      <trkpt lat="44.60482" lon="0.95714">
        <ele>174</ele>
        <time>2012-09-30T06:40:45Z</time>
      </trkpt>
      <trkpt lat="44.60471" lon="0.95735">
        <ele>169</ele>
        <time>2012-09-30T06:40:50Z</time>
      </trkpt>
      <trkpt lat="44.60463" lon="0.95728">
        <ele>164</ele>
        <time>2012-09-30T06:40:55Z</time>
      </trkpt>
      <trkpt lat="44.60452" lon="0.95714">
        <ele>164</ele>
        <time>2012-09-30T06:41:00Z</time>
      </trkpt>
      <trkpt lat="44.60436" lon="0.95701">
        <ele>164</ele>
        <time>2012-09-30T06:41:05Z</time>
      </trkpt>
      <trkpt lat="44.60416" lon="0.9571">
        <ele>163</ele>
        <time>2012-09-30T06:41:10Z</time>
      </trkpt>
      <trkpt lat="44.60394" lon="0.95725">
        <ele>160</ele>
        <time>2012-09-30T06:41:15Z</time>
      </trkpt>
      <trkpt lat="44.60372" lon="0.95746">
        <ele>160</ele>
        <time>2012-09-30T06:41:20Z</time>
      </trkpt>
      <trkpt lat="44.60351" lon="0.95775">
        <ele>159</ele>
        <time>2012-09-30T06:41:25Z</time>
      </trkpt>
      <trkpt lat="44.60324" lon="0.958">
        <ele>157</ele>
        <time>2012-09-30T06:41:30Z</time>
      </trkpt>
      <trkpt lat="44.60295" lon="0.95817">
        <ele>153</ele>
        <time>2012-09-30T06:41:35Z</time>
      </trkpt>
      <trkpt lat="44.60273" lon="0.95833">
        <ele>153</ele>
        <time>2012-09-30T06:41:40Z</time>
      </trkpt>
      <trkpt lat="44.60264" lon="0.9585">
        <ele>153</ele>
        <time>2012-09-30T06:41:45Z</time>
      </trkpt>
      <trkpt lat="44.60256" lon="0.95865">
        <ele>155</ele>
        <time>2012-09-30T06:41:50Z</time>
      </trkpt>
      <trkpt lat="44.60245" lon="0.95873">
        <ele>159</ele>
        <time>2012-09-30T06:41:55Z</time>
      </trkpt>
      <trkpt lat="44.60232" lon="0.95872">
        <ele>161</ele>
        <time>2012-09-30T06:42:00Z</time>
      </trkpt>
      <trkpt lat="44.60221" lon="0.95869">
        <ele>161</ele>
        <time>2012-09-30T06:42:05Z</time>
      </trkpt>
      <trkpt lat="44.60214" lon="0.95873">
        <ele>161</ele>
        <time>2012-09-30T06:42:10Z</time>
      </trkpt>
      <trkpt lat="44.60208" lon="0.95881">
        <ele>163</ele>
        <time>2012-09-30T06:42:15Z</time>
      </trkpt>
      <trkpt lat="44.60203" lon="0.9589">
        <ele>164</ele>
        <time>2012-09-30T06:42:20Z</time>
      </trkpt>
      <trkpt lat="44.60199" lon="0.959">
        <ele>165</ele>
        <time>2012-09-30T06:42:25Z</time>
      </trkpt>
      <trkpt lat="44.60196" lon="0.95911">
        <ele>168</ele>
        <time>2012-09-30T06:42:30Z</time>
      </trkpt>
      <trkpt lat="44.60192" lon="0.95921">
        <ele>168</ele>
        <time>2012-09-30T06:42:36Z</time>
      </trkpt>
      <trkpt lat="44.60192" lon="0.9593">
        <ele>168</ele>
        <time>2012-09-30T06:42:41Z</time>
      </trkpt>
      <trkpt lat="44.60192" lon="0.95939">
        <ele>168</ele>
        <time>2012-09-30T06:42:46Z</time>
      </trkpt>
      <trkpt lat="44.60191" lon="0.95949">
        <ele>167</ele>
        <time>2012-09-30T06:42:51Z</time>
      </trkpt>
      <trkpt lat="44.6019" lon="0.95961">
        <ele>167</ele>
        <time>2012-09-30T06:42:56Z</time>
      </trkpt>
      <trkpt lat="44.60189" lon="0.95972">
        <ele>167</ele>
        <time>2012-09-30T06:43:01Z</time>
      </trkpt>
      <trkpt lat="44.60189" lon="0.9598">
        <ele>167</ele>
        <time>2012-09-30T06:43:06Z</time>
      </trkpt>
      <trkpt lat="44.60188" lon="0.95989">
        <ele>167</ele>
        <time>2012-09-30T06:43:11Z</time>
      </trkpt>
      <trkpt lat="44.60187" lon="0.96001">
        <ele>167</ele>
        <time>2012-09-30T06:43:16Z</time>
      </trkpt>
      <trkpt lat="44.60185" lon="0.96014">
        <ele>169</ele>
        <time>2012-09-30T06:43:21Z</time>
      </trkpt>
      <trkpt lat="44.60183" lon="0.96026">
        <ele>172</ele>
        <time>2012-09-30T06:43:26Z</time>
      </trkpt>
      <trkpt lat="44.60178" lon="0.96035">
        <ele>176</ele>
        <time>2012-09-30T06:43:31Z</time>
      </trkpt>
      <trkpt lat="44.6017" lon="0.96041">
        <ele>178</ele>
        <time>2012-09-30T06:43:36Z</time>
      </trkpt>
      <trkpt lat="44.60165" lon="0.96052">
        <ele>180</ele>
        <time>2012-09-30T06:43:41Z</time>
      </trkpt>
      <trkpt lat="44.60165" lon="0.96063">
        <ele>181</ele>
        <time>2012-09-30T06:43:46Z</time>
      </trkpt>
      <trkpt lat="44.60165" lon="0.96075">
        <ele>182</ele>
        <time>2012-09-30T06:43:51Z</time>
      </trkpt>
      <trkpt lat="44.60166" lon="0.96087">
        <ele>184</ele>
        <time>2012-09-30T06:43:56Z</time>
      </trkpt>
      <trkpt lat="44.60165" lon="0.961">
        <ele>185</ele>
        <time>2012-09-30T06:44:01Z</time>
      </trkpt>
      <trkpt lat="44.60162" lon="0.96113">
        <ele>187</ele>
        <time>2012-09-30T06:44:06Z</time>
      </trkpt>
      <trkpt lat="44.60157" lon="0.96122">
        <ele>190</ele>
        <time>2012-09-30T06:44:11Z</time>
      </trkpt>
      <trkpt lat="44.60153" lon="0.96134">
        <ele>192</ele>
        <time>2012-09-30T06:44:16Z</time>
      </trkpt>
      <trkpt lat="44.60149" lon="0.96147">
        <ele>194</ele>
        <time>2012-09-30T06:44:21Z</time>
      </trkpt>
      <trkpt lat="44.60146" lon="0.96158">
        <ele>197</ele>
        <time>2012-09-30T06:44:26Z</time>
      </trkpt>
      <trkpt lat="44.60141" lon="0.9617">
        <ele>200</ele>
        <time>2012-09-30T06:44:31Z</time>
      </trkpt>
      <trkpt lat="44.60136" lon="0.96184">
        <ele>205</ele>
        <time>2012-09-30T06:44:36Z</time>
      </trkpt>
      <trkpt lat="44.6013" lon="0.96199">
        <ele>210</ele>
        <time>2012-09-30T06:44:41Z</time>
      </trkpt>
      <trkpt lat="44.60125" lon="0.96216">
        <ele>215</ele>
        <time>2012-09-30T06:44:46Z</time>
      </trkpt>
      <trkpt lat="44.6012" lon="0.96231">
        <ele>216</ele>
        <time>2012-09-30T06:44:51Z</time>
      </trkpt>
      <trkpt lat="44.60116" lon="0.9625">
        <ele>216</ele>
        <time>2012-09-30T06:44:56Z</time>
      </trkpt>
      <trkpt lat="44.60116" lon="0.96267">
        <ele>216</ele>
        <time>2012-09-30T06:45:01Z</time>
      </trkpt>
      <trkpt lat="44.60116" lon="0.9628">
        <ele>213</ele>
        <time>2012-09-30T06:45:06Z</time>
      </trkpt>
      <trkpt lat="44.60119" lon="0.96288">
        <ele>208</ele>
        <time>2012-09-30T06:45:11Z</time>
      </trkpt>
      <trkpt lat="44.60119" lon="0.96293">
        <ele>205</ele>
        <time>2012-09-30T06:45:18Z</time>
      </trkpt>
      <trkpt lat="44.60117" lon="0.96297">
        <ele>205</ele>
        <time>2012-09-30T06:45:28Z</time>
      </trkpt>
      <trkpt lat="44.60118" lon="0.96295">
        <ele>205</ele>
        <time>2012-09-30T06:45:35Z</time>
      </trkpt>
      <trkpt lat="44.60119" lon="0.96293">
        <ele>208</ele>
        <time>2012-09-30T06:45:41Z</time>
      </trkpt>
      <trkpt lat="44.60118" lon="0.96293">
        <ele>199</ele>
        <time>2012-09-30T06:46:03Z</time>
      </trkpt>
      <trkpt lat="44.60117" lon="0.96293">
        <ele>198</ele>
        <time>2012-09-30T06:46:12Z</time>
      </trkpt>
      <trkpt lat="44.60117" lon="0.96295">
        <ele>198</ele>
        <time>2012-09-30T06:46:31Z</time>
      </trkpt>
      <trkpt lat="44.60116" lon="0.96293">
        <ele>198</ele>
        <time>2012-09-30T06:46:38Z</time>
      </trkpt>
      <trkpt lat="44.60119" lon="0.96293">
        <ele>195</ele>
        <time>2012-09-30T06:46:44Z</time>
      </trkpt>
      <trkpt lat="44.60124" lon="0.96289">
        <ele>195</ele>
        <time>2012-09-30T06:46:49Z</time>
      </trkpt>
      <trkpt lat="44.60125" lon="0.96289">
        <ele>193</ele>
        <time>2012-09-30T06:47:08Z</time>
      </trkpt>
      <trkpt lat="44.60124" lon="0.96292">
        <ele>193</ele>
        <time>2012-09-30T06:47:14Z</time>
      </trkpt>
      <trkpt lat="44.60121" lon="0.96296">
        <ele>193</ele>
        <time>2012-09-30T06:47:19Z</time>
      </trkpt>
      <trkpt lat="44.60115" lon="0.96305">
        <ele>193</ele>
        <time>2012-09-30T06:47:24Z</time>
      </trkpt>
      <trkpt lat="44.60103" lon="0.96313">
        <ele>194</ele>
        <time>2012-09-30T06:47:29Z</time>
      </trkpt>
      <trkpt lat="44.60091" lon="0.9632">
        <ele>195</ele>
        <time>2012-09-30T06:47:34Z</time>
      </trkpt>
      <trkpt lat="44.60078" lon="0.96327">
        <ele>195</ele>
        <time>2012-09-30T06:47:39Z</time>
      </trkpt>
      <trkpt lat="44.60061" lon="0.96339">
        <ele>191</ele>
        <time>2012-09-30T06:47:44Z</time>
      </trkpt>
      <trkpt lat="44.60044" lon="0.9635">
        <ele>190</ele>
        <time>2012-09-30T06:47:49Z</time>
      </trkpt>
      <trkpt lat="44.60033" lon="0.96354">
        <ele>190</ele>
        <time>2012-09-30T06:47:54Z</time>
      </trkpt>
      <trkpt lat="44.6002" lon="0.96347">
        <ele>191</ele>
        <time>2012-09-30T06:47:59Z</time>
      </trkpt>
      <trkpt lat="44.60007" lon="0.96338">
        <ele>191</ele>
        <time>2012-09-30T06:48:04Z</time>
      </trkpt>
      <trkpt lat="44.59996" lon="0.96337">
        <ele>191</ele>
        <time>2012-09-30T06:48:09Z</time>
      </trkpt>
      <trkpt lat="44.59991" lon="0.96334">
        <ele>191</ele>
        <time>2012-09-30T06:48:16Z</time>
      </trkpt>
      <trkpt lat="44.59985" lon="0.96336">
        <ele>191</ele>
        <time>2012-09-30T06:48:21Z</time>
      </trkpt>
      <trkpt lat="44.59976" lon="0.96335">
        <ele>191</ele>
        <time>2012-09-30T06:48:26Z</time>
      </trkpt>
      <trkpt lat="44.59957" lon="0.96333">
        <ele>191</ele>
        <time>2012-09-30T06:48:31Z</time>
      </trkpt>
      <trkpt lat="44.59937" lon="0.96335">
        <ele>191</ele>
        <time>2012-09-30T06:48:36Z</time>
      </trkpt>
      <trkpt lat="44.59919" lon="0.96337">
        <ele>191</ele>
        <time>2012-09-30T06:48:41Z</time>
      </trkpt>
      <trkpt lat="44.59914" lon="0.96337">
        <ele>191</ele>
        <time>2012-09-30T06:48:46Z</time>
      </trkpt>
      <trkpt lat="44.5991" lon="0.96336">
        <ele>188</ele>
        <time>2012-09-30T06:48:51Z</time>
      </trkpt>
      <trkpt lat="44.59907" lon="0.96334">
        <ele>186</ele>
        <time>2012-09-30T06:48:56Z</time>
      </trkpt>
      <trkpt lat="44.59902" lon="0.96333">
        <ele>182</ele>
        <time>2012-09-30T06:49:02Z</time>
      </trkpt>
      <trkpt lat="44.59898" lon="0.96332">
        <ele>180</ele>
        <time>2012-09-30T06:49:09Z</time>
      </trkpt>
      <trkpt lat="44.59896" lon="0.96333">
        <ele>180</ele>
        <time>2012-09-30T06:49:15Z</time>
      </trkpt>
      <trkpt lat="44.59893" lon="0.96332">
        <ele>181</ele>
        <time>2012-09-30T06:49:22Z</time>
      </trkpt>
      <trkpt lat="44.59891" lon="0.96329">
        <ele>181</ele>
        <time>2012-09-30T06:49:29Z</time>
      </trkpt>
      <trkpt lat="44.59892" lon="0.9633">
        <ele>182</ele>
        <time>2012-09-30T06:49:36Z</time>
      </trkpt>
      <trkpt lat="44.59893" lon="0.96331">
        <ele>183</ele>
        <time>2012-09-30T06:49:41Z</time>
      </trkpt>
      <trkpt lat="44.5989" lon="0.96332">
        <ele>183</ele>
        <time>2012-09-30T06:49:48Z</time>
      </trkpt>
      <trkpt lat="44.59888" lon="0.96331">
        <ele>183</ele>
        <time>2012-09-30T06:49:57Z</time>
      </trkpt>
      <trkpt lat="44.59887" lon="0.96332">
        <ele>183</ele>
        <time>2012-09-30T06:50:04Z</time>
      </trkpt>
      <trkpt lat="44.59886" lon="0.96334">
        <ele>183</ele>
        <time>2012-09-30T06:50:09Z</time>
      </trkpt>
      <trkpt lat="44.59886" lon="0.96335">
        <ele>187</ele>
        <time>2012-09-30T06:50:16Z</time>
      </trkpt>
      <trkpt lat="44.59884" lon="0.96336">
        <ele>190</ele>
        <time>2012-09-30T06:50:24Z</time>
      </trkpt>
      <trkpt lat="44.59878" lon="0.96335">
        <ele>190</ele>
        <time>2012-09-30T06:50:29Z</time>
      </trkpt>
      <trkpt lat="44.59872" lon="0.96337">
        <ele>190</ele>
        <time>2012-09-30T06:50:34Z</time>
      </trkpt>
      <trkpt lat="44.59859" lon="0.96339">
        <ele>190</ele>
        <time>2012-09-30T06:50:39Z</time>
      </trkpt>
      <trkpt lat="44.59843" lon="0.96342">
        <ele>189</ele>
        <time>2012-09-30T06:50:44Z</time>
      </trkpt>
      <trkpt lat="44.59826" lon="0.96346">
        <ele>187</ele>
        <time>2012-09-30T06:50:49Z</time>
      </trkpt>
      <trkpt lat="44.5981" lon="0.96352">
        <ele>186</ele>
        <time>2012-09-30T06:50:54Z</time>
      </trkpt>
      <trkpt lat="44.59801" lon="0.96362">
        <ele>185</ele>
        <time>2012-09-30T06:50:59Z</time>
      </trkpt>
      <trkpt lat="44.59789" lon="0.96361">
        <ele>183</ele>
        <time>2012-09-30T06:51:04Z</time>
      </trkpt>
      <trkpt lat="44.59766" lon="0.96359">
        <ele>182</ele>
        <time>2012-09-30T06:51:09Z</time>
      </trkpt>
      <trkpt lat="44.59731" lon="0.9636">
        <ele>178</ele>
        <time>2012-09-30T06:51:14Z</time>
      </trkpt>
      <trkpt lat="44.59702" lon="0.96367">
        <ele>175</ele>
        <time>2012-09-30T06:51:19Z</time>
      </trkpt>
      <trkpt lat="44.59697" lon="0.96373">
        <ele>174</ele>
        <time>2012-09-30T06:51:24Z</time>
      </trkpt>
      <trkpt lat="44.59695" lon="0.96369">
        <ele>173</ele>
        <time>2012-09-30T06:51:30Z</time>
      </trkpt>
      <trkpt lat="44.59692" lon="0.96368">
        <ele>173</ele>
        <time>2012-09-30T06:51:37Z</time>
      </trkpt>
      <trkpt lat="44.5969" lon="0.96369">
        <ele>173</ele>
        <time>2012-09-30T06:51:43Z</time>
      </trkpt>
      <trkpt lat="44.59687" lon="0.9637">
        <ele>177</ele>
        <time>2012-09-30T06:51:51Z</time>
      </trkpt>
      <trkpt lat="44.59669" lon="0.96364">
        <ele>177</ele>
        <time>2012-09-30T06:51:56Z</time>
      </trkpt>
      <trkpt lat="44.59647" lon="0.96349">
        <ele>175</ele>
        <time>2012-09-30T06:52:01Z</time>
      </trkpt>
      <trkpt lat="44.5963" lon="0.96341">
        <ele>170</ele>
        <time>2012-09-30T06:52:06Z</time>
      </trkpt>
      <trkpt lat="44.59603" lon="0.96341">
        <ele>165</ele>
        <time>2012-09-30T06:52:11Z</time>
      </trkpt>
      <trkpt lat="44.59575" lon="0.96346">
        <ele>160</ele>
        <time>2012-09-30T06:52:16Z</time>
      </trkpt>
      <trkpt lat="44.59553" lon="0.96351">
        <ele>155</ele>
        <time>2012-09-30T06:52:21Z</time>
      </trkpt>
      <trkpt lat="44.59525" lon="0.96358">
        <ele>150</ele>
        <time>2012-09-30T06:52:26Z</time>
      </trkpt>
      <trkpt lat="44.59494" lon="0.96364">
        <ele>146</ele>
        <time>2012-09-30T06:52:31Z</time>
      </trkpt>
      <trkpt lat="44.59467" lon="0.96366">
        <ele>141</ele>
        <time>2012-09-30T06:52:36Z</time>
      </trkpt>
      <trkpt lat="44.59446" lon="0.96368">
        <ele>139</ele>
        <time>2012-09-30T06:52:41Z</time>
      </trkpt>
      <trkpt lat="44.59447" lon="0.96368">
        <ele>138</ele>
        <time>2012-09-30T06:52:58Z</time>
      </trkpt>
      <trkpt lat="44.59449" lon="0.96369">
        <ele>138</ele>
        <time>2012-09-30T06:53:03Z</time>
      </trkpt>
      <trkpt lat="44.5945" lon="0.96369">
        <ele>138</ele>
        <time>2012-09-30T06:53:14Z</time>
      </trkpt>
      <trkpt lat="44.59443" lon="0.96361">
        <ele>138</ele>
        <time>2012-09-30T06:53:19Z</time>
      </trkpt>
      <trkpt lat="44.59424" lon="0.96361">
        <ele>137</ele>
        <time>2012-09-30T06:53:24Z</time>
      </trkpt>
      <trkpt lat="44.59412" lon="0.96369">
        <ele>134</ele>
        <time>2012-09-30T06:53:29Z</time>
      </trkpt>
      <trkpt lat="44.59409" lon="0.96369">
        <ele>133</ele>
        <time>2012-09-30T06:53:36Z</time>
      </trkpt>
      <trkpt lat="44.5941" lon="0.96366">
        <ele>133</ele>
        <time>2012-09-30T06:53:47Z</time>
      </trkpt>
      <trkpt lat="44.59415" lon="0.96356">
        <ele>133</ele>
        <time>2012-09-30T06:53:52Z</time>
      </trkpt>
      <trkpt lat="44.59417" lon="0.96351">
        <ele>133</ele>
        <time>2012-09-30T06:53:58Z</time>
      </trkpt>
      <trkpt lat="44.59418" lon="0.96349">
        <ele>133</ele>
        <time>2012-09-30T06:54:03Z</time>
      </trkpt>
      <trkpt lat="44.59421" lon="0.96346">
        <ele>136</ele>
        <time>2012-09-30T06:54:08Z</time>
      </trkpt>
      <trkpt lat="44.59423" lon="0.96344">
        <ele>137</ele>
        <time>2012-09-30T06:54:13Z</time>
      </trkpt>
      <trkpt lat="44.59428" lon="0.96339">
        <ele>137</ele>
        <time>2012-09-30T06:54:19Z</time>
      </trkpt>
      <trkpt lat="44.59436" lon="0.96333">
        <ele>137</ele>
        <time>2012-09-30T06:54:24Z</time>
      </trkpt>
      <trkpt lat="44.59444" lon="0.96329">
        <ele>137</ele>
        <time>2012-09-30T06:54:29Z</time>
      </trkpt>
      <trkpt lat="44.59457" lon="0.96322">
        <ele>135</ele>
        <time>2012-09-30T06:54:34Z</time>
      </trkpt>
      <trkpt lat="44.59471" lon="0.96316">
        <ele>131</ele>
        <time>2012-09-30T06:54:39Z</time>
      </trkpt>
      <trkpt lat="44.59487" lon="0.96311">
        <ele>127</ele>
        <time>2012-09-30T06:54:44Z</time>
      </trkpt>
      <trkpt lat="44.59512" lon="0.96303">
        <ele>122</ele>
        <time>2012-09-30T06:54:49Z</time>
      </trkpt>
      <trkpt lat="44.59536" lon="0.96297">
        <ele>117</ele>
        <time>2012-09-30T06:54:54Z</time>
      </trkpt>
      <trkpt lat="44.5956" lon="0.9629">
        <ele>113</ele>
        <time>2012-09-30T06:54:59Z</time>
      </trkpt>
      <trkpt lat="44.59582" lon="0.96279">
        <ele>113</ele>
        <time>2012-09-30T06:55:04Z</time>
      </trkpt>
      <trkpt lat="44.59605" lon="0.96264">
        <ele>113</ele>
        <time>2012-09-30T06:55:09Z</time>
      </trkpt>
      <trkpt lat="44.59627" lon="0.96249">
        <ele>109</ele>
        <time>2012-09-30T06:55:14Z</time>
      </trkpt>
      <trkpt lat="44.59644" lon="0.96233">
        <ele>107</ele>
        <time>2012-09-30T06:55:19Z</time>
      </trkpt>
      <trkpt lat="44.5966" lon="0.96217">
        <ele>107</ele>
        <time>2012-09-30T06:55:24Z</time>
      </trkpt>
      <trkpt lat="44.59673" lon="0.96201">
        <ele>107</ele>
        <time>2012-09-30T06:55:29Z</time>
      </trkpt>
      <trkpt lat="44.59686" lon="0.96189">
        <ele>107</ele>
        <time>2012-09-30T06:55:34Z</time>
      </trkpt>
      <trkpt lat="44.59698" lon="0.96178">
        <ele>104</ele>
        <time>2012-09-30T06:55:39Z</time>
      </trkpt>
      <trkpt lat="44.59713" lon="0.9617">
        <ele>99</ele>
        <time>2012-09-30T06:55:44Z</time>
      </trkpt>
      <trkpt lat="44.59729" lon="0.96165">
        <ele>94</ele>
        <time>2012-09-30T06:55:49Z</time>
      </trkpt>
      <trkpt lat="44.59745" lon="0.96158">
        <ele>89</ele>
        <time>2012-09-30T06:55:54Z</time>
      </trkpt>
      <trkpt lat="44.59753" lon="0.96155">
        <ele>87</ele>
        <time>2012-09-30T06:55:59Z</time>
      </trkpt>
      <trkpt lat="44.59761" lon="0.96152">
        <ele>90</ele>
        <time>2012-09-30T06:56:04Z</time>
      </trkpt>
      <trkpt lat="44.59772" lon="0.96149">
        <ele>95</ele>
        <time>2012-09-30T06:56:09Z</time>
      </trkpt>
      <trkpt lat="44.59786" lon="0.96149">
        <ele>100</ele>
        <time>2012-09-30T06:56:14Z</time>
      </trkpt>
      <trkpt lat="44.59798" lon="0.96144">
        <ele>105</ele>
        <time>2012-09-30T06:56:19Z</time>
      </trkpt>
      <trkpt lat="44.59809" lon="0.96134">
        <ele>110</ele>
        <time>2012-09-30T06:56:24Z</time>
      </trkpt>
      <trkpt lat="44.59815" lon="0.96124">
        <ele>115</ele>
        <time>2012-09-30T06:56:29Z</time>
      </trkpt>
      <trkpt lat="44.59819" lon="0.96117">
        <ele>116</ele>
        <time>2012-09-30T06:56:34Z</time>
      </trkpt>
      <trkpt lat="44.59822" lon="0.9611">
        <ele>119</ele>
        <time>2012-09-30T06:56:39Z</time>
      </trkpt>
      <trkpt lat="44.59826" lon="0.96097">
        <ele>122</ele>
        <time>2012-09-30T06:56:44Z</time>
      </trkpt>
      <trkpt lat="44.59826" lon="0.96079">
        <ele>127</ele>
        <time>2012-09-30T06:56:49Z</time>
      </trkpt>
      <trkpt lat="44.59826" lon="0.96062">
        <ele>137</ele>
        <time>2012-09-30T06:56:54Z</time>
      </trkpt>
      <trkpt lat="44.59827" lon="0.96048">
        <ele>146</ele>
        <time>2012-09-30T06:56:59Z</time>
      </trkpt>
      <trkpt lat="44.59827" lon="0.96036">
        <ele>152</ele>
        <time>2012-09-30T06:57:04Z</time>
      </trkpt>
      <trkpt lat="44.59828" lon="0.96018">
        <ele>157</ele>
        <time>2012-09-30T06:57:09Z</time>
      </trkpt>
      <trkpt lat="44.5983" lon="0.96012">
        <ele>159</ele>
        <time>2012-09-30T06:57:14Z</time>
      </trkpt>
      <trkpt lat="44.59831" lon="0.96008">
        <ele>157</ele>
        <time>2012-09-30T06:57:20Z</time>
      </trkpt>
      <trkpt lat="44.59832" lon="0.96004">
        <ele>152</ele>
        <time>2012-09-30T06:57:26Z</time>
      </trkpt>
      <trkpt lat="44.59831" lon="0.95999">
        <ele>146</ele>
        <time>2012-09-30T06:57:32Z</time>
      </trkpt>
      <trkpt lat="44.59832" lon="0.95996">
        <ele>139</ele>
        <time>2012-09-30T06:57:39Z</time>
      </trkpt>
      <trkpt lat="44.59835" lon="0.95996">
        <ele>139</ele>
        <time>2012-09-30T06:57:45Z</time>
      </trkpt>
      <trkpt lat="44.59837" lon="0.95991">
        <ele>139</ele>
        <time>2012-09-30T06:57:51Z</time>
      </trkpt>
      <trkpt lat="44.59841" lon="0.95986">
        <ele>138</ele>
        <time>2012-09-30T06:57:56Z</time>
      </trkpt>
      <trkpt lat="44.59841" lon="0.95982">
        <ele>138</ele>
        <time>2012-09-30T06:58:10Z</time>
      </trkpt>
      <trkpt lat="44.59839" lon="0.95976">
        <ele>142</ele>
        <time>2012-09-30T06:58:15Z</time>
      </trkpt>
      <trkpt lat="44.59838" lon="0.95967">
        <ele>142</ele>
        <time>2012-09-30T06:58:21Z</time>
      </trkpt>
      <trkpt lat="44.59833" lon="0.9595">
        <ele>146</ele>
        <time>2012-09-30T06:58:26Z</time>
      </trkpt>
      <trkpt lat="44.59828" lon="0.95933">
        <ele>148</ele>
        <time>2012-09-30T06:58:31Z</time>
      </trkpt>
      <trkpt lat="44.5983" lon="0.95916">
        <ele>150</ele>
        <time>2012-09-30T06:58:36Z</time>
      </trkpt>
      <trkpt lat="44.59837" lon="0.95897">
        <ele>150</ele>
        <time>2012-09-30T06:58:41Z</time>
      </trkpt>
      <trkpt lat="44.59848" lon="0.95879">
        <ele>149</ele>
        <time>2012-09-30T06:58:46Z</time>
      </trkpt>
      <trkpt lat="44.59861" lon="0.95871">
        <ele>142</ele>
        <time>2012-09-30T06:58:53Z</time>
      </trkpt>
      <trkpt lat="44.59863" lon="0.95869">
        <ele>138</ele>
        <time>2012-09-30T06:58:58Z</time>
      </trkpt>
      <trkpt lat="44.59864" lon="0.95868">
        <ele>134</ele>
        <time>2012-09-30T06:59:03Z</time>
      </trkpt>
      <trkpt lat="44.59862" lon="0.95863">
        <ele>132</ele>
        <time>2012-09-30T06:59:08Z</time>
      </trkpt>
      <trkpt lat="44.59858" lon="0.95862">
        <ele>132</ele>
        <time>2012-09-30T06:59:13Z</time>
      </trkpt>
      <trkpt lat="44.59861" lon="0.95861">
        <ele>135</ele>
        <time>2012-09-30T06:59:19Z</time>
      </trkpt>
      <trkpt lat="44.59864" lon="0.95861">
        <ele>135</ele>
        <time>2012-09-30T06:59:27Z</time>
      </trkpt>
      <trkpt lat="44.59866" lon="0.95861">
        <ele>130</ele>
        <time>2012-09-30T06:59:40Z</time>
      </trkpt>
      <trkpt lat="44.59867" lon="0.95861">
        <ele>130</ele>
        <time>2012-09-30T06:59:53Z</time>
      </trkpt>
      <trkpt lat="44.59866" lon="0.95862">
        <ele>129</ele>
        <time>2012-09-30T07:00:13Z</time>
      </trkpt>
      <trkpt lat="44.59866" lon="0.95864">
        <ele>129</ele>
        <time>2012-09-30T07:00:25Z</time>
      </trkpt>
      <trkpt lat="44.59862" lon="0.95865">
        <ele>135</ele>
        <time>2012-09-30T07:00:35Z</time>
      </trkpt>
      <trkpt lat="44.59861" lon="0.95866">
        <ele>136</ele>
        <time>2012-09-30T07:00:40Z</time>
      </trkpt>
      <trkpt lat="44.59859" lon="0.95867">
        <ele>136</ele>
        <time>2012-09-30T07:00:57Z</time>
      </trkpt>
      <trkpt lat="44.59857" lon="0.95868">
        <ele>140</ele>
        <time>2012-09-30T07:01:18Z</time>
      </trkpt>
      <trkpt lat="44.59858" lon="0.95868">
        <ele>141</ele>
        <time>2012-09-30T07:01:29Z</time>
      </trkpt>
      <trkpt lat="44.5986" lon="0.95868">
        <ele>141</ele>
        <time>2012-09-30T07:01:36Z</time>
      </trkpt>
      <trkpt lat="44.59861" lon="0.95868">
        <ele>138</ele>
        <time>2012-09-30T07:02:05Z</time>
      </trkpt>
      <trkpt lat="44.5986" lon="0.95869">
        <ele>138</ele>
        <time>2012-09-30T07:02:15Z</time>
      </trkpt>
      <trkpt lat="44.5985" lon="0.95875">
        <ele>137</ele>
        <time>2012-09-30T07:02:20Z</time>
      </trkpt>
      <trkpt lat="44.59835" lon="0.95894">
        <ele>136</ele>
        <time>2012-09-30T07:02:25Z</time>
      </trkpt>
      <trkpt lat="44.59817" lon="0.95924">
        <ele>135</ele>
        <time>2012-09-30T07:02:30Z</time>
      </trkpt>
      <trkpt lat="44.59796" lon="0.9596">
        <ele>132</ele>
        <time>2012-09-30T07:02:35Z</time>
      </trkpt>
      <trkpt lat="44.59786" lon="0.96001">
        <ele>131</ele>
        <time>2012-09-30T07:02:40Z</time>
      </trkpt>
      <trkpt lat="44.59778" lon="0.96038">
        <ele>131</ele>
        <time>2012-09-30T07:02:45Z</time>
      </trkpt>
      <trkpt lat="44.59754" lon="0.96057">
        <ele>131</ele>
        <time>2012-09-30T07:02:50Z</time>
      </trkpt>
      <trkpt lat="44.59724" lon="0.96065">
        <ele>130</ele>
        <time>2012-09-30T07:02:55Z</time>
      </trkpt>
      <trkpt lat="44.59697" lon="0.96087">
        <ele>129</ele>
        <time>2012-09-30T07:03:00Z</time>
      </trkpt>
      <trkpt lat="44.59663" lon="0.96105">
        <ele>128</ele>
        <time>2012-09-30T07:03:05Z</time>
      </trkpt>
      <trkpt lat="44.59626" lon="0.96109">
        <ele>128</ele>
        <time>2012-09-30T07:03:10Z</time>
      </trkpt>
      <trkpt lat="44.59592" lon="0.96127">
        <ele>128</ele>
        <time>2012-09-30T07:03:15Z</time>
      </trkpt>
      <trkpt lat="44.59557" lon="0.96136">
        <ele>128</ele>
        <time>2012-09-30T07:03:20Z</time>
      </trkpt>
      <trkpt lat="44.59521" lon="0.96145">
        <ele>128</ele>
        <time>2012-09-30T07:03:25Z</time>
      </trkpt>
      <trkpt lat="44.59491" lon="0.96158">
        <ele>125</ele>
        <time>2012-09-30T07:03:30Z</time>
      </trkpt>
      <trkpt lat="44.59472" lon="0.9616">
        <ele>121</ele>
        <time>2012-09-30T07:03:35Z</time>
      </trkpt>
      <trkpt lat="44.59466" lon="0.96146">
        <ele>121</ele>
        <time>2012-09-30T07:03:40Z</time>
      </trkpt>
      <trkpt lat="44.59457" lon="0.96137">
        <ele>123</ele>
        <time>2012-09-30T07:03:45Z</time>
      </trkpt>
      <trkpt lat="44.59445" lon="0.9613">
        <ele>123</ele>
        <time>2012-09-30T07:03:50Z</time>
      </trkpt>
      <trkpt lat="44.59433" lon="0.96117">
        <ele>127</ele>
        <time>2012-09-30T07:03:55Z</time>
      </trkpt>
      <trkpt lat="44.59429" lon="0.96101">
        <ele>132</ele>
        <time>2012-09-30T07:04:00Z</time>
      </trkpt>
      <trkpt lat="44.59438" lon="0.96093">
        <ele>132</ele>
        <time>2012-09-30T07:04:05Z</time>
      </trkpt>
      <trkpt lat="44.59447" lon="0.96094">
        <ele>132</ele>
        <time>2012-09-30T07:04:10Z</time>
      </trkpt>
      <trkpt lat="44.59455" lon="0.96094">
        <ele>132</ele>
        <time>2012-09-30T07:04:15Z</time>
      </trkpt>
      <trkpt lat="44.59464" lon="0.96091">
        <ele>135</ele>
        <time>2012-09-30T07:04:20Z</time>
      </trkpt>
      <trkpt lat="44.59471" lon="0.96089">
        <ele>137</ele>
        <time>2012-09-30T07:04:25Z</time>
      </trkpt>
      <trkpt lat="44.59479" lon="0.96086">
        <ele>140</ele>
        <time>2012-09-30T07:04:30Z</time>
      </trkpt>
      <trkpt lat="44.59488" lon="0.96084">
        <ele>146</ele>
        <time>2012-09-30T07:04:36Z</time>
      </trkpt>
      <trkpt lat="44.59496" lon="0.96084">
        <ele>146</ele>
        <time>2012-09-30T07:04:41Z</time>
      </trkpt>
      <trkpt lat="44.59503" lon="0.96087">
        <ele>150</ele>
        <time>2012-09-30T07:04:46Z</time>
      </trkpt>
      <trkpt lat="44.59511" lon="0.9609">
        <ele>154</ele>
        <time>2012-09-30T07:04:51Z</time>
      </trkpt>
      <trkpt lat="44.59519" lon="0.96091">
        <ele>154</ele>
        <time>2012-09-30T07:04:56Z</time>
      </trkpt>
      <trkpt lat="44.59526" lon="0.9609">
        <ele>154</ele>
        <time>2012-09-30T07:05:01Z</time>
      </trkpt>
      <trkpt lat="44.59536" lon="0.96086">
        <ele>154</ele>
        <time>2012-09-30T07:05:06Z</time>
      </trkpt>
      <trkpt lat="44.59545" lon="0.96083">
        <ele>154</ele>
        <time>2012-09-30T07:05:11Z</time>
      </trkpt>
      <trkpt lat="44.59554" lon="0.96077">
        <ele>154</ele>
        <time>2012-09-30T07:05:16Z</time>
      </trkpt>
      <trkpt lat="44.59562" lon="0.96072">
        <ele>154</ele>
        <time>2012-09-30T07:05:21Z</time>
      </trkpt>
      <trkpt lat="44.59568" lon="0.96067">
        <ele>156</ele>
        <time>2012-09-30T07:05:26Z</time>
      </trkpt>
      <trkpt lat="44.59572" lon="0.96056">
        <ele>158</ele>
        <time>2012-09-30T07:05:31Z</time>
      </trkpt>
      <trkpt lat="44.5957" lon="0.96044">
        <ele>162</ele>
        <time>2012-09-30T07:05:36Z</time>
      </trkpt>
      <trkpt lat="44.5957" lon="0.96031">
        <ele>167</ele>
        <time>2012-09-30T07:05:41Z</time>
      </trkpt>
      <trkpt lat="44.59567" lon="0.96017">
        <ele>168</ele>
        <time>2012-09-30T07:05:46Z</time>
      </trkpt>
      <trkpt lat="44.59566" lon="0.96007">
        <ele>168</ele>
        <time>2012-09-30T07:05:51Z</time>
      </trkpt>
      <trkpt lat="44.59567" lon="0.95995">
        <ele>172</ele>
        <time>2012-09-30T07:05:56Z</time>
      </trkpt>
      <trkpt lat="44.59568" lon="0.95983">
        <ele>172</ele>
        <time>2012-09-30T07:06:01Z</time>
      </trkpt>
      <trkpt lat="44.59567" lon="0.95968">
        <ele>172</ele>
        <time>2012-09-30T07:06:06Z</time>
      </trkpt>
      <trkpt lat="44.59568" lon="0.95953">
        <ele>170</ele>
        <time>2012-09-30T07:06:11Z</time>
      </trkpt>
      <trkpt lat="44.59568" lon="0.95939">
        <ele>168</ele>
        <time>2012-09-30T07:06:16Z</time>
      </trkpt>
      <trkpt lat="44.59567" lon="0.95925">
        <ele>167</ele>
        <time>2012-09-30T07:06:21Z</time>
      </trkpt>
      <trkpt lat="44.59568" lon="0.95912">
        <ele>167</ele>
        <time>2012-09-30T07:06:26Z</time>
      </trkpt>
      <trkpt lat="44.59571" lon="0.95902">
        <ele>167</ele>
        <time>2012-09-30T07:06:31Z</time>
      </trkpt>
      <trkpt lat="44.5957" lon="0.9589">
        <ele>167</ele>
        <time>2012-09-30T07:06:36Z</time>
      </trkpt>
      <trkpt lat="44.5957" lon="0.95876">
        <ele>167</ele>
        <time>2012-09-30T07:06:41Z</time>
      </trkpt>
      <trkpt lat="44.59568" lon="0.95863">
        <ele>167</ele>
        <time>2012-09-30T07:06:46Z</time>
      </trkpt>
      <trkpt lat="44.59568" lon="0.9585">
        <ele>165</ele>
        <time>2012-09-30T07:06:51Z</time>
      </trkpt>
      <trkpt lat="44.59569" lon="0.95834">
        <ele>162</ele>
        <time>2012-09-30T07:06:56Z</time>
      </trkpt>
      <trkpt lat="44.59571" lon="0.95822">
        <ele>157</ele>
        <time>2012-09-30T07:07:01Z</time>
      </trkpt>
      <trkpt lat="44.59575" lon="0.95807">
        <ele>153</ele>
        <time>2012-09-30T07:07:06Z</time>
      </trkpt>
      <trkpt lat="44.59579" lon="0.95792">
        <ele>151</ele>
        <time>2012-09-30T07:07:11Z</time>
      </trkpt>
      <trkpt lat="44.59583" lon="0.95773">
        <ele>152</ele>
        <time>2012-09-30T07:07:16Z</time>
      </trkpt>
      <trkpt lat="44.59587" lon="0.95764">
        <ele>155</ele>
        <time>2012-09-30T07:07:21Z</time>
      </trkpt>
      <trkpt lat="44.59593" lon="0.95752">
        <ele>159</ele>
        <time>2012-09-30T07:07:26Z</time>
      </trkpt>
      <trkpt lat="44.59597" lon="0.95738">
        <ele>159</ele>
        <time>2012-09-30T07:07:31Z</time>
      </trkpt>
      <trkpt lat="44.596" lon="0.95726">
        <ele>162</ele>
        <time>2012-09-30T07:07:36Z</time>
      </trkpt>
      <trkpt lat="44.59603" lon="0.95713">
        <ele>166</ele>
        <time>2012-09-30T07:07:41Z</time>
      </trkpt>
      <trkpt lat="44.59601" lon="0.95697">
        <ele>166</ele>
        <time>2012-09-30T07:07:46Z</time>
      </trkpt>
      <trkpt lat="44.59598" lon="0.95683">
        <ele>166</ele>
        <time>2012-09-30T07:07:51Z</time>
      </trkpt>
      <trkpt lat="44.59594" lon="0.95669">
        <ele>165</ele>
        <time>2012-09-30T07:07:56Z</time>
      </trkpt>
      <trkpt lat="44.59589" lon="0.95656">
        <ele>165</ele>
        <time>2012-09-30T07:08:01Z</time>
      </trkpt>
      <trkpt lat="44.59584" lon="0.95641">
        <ele>165</ele>
        <time>2012-09-30T07:08:06Z</time>
      </trkpt>
      <trkpt lat="44.59582" lon="0.95627">
        <ele>165</ele>
        <time>2012-09-30T07:08:11Z</time>
      </trkpt>
      <trkpt lat="44.59576" lon="0.95614">
        <ele>165</ele>
        <time>2012-09-30T07:08:16Z</time>
      </trkpt>
      <trkpt lat="44.59573" lon="0.95602">
        <ele>167</ele>
        <time>2012-09-30T07:08:21Z</time>
      </trkpt>
      <trkpt lat="44.59564" lon="0.95586">
        <ele>168</ele>
        <time>2012-09-30T07:08:26Z</time>
      </trkpt>
      <trkpt lat="44.59562" lon="0.95569">
        <ele>169</ele>
        <time>2012-09-30T07:08:31Z</time>
      </trkpt>
      <trkpt lat="44.59559" lon="0.9555">
        <ele>174</ele>
        <time>2012-09-30T07:08:36Z</time>
      </trkpt>
      <trkpt lat="44.59558" lon="0.95535">
        <ele>179</ele>
        <time>2012-09-30T07:08:41Z</time>
      </trkpt>
      <trkpt lat="44.59557" lon="0.95521">
        <ele>185</ele>
        <time>2012-09-30T07:08:46Z</time>
      </trkpt>
      <trkpt lat="44.59559" lon="0.95507">
        <ele>190</ele>
        <time>2012-09-30T07:08:51Z</time>
      </trkpt>
      <trkpt lat="44.59557" lon="0.95494">
        <ele>194</ele>
        <time>2012-09-30T07:08:56Z</time>
      </trkpt>
      <trkpt lat="44.59558" lon="0.95481">
        <ele>195</ele>
        <time>2012-09-30T07:09:01Z</time>
      </trkpt>
      <trkpt lat="44.5956" lon="0.95467">
        <ele>195</ele>
        <time>2012-09-30T07:09:06Z</time>
      </trkpt>
      <trkpt lat="44.59561" lon="0.95455">
        <ele>195</ele>
        <time>2012-09-30T07:09:11Z</time>
      </trkpt>
      <trkpt lat="44.5956" lon="0.95445">
        <ele>195</ele>
        <time>2012-09-30T07:09:16Z</time>
      </trkpt>
      <trkpt lat="44.59561" lon="0.95432">
        <ele>195</ele>
        <time>2012-09-30T07:09:21Z</time>
      </trkpt>
      <trkpt lat="44.59562" lon="0.95419">
        <ele>195</ele>
        <time>2012-09-30T07:09:26Z</time>
      </trkpt>
      <trkpt lat="44.59563" lon="0.95407">
        <ele>195</ele>
        <time>2012-09-30T07:09:31Z</time>
      </trkpt>
      <trkpt lat="44.59565" lon="0.95393">
        <ele>195</ele>
        <time>2012-09-30T07:09:36Z</time>
      </trkpt>
      <trkpt lat="44.59566" lon="0.95382">
        <ele>195</ele>
        <time>2012-09-30T07:09:41Z</time>
      </trkpt>
      <trkpt lat="44.59568" lon="0.95369">
        <ele>194</ele>
        <time>2012-09-30T07:09:46Z</time>
      </trkpt>
      <trkpt lat="44.59565" lon="0.95354">
        <ele>194</ele>
        <time>2012-09-30T07:09:51Z</time>
      </trkpt>
      <trkpt lat="44.59566" lon="0.95344">
        <ele>194</ele>
        <time>2012-09-30T07:09:56Z</time>
      </trkpt>
      <trkpt lat="44.59567" lon="0.95337">
        <ele>197</ele>
        <time>2012-09-30T07:10:01Z</time>
      </trkpt>
      <trkpt lat="44.59568" lon="0.95329">
        <ele>197</ele>
        <time>2012-09-30T07:10:06Z</time>
      </trkpt>
      <trkpt lat="44.59568" lon="0.95319">
        <ele>197</ele>
        <time>2012-09-30T07:10:11Z</time>
      </trkpt>
      <trkpt lat="44.59566" lon="0.95308">
        <ele>197</ele>
        <time>2012-09-30T07:10:16Z</time>
      </trkpt>
      <trkpt lat="44.59565" lon="0.95297">
        <ele>197</ele>
        <time>2012-09-30T07:10:21Z</time>
      </trkpt>
      <trkpt lat="44.59563" lon="0.95284">
        <ele>194</ele>
        <time>2012-09-30T07:10:26Z</time>
      </trkpt>
      <trkpt lat="44.59563" lon="0.95267">
        <ele>193</ele>
        <time>2012-09-30T07:10:31Z</time>
      </trkpt>
      <trkpt lat="44.5957" lon="0.95238">
        <ele>195</ele>
        <time>2012-09-30T07:10:36Z</time>
      </trkpt>
      <trkpt lat="44.59579" lon="0.95205">
        <ele>200</ele>
        <time>2012-09-30T07:10:41Z</time>
      </trkpt>
      <trkpt lat="44.59587" lon="0.95188">
        <ele>200</ele>
        <time>2012-09-30T07:10:46Z</time>
      </trkpt>
      <trkpt lat="44.59592" lon="0.95182">
        <ele>197</ele>
        <time>2012-09-30T07:10:53Z</time>
      </trkpt>
      <trkpt lat="44.59595" lon="0.95182">
        <ele>198</ele>
        <time>2012-09-30T07:11:02Z</time>
      </trkpt>
      <trkpt lat="44.59596" lon="0.95181">
        <ele>206</ele>
        <time>2012-09-30T07:11:10Z</time>
      </trkpt>
      <trkpt lat="44.59596" lon="0.95179">
        <ele>206</ele>
        <time>2012-09-30T07:11:15Z</time>
      </trkpt>
      <trkpt lat="44.59597" lon="0.95177">
        <ele>206</ele>
        <time>2012-09-30T07:11:26Z</time>
      </trkpt>
      <trkpt lat="44.59598" lon="0.9518">
        <ele>210</ele>
        <time>2012-09-30T07:11:31Z</time>
      </trkpt>
      <trkpt lat="44.59596" lon="0.95184">
        <ele>216</ele>
        <time>2012-09-30T07:11:40Z</time>
      </trkpt>
      <trkpt lat="44.59595" lon="0.9518">
        <ele>217</ele>
        <time>2012-09-30T07:11:47Z</time>
      </trkpt>
      <trkpt lat="44.59593" lon="0.95177">
        <ele>223</ele>
        <time>2012-09-30T07:11:56Z</time>
      </trkpt>
      <trkpt lat="44.59591" lon="0.95176">
        <ele>226</ele>
        <time>2012-09-30T07:12:02Z</time>
      </trkpt>
      <trkpt lat="44.59591" lon="0.95179">
        <ele>232</ele>
        <time>2012-09-30T07:12:08Z</time>
      </trkpt>
      <trkpt lat="44.59592" lon="0.95185">
        <ele>235</ele>
        <time>2012-09-30T07:12:13Z</time>
      </trkpt>
      <trkpt lat="44.59587" lon="0.95188">
        <ele>236</ele>
        <time>2012-09-30T07:12:18Z</time>
      </trkpt>
      <trkpt lat="44.59588" lon="0.95183">
        <ele>236</ele>
        <time>2012-09-30T07:12:23Z</time>
      </trkpt>
      <trkpt lat="44.59591" lon="0.95175">
        <ele>230</ele>
        <time>2012-09-30T07:12:28Z</time>
      </trkpt>
      <trkpt lat="44.59593" lon="0.95172">
        <ele>222</ele>
        <time>2012-09-30T07:12:33Z</time>
      </trkpt>
      <trkpt lat="44.59594" lon="0.95173">
        <ele>217</ele>
        <time>2012-09-30T07:12:38Z</time>
      </trkpt>
      <trkpt lat="44.59596" lon="0.95177">
        <ele>212</ele>
        <time>2012-09-30T07:12:47Z</time>
      </trkpt>
      <trkpt lat="44.59596" lon="0.95178">
        <ele>212</ele>
        <time>2012-09-30T07:12:53Z</time>
      </trkpt>
      <trkpt lat="44.59596" lon="0.9518">
        <ele>212</ele>
        <time>2012-09-30T07:13:05Z</time>
      </trkpt>
      <trkpt lat="44.59596" lon="0.95182">
        <ele>212</ele>
        <time>2012-09-30T07:13:11Z</time>
      </trkpt>
      <trkpt lat="44.59598" lon="0.9518">
        <ele>213</ele>
        <time>2012-09-30T07:13:21Z</time>
      </trkpt>
      <trkpt lat="44.59598" lon="0.95177">
        <ele>213</ele>
        <time>2012-09-30T07:13:31Z</time>
      </trkpt>
      <trkpt lat="44.59597" lon="0.95178">
        <ele>213</ele>
        <time>2012-09-30T07:13:45Z</time>
      </trkpt>
      <trkpt lat="44.59596" lon="0.95177">
        <ele>213</ele>
        <time>2012-09-30T07:13:50Z</time>
      </trkpt>
      <trkpt lat="44.59594" lon="0.95177">
        <ele>213</ele>
        <time>2012-09-30T07:14:10Z</time>
      </trkpt>
      <trkpt lat="44.59595" lon="0.95177">
        <ele>213</ele>
        <time>2012-09-30T07:14:17Z</time>
      </trkpt>
      <trkpt lat="44.59596" lon="0.95178">
        <ele>213</ele>
        <time>2012-09-30T07:14:22Z</time>
      </trkpt>
      <trkpt lat="44.59599" lon="0.9518">
        <ele>213</ele>
        <time>2012-09-30T07:14:29Z</time>
      </trkpt>
      <trkpt lat="44.596" lon="0.95182">
        <ele>214</ele>
        <time>2012-09-30T07:14:35Z</time>
      </trkpt>
      <trkpt lat="44.596" lon="0.95183">
        <ele>217</ele>
        <time>2012-09-30T07:14:40Z</time>
      </trkpt>
      <trkpt lat="44.596" lon="0.95182">
        <ele>217</ele>
        <time>2012-09-30T07:14:48Z</time>
      </trkpt>
      <trkpt lat="44.59599" lon="0.9518">
        <ele>217</ele>
        <time>2012-09-30T07:14:53Z</time>
      </trkpt>
      <trkpt lat="44.596" lon="0.95175">
        <ele>215</ele>
        <time>2012-09-30T07:15:00Z</time>
      </trkpt>
      <trkpt lat="44.596" lon="0.95171">
        <ele>212</ele>
        <time>2012-09-30T07:15:05Z</time>
      </trkpt>
      <trkpt lat="44.596" lon="0.95173">
        <ele>208</ele>
        <time>2012-09-30T07:15:11Z</time>
      </trkpt>
      <trkpt lat="44.59599" lon="0.95175">
        <ele>208</ele>
        <time>2012-09-30T07:15:16Z</time>
      </trkpt>
      <trkpt lat="44.59598" lon="0.95179">
        <ele>208</ele>
        <time>2012-09-30T07:15:21Z</time>
      </trkpt>
      <trkpt lat="44.59597" lon="0.95179">
        <ele>208</ele>
        <time>2012-09-30T07:15:27Z</time>
      </trkpt>
      <trkpt lat="44.59597" lon="0.95181">
        <ele>208</ele>
        <time>2012-09-30T07:15:35Z</time>
      </trkpt>
      <trkpt lat="44.59597" lon="0.95179">
        <ele>208</ele>
        <time>2012-09-30T07:15:48Z</time>
      </trkpt>
      <trkpt lat="44.59598" lon="0.95176">
        <ele>208</ele>
        <time>2012-09-30T07:15:57Z</time>
      </trkpt>
      <trkpt lat="44.59598" lon="0.95179">
        <ele>208</ele>
        <time>2012-09-30T07:16:04Z</time>
      </trkpt>
      <trkpt lat="44.59599" lon="0.95178">
        <ele>211</ele>
        <time>2012-09-30T07:16:15Z</time>
      </trkpt>
      <trkpt lat="44.59596" lon="0.95176">
        <ele>211</ele>
        <time>2012-09-30T07:16:24Z</time>
      </trkpt>
      <trkpt lat="44.59596" lon="0.95174">
        <ele>211</ele>
        <time>2012-09-30T07:16:33Z</time>
      </trkpt>
      <trkpt lat="44.59597" lon="0.95173">
        <ele>211</ele>
        <time>2012-09-30T07:16:41Z</time>
      </trkpt>
      <trkpt lat="44.59595" lon="0.95174">
        <ele>211</ele>
        <time>2012-09-30T07:16:48Z</time>
      </trkpt>
      <trkpt lat="44.59594" lon="0.95172">
        <ele>210</ele>
        <time>2012-09-30T07:16:56Z</time>
      </trkpt>
      <trkpt lat="44.59594" lon="0.95171">
        <ele>205</ele>
        <time>2012-09-30T07:17:09Z</time>
      </trkpt>
      <trkpt lat="44.59595" lon="0.95171">
        <ele>201</ele>
        <time>2012-09-30T07:17:23Z</time>
      </trkpt>
      <trkpt lat="44.59594" lon="0.95173">
        <ele>196</ele>
        <time>2012-09-30T07:17:51Z</time>
      </trkpt>
      <trkpt lat="44.59595" lon="0.95175">
        <ele>196</ele>
        <time>2012-09-30T07:17:56Z</time>
      </trkpt>
      <trkpt lat="44.59595" lon="0.95175">
        <ele>203</ele>
        <time>2012-09-30T07:18:12Z</time>
      </trkpt>
      <trkpt lat="44.59594" lon="0.95175">
        <ele>203</ele>
        <time>2012-09-30T07:18:18Z</time>
      </trkpt>
      <trkpt lat="44.59592" lon="0.95176">
        <ele>203</ele>
        <time>2012-09-30T07:18:25Z</time>
      </trkpt>
      <trkpt lat="44.59593" lon="0.95178">
        <ele>202</ele>
        <time>2012-09-30T07:18:37Z</time>
      </trkpt>
      <trkpt lat="44.59592" lon="0.95176">
        <ele>202</ele>
        <time>2012-09-30T07:18:50Z</time>
      </trkpt>
      <trkpt lat="44.59598" lon="0.9517">
        <ele>204</ele>
        <time>2012-09-30T07:18:55Z</time>
      </trkpt>
      <trkpt lat="44.59605" lon="0.95159">
        <ele>208</ele>
        <time>2012-09-30T07:19:00Z</time>
      </trkpt>
      <trkpt lat="44.59613" lon="0.95142">
        <ele>211</ele>
        <time>2012-09-30T07:19:05Z</time>
      </trkpt>
      <trkpt lat="44.59623" lon="0.95128">
        <ele>212</ele>
        <time>2012-09-30T07:19:10Z</time>
      </trkpt>
      <trkpt lat="44.59637" lon="0.95117">
        <ele>215</ele>
        <time>2012-09-30T07:19:15Z</time>
      </trkpt>
      <trkpt lat="44.59649" lon="0.95107">
        <ele>215</ele>
        <time>2012-09-30T07:19:20Z</time>
      </trkpt>
      <trkpt lat="44.59661" lon="0.95096">
        <ele>213</ele>
        <time>2012-09-30T07:19:25Z</time>
      </trkpt>
      <trkpt lat="44.5967" lon="0.95088">
        <ele>211</ele>
        <time>2012-09-30T07:19:30Z</time>
      </trkpt>
      <trkpt lat="44.59667" lon="0.95078">
        <ele>211</ele>
        <time>2012-09-30T07:19:35Z</time>
      </trkpt>
      <trkpt lat="44.59656" lon="0.95068">
        <ele>211</ele>
        <time>2012-09-30T07:19:40Z</time>
      </trkpt>
      <trkpt lat="44.59647" lon="0.95048">
        <ele>211</ele>
        <time>2012-09-30T07:19:45Z</time>
      </trkpt>
      <trkpt lat="44.59648" lon="0.9502">
        <ele>211</ele>
        <time>2012-09-30T07:19:50Z</time>
      </trkpt>
      <trkpt lat="44.59656" lon="0.95">
        <ele>211</ele>
        <time>2012-09-30T07:19:55Z</time>
      </trkpt>
      <trkpt lat="44.59669" lon="0.94994">
        <ele>211</ele>
        <time>2012-09-30T07:20:00Z</time>
      </trkpt>
      <trkpt lat="44.59683" lon="0.94995">
        <ele>212</ele>
        <time>2012-09-30T07:20:05Z</time>
      </trkpt>
      <trkpt lat="44.59695" lon="0.9499">
        <ele>213</ele>
        <time>2012-09-30T07:20:11Z</time>
      </trkpt>
      <trkpt lat="44.59701" lon="0.94973">
        <ele>213</ele>
        <time>2012-09-30T07:20:16Z</time>
      </trkpt>
      <trkpt lat="44.59706" lon="0.94957">
        <ele>215</ele>
        <time>2012-09-30T07:20:21Z</time>
      </trkpt>
      <trkpt lat="44.59711" lon="0.94942">
        <ele>217</ele>
        <time>2012-09-30T07:20:26Z</time>
      </trkpt>
      <trkpt lat="44.59716" lon="0.94925">
        <ele>220</ele>
        <time>2012-09-30T07:20:31Z</time>
      </trkpt>
      <trkpt lat="44.59721" lon="0.94909">
        <ele>221</ele>
        <time>2012-09-30T07:20:36Z</time>
      </trkpt>
      <trkpt lat="44.59732" lon="0.94889">
        <ele>224</ele>
        <time>2012-09-30T07:20:41Z</time>
      </trkpt>
      <trkpt lat="44.59746" lon="0.94869">
        <ele>224</ele>
        <time>2012-09-30T07:20:46Z</time>
      </trkpt>
      <trkpt lat="44.59763" lon="0.9485">
        <ele>224</ele>
        <time>2012-09-30T07:20:51Z</time>
      </trkpt>
      <trkpt lat="44.59784" lon="0.94826">
        <ele>224</ele>
        <time>2012-09-30T07:20:56Z</time>
      </trkpt>
      <trkpt lat="44.59801" lon="0.94794">
        <ele>224</ele>
        <time>2012-09-30T07:21:01Z</time>
      </trkpt>
      <trkpt lat="44.59817" lon="0.94762">
        <ele>222</ele>
        <time>2012-09-30T07:21:06Z</time>
      </trkpt>
      <trkpt lat="44.59836" lon="0.94723">
        <ele>217</ele>
        <time>2012-09-30T07:21:11Z</time>
      </trkpt>
      <trkpt lat="44.59854" lon="0.94677">
        <ele>216</ele>
        <time>2012-09-30T07:21:16Z</time>
      </trkpt>
      <trkpt lat="44.59873" lon="0.94633">
        <ele>216</ele>
        <time>2012-09-30T07:21:21Z</time>
      </trkpt>
      <trkpt lat="44.59887" lon="0.94584">
        <ele>216</ele>
        <time>2012-09-30T07:21:26Z</time>
      </trkpt>
      <trkpt lat="44.59893" lon="0.94532">
        <ele>216</ele>
        <time>2012-09-30T07:21:31Z</time>
      </trkpt>
      <trkpt lat="44.59898" lon="0.94476">
        <ele>217</ele>
        <time>2012-09-30T07:21:36Z</time>
      </trkpt>
      <trkpt lat="44.59903" lon="0.94416">
        <ele>217</ele>
        <time>2012-09-30T07:21:41Z</time>
      </trkpt>
      <trkpt lat="44.5991" lon="0.94367">
        <ele>217</ele>
        <time>2012-09-30T07:21:46Z</time>
      </trkpt>
      <trkpt lat="44.59921" lon="0.94341">
        <ele>217</ele>
        <time>2012-09-30T07:21:51Z</time>
      </trkpt>
      <trkpt lat="44.59928" lon="0.94324">
        <ele>217</ele>
        <time>2012-09-30T07:21:56Z</time>
      </trkpt>
      <trkpt lat="44.59932" lon="0.94309">
        <ele>218</ele>
        <time>2012-09-30T07:22:02Z</time>
      </trkpt>
      <trkpt lat="44.59938" lon="0.94292">
        <ele>218</ele>
        <time>2012-09-30T07:22:07Z</time>
      </trkpt>
      <trkpt lat="44.59945" lon="0.94272">
        <ele>218</ele>
        <time>2012-09-30T07:22:12Z</time>
      </trkpt>
      <trkpt lat="44.59952" lon="0.94258">
        <ele>218</ele>
        <time>2012-09-30T07:22:17Z</time>
      </trkpt>
      <trkpt lat="44.59958" lon="0.94241">
        <ele>218</ele>
        <time>2012-09-30T07:22:22Z</time>
      </trkpt>
      <trkpt lat="44.59963" lon="0.94223">
        <ele>218</ele>
        <time>2012-09-30T07:22:27Z</time>
      </trkpt>
      <trkpt lat="44.59969" lon="0.94202">
        <ele>218</ele>
        <time>2012-09-30T07:22:32Z</time>
      </trkpt>
      <trkpt lat="44.59974" lon="0.94179">
        <ele>217</ele>
        <time>2012-09-30T07:22:37Z</time>
      </trkpt>
      <trkpt lat="44.59974" lon="0.94169">
        <ele>217</ele>
        <time>2012-09-30T07:22:43Z</time>
      </trkpt>
      <trkpt lat="44.59976" lon="0.94167">
        <ele>219</ele>
        <time>2012-09-30T07:22:49Z</time>
      </trkpt>
      <trkpt lat="44.59976" lon="0.94162">
        <ele>224</ele>
        <time>2012-09-30T07:22:54Z</time>
      </trkpt>
      <trkpt lat="44.59978" lon="0.94148">
        <ele>226</ele>
        <time>2012-09-30T07:22:59Z</time>
      </trkpt>
      <trkpt lat="44.59979" lon="0.94132">
        <ele>226</ele>
        <time>2012-09-30T07:23:04Z</time>
      </trkpt>
      <trkpt lat="44.59978" lon="0.94113">
        <ele>226</ele>
        <time>2012-09-30T07:23:09Z</time>
      </trkpt>
      <trkpt lat="44.59977" lon="0.94093">
        <ele>226</ele>
        <time>2012-09-30T07:23:14Z</time>
      </trkpt>
      <trkpt lat="44.5998" lon="0.94077">
        <ele>226</ele>
        <time>2012-09-30T07:23:19Z</time>
      </trkpt>
      <trkpt lat="44.59989" lon="0.94058">
        <ele>226</ele>
        <time>2012-09-30T07:23:24Z</time>
      </trkpt>
      <trkpt lat="44.60003" lon="0.94043">
        <ele>226</ele>
        <time>2012-09-30T07:23:29Z</time>
      </trkpt>
      <trkpt lat="44.60018" lon="0.9402">
        <ele>226</ele>
        <time>2012-09-30T07:23:34Z</time>
      </trkpt>
      <trkpt lat="44.6003" lon="0.93996">
        <ele>226</ele>
        <time>2012-09-30T07:23:39Z</time>
      </trkpt>
      <trkpt lat="44.6004" lon="0.93976">
        <ele>228</ele>
        <time>2012-09-30T07:23:44Z</time>
      </trkpt>
      <trkpt lat="44.60053" lon="0.93951">
        <ele>228</ele>
        <time>2012-09-30T07:23:49Z</time>
      </trkpt>
      <trkpt lat="44.60061" lon="0.93929">
        <ele>228</ele>
        <time>2012-09-30T07:23:54Z</time>
      </trkpt>
      <trkpt lat="44.60069" lon="0.93904">
        <ele>228</ele>
        <time>2012-09-30T07:23:59Z</time>
      </trkpt>
      <trkpt lat="44.6008" lon="0.9388">
        <ele>228</ele>
        <time>2012-09-30T07:24:04Z</time>
      </trkpt>
      <trkpt lat="44.60091" lon="0.93857">
        <ele>228</ele>
        <time>2012-09-30T07:24:09Z</time>
      </trkpt>
      <trkpt lat="44.60108" lon="0.9384">
        <ele>228</ele>
        <time>2012-09-30T07:24:14Z</time>
      </trkpt>
      <trkpt lat="44.6012" lon="0.93832">
        <ele>228</ele>
        <time>2012-09-30T07:24:19Z</time>
      </trkpt>
      <trkpt lat="44.60138" lon="0.93828">
        <ele>228</ele>
        <time>2012-09-30T07:24:24Z</time>
      </trkpt>
      <trkpt lat="44.60155" lon="0.93826">
        <ele>228</ele>
        <time>2012-09-30T07:24:29Z</time>
      </trkpt>
      <trkpt lat="44.60166" lon="0.93835">
        <ele>228</ele>
        <time>2012-09-30T07:24:34Z</time>
      </trkpt>
      <trkpt lat="44.60178" lon="0.93838">
        <ele>228</ele>
        <time>2012-09-30T07:24:39Z</time>
      </trkpt>
      <trkpt lat="44.60189" lon="0.93842">
        <ele>228</ele>
        <time>2012-09-30T07:24:44Z</time>
      </trkpt>
      <trkpt lat="44.60202" lon="0.93848">
        <ele>228</ele>
        <time>2012-09-30T07:24:49Z</time>
      </trkpt>
      <trkpt lat="44.60217" lon="0.93855">
        <ele>228</ele>
        <time>2012-09-30T07:24:54Z</time>
      </trkpt>
      <trkpt lat="44.60239" lon="0.93862">
        <ele>229</ele>
        <time>2012-09-30T07:24:59Z</time>
      </trkpt>
      <trkpt lat="44.60276" lon="0.93852">
        <ele>229</ele>
        <time>2012-09-30T07:25:04Z</time>
      </trkpt>
      <trkpt lat="44.60312" lon="0.93868">
        <ele>229</ele>
        <time>2012-09-30T07:25:09Z</time>
      </trkpt>
      <trkpt lat="44.60343" lon="0.93893">
        <ele>229</ele>
        <time>2012-09-30T07:25:14Z</time>
      </trkpt>
      <trkpt lat="44.60376" lon="0.93897">
        <ele>226</ele>
        <time>2012-09-30T07:25:19Z</time>
      </trkpt>
      <trkpt lat="44.60401" lon="0.93897">
        <ele>226</ele>
        <time>2012-09-30T07:25:24Z</time>
      </trkpt>
      <trkpt lat="44.60421" lon="0.93897">
        <ele>226</ele>
        <time>2012-09-30T07:25:29Z</time>
      </trkpt>
      <trkpt lat="44.60442" lon="0.93894">
        <ele>229</ele>
        <time>2012-09-30T07:25:34Z</time>
      </trkpt>
      <trkpt lat="44.60451" lon="0.93871">
        <ele>230</ele>
        <time>2012-09-30T07:25:39Z</time>
      </trkpt>
      <trkpt lat="44.6047" lon="0.93852">
        <ele>230</ele>
        <time>2012-09-30T07:25:44Z</time>
      </trkpt>
      <trkpt lat="44.60489" lon="0.93841">
        <ele>227</ele>
        <time>2012-09-30T07:25:49Z</time>
      </trkpt>
      <trkpt lat="44.60498" lon="0.93842">
        <ele>226</ele>
        <time>2012-09-30T07:25:58Z</time>
      </trkpt>
      <trkpt lat="44.605" lon="0.93842">
        <ele>226</ele>
        <time>2012-09-30T07:26:04Z</time>
      </trkpt>
      <trkpt lat="44.60503" lon="0.93841">
        <ele>226</ele>
        <time>2012-09-30T07:26:09Z</time>
      </trkpt>
      <trkpt lat="44.60507" lon="0.93839">
        <ele>231</ele>
        <time>2012-09-30T07:26:16Z</time>
      </trkpt>
      <trkpt lat="44.60509" lon="0.93837">
        <ele>243</ele>
        <time>2012-09-30T07:26:29Z</time>
      </trkpt>
      <trkpt lat="44.60507" lon="0.93837">
        <ele>243</ele>
        <time>2012-09-30T07:26:41Z</time>
      </trkpt>
      <trkpt lat="44.60508" lon="0.9384">
        <ele>243</ele>
        <time>2012-09-30T07:26:53Z</time>
      </trkpt>
      <trkpt lat="44.60507" lon="0.93839">
        <ele>242</ele>
        <time>2012-09-30T07:27:05Z</time>
      </trkpt>
      <trkpt lat="44.60505" lon="0.93835">
        <ele>242</ele>
        <time>2012-09-30T07:27:11Z</time>
      </trkpt>
      <trkpt lat="44.60506" lon="0.93835">
        <ele>242</ele>
        <time>2012-09-30T07:27:16Z</time>
      </trkpt>
      <trkpt lat="44.60507" lon="0.93836">
        <ele>242</ele>
        <time>2012-09-30T07:27:21Z</time>
      </trkpt>
      <trkpt lat="44.60506" lon="0.93835">
        <ele>244</ele>
        <time>2012-09-30T07:27:30Z</time>
      </trkpt>
      <trkpt lat="44.60506" lon="0.93831">
        <ele>246</ele>
        <time>2012-09-30T07:27:39Z</time>
      </trkpt>
      <trkpt lat="44.60507" lon="0.93834">
        <ele>246</ele>
        <time>2012-09-30T07:27:45Z</time>
      </trkpt>
      <trkpt lat="44.60513" lon="0.93837">
        <ele>243</ele>
        <time>2012-09-30T07:27:50Z</time>
      </trkpt>
      <trkpt lat="44.60521" lon="0.93841">
        <ele>241</ele>
        <time>2012-09-30T07:27:55Z</time>
      </trkpt>
      <trkpt lat="44.60533" lon="0.93846">
        <ele>241</ele>
        <time>2012-09-30T07:28:00Z</time>
      </trkpt>
      <trkpt lat="44.60547" lon="0.93854">
        <ele>241</ele>
        <time>2012-09-30T07:28:05Z</time>
      </trkpt>
      <trkpt lat="44.60566" lon="0.9386">
        <ele>240</ele>
        <time>2012-09-30T07:28:10Z</time>
      </trkpt>
      <trkpt lat="44.60586" lon="0.93867">
        <ele>238</ele>
        <time>2012-09-30T07:28:15Z</time>
      </trkpt>
      <trkpt lat="44.60607" lon="0.93877">
        <ele>235</ele>
        <time>2012-09-30T07:28:20Z</time>
      </trkpt>
      <trkpt lat="44.60628" lon="0.93892">
        <ele>232</ele>
        <time>2012-09-30T07:28:25Z</time>
      </trkpt>
      <trkpt lat="44.6065" lon="0.93904">
        <ele>230</ele>
        <time>2012-09-30T07:28:30Z</time>
      </trkpt>
      <trkpt lat="44.60673" lon="0.93913">
        <ele>229</ele>
        <time>2012-09-30T07:28:35Z</time>
      </trkpt>
      <trkpt lat="44.60694" lon="0.9392">
        <ele>228</ele>
        <time>2012-09-30T07:28:40Z</time>
      </trkpt>
      <trkpt lat="44.60716" lon="0.9393">
        <ele>227</ele>
        <time>2012-09-30T07:28:45Z</time>
      </trkpt>
      <trkpt lat="44.60743" lon="0.93941">
        <ele>227</ele>
        <time>2012-09-30T07:28:50Z</time>
      </trkpt>
      <trkpt lat="44.60771" lon="0.93951">
        <ele>227</ele>
        <time>2012-09-30T07:28:55Z</time>
      </trkpt>
      <trkpt lat="44.60796" lon="0.93975">
        <ele>227</ele>
        <time>2012-09-30T07:29:00Z</time>
      </trkpt>
      <trkpt lat="44.60819" lon="0.94">
        <ele>227</ele>
        <time>2012-09-30T07:29:05Z</time>
      </trkpt>
      <trkpt lat="44.60838" lon="0.94026">
        <ele>227</ele>
        <time>2012-09-30T07:29:10Z</time>
      </trkpt>
      <trkpt lat="44.60854" lon="0.94055">
        <ele>227</ele>
        <time>2012-09-30T07:29:15Z</time>
      </trkpt>
      <trkpt lat="44.60873" lon="0.94082">
        <ele>229</ele>
        <time>2012-09-30T07:29:20Z</time>
      </trkpt>
      <trkpt lat="44.60893" lon="0.94112">
        <ele>234</ele>
        <time>2012-09-30T07:29:25Z</time>
      </trkpt>
      <trkpt lat="44.60904" lon="0.94144">
        <ele>236</ele>
        <time>2012-09-30T07:29:30Z</time>
      </trkpt>
      <trkpt lat="44.60918" lon="0.94179">
        <ele>236</ele>
        <time>2012-09-30T07:29:35Z</time>
      </trkpt>
      <trkpt lat="44.60935" lon="0.94218">
        <ele>236</ele>
        <time>2012-09-30T07:29:40Z</time>
      </trkpt>
      <trkpt lat="44.60955" lon="0.94249">
        <ele>236</ele>
        <time>2012-09-30T07:29:45Z</time>
      </trkpt>
      <trkpt lat="44.60975" lon="0.94278">
        <ele>236</ele>
        <time>2012-09-30T07:29:50Z</time>
      </trkpt>
      <trkpt lat="44.60989" lon="0.94305">
        <ele>235</ele>
        <time>2012-09-30T07:29:55Z</time>
      </trkpt>
      <trkpt lat="44.61002" lon="0.9433">
        <ele>235</ele>
        <time>2012-09-30T07:30:00Z</time>
      </trkpt>
      <trkpt lat="44.61017" lon="0.94376">
        <ele>236</ele>
        <time>2012-09-30T07:30:05Z</time>
      </trkpt>
      <trkpt lat="44.61025" lon="0.94428">
        <ele>237</ele>
        <time>2012-09-30T07:30:10Z</time>
      </trkpt>
      <trkpt lat="44.6104" lon="0.94461">
        <ele>235</ele>
        <time>2012-09-30T07:30:15Z</time>
      </trkpt>
      <trkpt lat="44.61061" lon="0.94488">
        <ele>234</ele>
        <time>2012-09-30T07:30:20Z</time>
      </trkpt>
      <trkpt lat="44.61083" lon="0.94511">
        <ele>233</ele>
        <time>2012-09-30T07:30:25Z</time>
      </trkpt>
      <trkpt lat="44.61106" lon="0.94539">
        <ele>232</ele>
        <time>2012-09-30T07:30:30Z</time>
      </trkpt>
      <trkpt lat="44.61127" lon="0.94567">
        <ele>232</ele>
        <time>2012-09-30T07:30:35Z</time>
      </trkpt>
      <trkpt lat="44.61144" lon="0.94586">
        <ele>232</ele>
        <time>2012-09-30T07:30:40Z</time>
      </trkpt>
      <trkpt lat="44.61163" lon="0.94605">
        <ele>232</ele>
        <time>2012-09-30T07:30:45Z</time>
      </trkpt>
      <trkpt lat="44.61182" lon="0.94623">
        <ele>231</ele>
        <time>2012-09-30T07:30:50Z</time>
      </trkpt>
      <trkpt lat="44.61202" lon="0.94637">
        <ele>231</ele>
        <time>2012-09-30T07:30:55Z</time>
      </trkpt>
      <trkpt lat="44.61221" lon="0.94656">
        <ele>231</ele>
        <time>2012-09-30T07:31:00Z</time>
      </trkpt>
      <trkpt lat="44.61243" lon="0.94675">
        <ele>231</ele>
        <time>2012-09-30T07:31:05Z</time>
      </trkpt>
      <trkpt lat="44.61265" lon="0.94696">
        <ele>231</ele>
        <time>2012-09-30T07:31:10Z</time>
      </trkpt>
      <trkpt lat="44.61292" lon="0.94721">
        <ele>231</ele>
        <time>2012-09-30T07:31:15Z</time>
      </trkpt>
      <trkpt lat="44.61321" lon="0.94743">
        <ele>231</ele>
        <time>2012-09-30T07:31:20Z</time>
      </trkpt>
      <trkpt lat="44.61355" lon="0.9477">
        <ele>231</ele>
        <time>2012-09-30T07:31:25Z</time>
      </trkpt>
      <trkpt lat="44.614" lon="0.94809">
        <ele>231</ele>
        <time>2012-09-30T07:31:30Z</time>
      </trkpt>
      <trkpt lat="44.61423" lon="0.94822">
        <ele>230</ele>
        <time>2012-09-30T07:31:35Z</time>
      </trkpt>
      <trkpt lat="44.61424" lon="0.94824">
        <ele>226</ele>
        <time>2012-09-30T07:31:44Z</time>
      </trkpt>
      <trkpt lat="44.61422" lon="0.94826">
        <ele>223</ele>
        <time>2012-09-30T07:31:53Z</time>
      </trkpt>
      <trkpt lat="44.61423" lon="0.94823">
        <ele>223</ele>
        <time>2012-09-30T07:32:00Z</time>
      </trkpt>
      <trkpt lat="44.61423" lon="0.94825">
        <ele>229</ele>
        <time>2012-09-30T07:32:09Z</time>
      </trkpt>
      <trkpt lat="44.61421" lon="0.94828">
        <ele>229</ele>
        <time>2012-09-30T07:32:17Z</time>
      </trkpt>
      <trkpt lat="44.61422" lon="0.94827">
        <ele>229</ele>
        <time>2012-09-30T07:32:22Z</time>
      </trkpt>
      <trkpt lat="44.61427" lon="0.94827">
        <ele>229</ele>
        <time>2012-09-30T07:32:27Z</time>
      </trkpt>
      <trkpt lat="44.61427" lon="0.94825">
        <ele>229</ele>
        <time>2012-09-30T07:32:33Z</time>
      </trkpt>
      <trkpt lat="44.6143" lon="0.94824">
        <ele>231</ele>
        <time>2012-09-30T07:32:44Z</time>
      </trkpt>
      <trkpt lat="44.61428" lon="0.94823">
        <ele>233</ele>
        <time>2012-09-30T07:32:56Z</time>
      </trkpt>
      <trkpt lat="44.61426" lon="0.94823">
        <ele>234</ele>
        <time>2012-09-30T07:33:02Z</time>
      </trkpt>
      <trkpt lat="44.61423" lon="0.94821">
        <ele>235</ele>
        <time>2012-09-30T07:33:07Z</time>
      </trkpt>
      <trkpt lat="44.61411" lon="0.94816">
        <ele>235</ele>
        <time>2012-09-30T07:33:12Z</time>
      </trkpt>
      <trkpt lat="44.61397" lon="0.94808">
        <ele>235</ele>
        <time>2012-09-30T07:33:17Z</time>
      </trkpt>
      <trkpt lat="44.61384" lon="0.94793">
        <ele>235</ele>
        <time>2012-09-30T07:33:22Z</time>
      </trkpt>
      <trkpt lat="44.6137" lon="0.9478">
        <ele>234</ele>
        <time>2012-09-30T07:33:27Z</time>
      </trkpt>
      <trkpt lat="44.61352" lon="0.94763">
        <ele>234</ele>
        <time>2012-09-30T07:33:32Z</time>
      </trkpt>
      <trkpt lat="44.61332" lon="0.94751">
        <ele>234</ele>
        <time>2012-09-30T07:33:37Z</time>
      </trkpt>
      <trkpt lat="44.61312" lon="0.94737">
        <ele>235</ele>
        <time>2012-09-30T07:33:42Z</time>
      </trkpt>
      <trkpt lat="44.61287" lon="0.94713">
        <ele>235</ele>
        <time>2012-09-30T07:33:47Z</time>
      </trkpt>
      <trkpt lat="44.61258" lon="0.94692">
        <ele>235</ele>
        <time>2012-09-30T07:33:52Z</time>
      </trkpt>
      <trkpt lat="44.61232" lon="0.94664">
        <ele>235</ele>
        <time>2012-09-30T07:33:57Z</time>
      </trkpt>
      <trkpt lat="44.61207" lon="0.94643">
        <ele>235</ele>
        <time>2012-09-30T07:34:02Z</time>
      </trkpt>
      <trkpt lat="44.61182" lon="0.94619">
        <ele>235</ele>
        <time>2012-09-30T07:34:07Z</time>
      </trkpt>
      <trkpt lat="44.61156" lon="0.94594">
        <ele>235</ele>
        <time>2012-09-30T07:34:12Z</time>
      </trkpt>
      <trkpt lat="44.61134" lon="0.94569">
        <ele>235</ele>
        <time>2012-09-30T07:34:17Z</time>
      </trkpt>
      <trkpt lat="44.6111" lon="0.9454">
        <ele>235</ele>
        <time>2012-09-30T07:34:22Z</time>
      </trkpt>
      <trkpt lat="44.61087" lon="0.9451">
        <ele>235</ele>
        <time>2012-09-30T07:34:27Z</time>
      </trkpt>
      <trkpt lat="44.61062" lon="0.94481">
        <ele>235</ele>
        <time>2012-09-30T07:34:32Z</time>
      </trkpt>
      <trkpt lat="44.61034" lon="0.94447">
        <ele>233</ele>
        <time>2012-09-30T07:34:37Z</time>
      </trkpt>
      <trkpt lat="44.61021" lon="0.94406">
        <ele>233</ele>
        <time>2012-09-30T07:34:42Z</time>
      </trkpt>
      <trkpt lat="44.6101" lon="0.94366">
        <ele>233</ele>
        <time>2012-09-30T07:34:47Z</time>
      </trkpt>
      <trkpt lat="44.60997" lon="0.94331">
        <ele>233</ele>
        <time>2012-09-30T07:34:52Z</time>
      </trkpt>
      <trkpt lat="44.60983" lon="0.94299">
        <ele>233</ele>
        <time>2012-09-30T07:34:57Z</time>
      </trkpt>
      <trkpt lat="44.60962" lon="0.94267">
        <ele>233</ele>
        <time>2012-09-30T07:35:02Z</time>
      </trkpt>
      <trkpt lat="44.60941" lon="0.94231">
        <ele>233</ele>
        <time>2012-09-30T07:35:07Z</time>
      </trkpt>
      <trkpt lat="44.60922" lon="0.94197">
        <ele>233</ele>
        <time>2012-09-30T07:35:12Z</time>
      </trkpt>
      <trkpt lat="44.60908" lon="0.94166">
        <ele>232</ele>
        <time>2012-09-30T07:35:17Z</time>
      </trkpt>
      <trkpt lat="44.60894" lon="0.94135">
        <ele>230</ele>
        <time>2012-09-30T07:35:22Z</time>
      </trkpt>
      <trkpt lat="44.60883" lon="0.94105">
        <ele>229</ele>
        <time>2012-09-30T07:35:27Z</time>
      </trkpt>
      <trkpt lat="44.60869" lon="0.94079">
        <ele>229</ele>
        <time>2012-09-30T07:35:32Z</time>
      </trkpt>
      <trkpt lat="44.60854" lon="0.94057">
        <ele>229</ele>
        <time>2012-09-30T07:35:37Z</time>
      </trkpt>
      <trkpt lat="44.60841" lon="0.94038">
        <ele>229</ele>
        <time>2012-09-30T07:35:42Z</time>
      </trkpt>
      <trkpt lat="44.60823" lon="0.94008">
        <ele>229</ele>
        <time>2012-09-30T07:35:47Z</time>
      </trkpt>
      <trkpt lat="44.60803" lon="0.93981">
        <ele>229</ele>
        <time>2012-09-30T07:35:52Z</time>
      </trkpt>
      <trkpt lat="44.60783" lon="0.93958">
        <ele>228</ele>
        <time>2012-09-30T07:35:57Z</time>
      </trkpt>
      <trkpt lat="44.60757" lon="0.93941">
        <ele>227</ele>
        <time>2012-09-30T07:36:02Z</time>
      </trkpt>
      <trkpt lat="44.60728" lon="0.93936">
        <ele>227</ele>
        <time>2012-09-30T07:36:07Z</time>
      </trkpt>
      <trkpt lat="44.60703" lon="0.93925">
        <ele>230</ele>
        <time>2012-09-30T07:36:12Z</time>
      </trkpt>
      <trkpt lat="44.60678" lon="0.93916">
        <ele>230</ele>
        <time>2012-09-30T07:36:17Z</time>
      </trkpt>
      <trkpt lat="44.60655" lon="0.93909">
        <ele>231</ele>
        <time>2012-09-30T07:36:22Z</time>
      </trkpt>
      <trkpt lat="44.60634" lon="0.93897">
        <ele>232</ele>
        <time>2012-09-30T07:36:27Z</time>
      </trkpt>
      <trkpt lat="44.60611" lon="0.93883">
        <ele>233</ele>
        <time>2012-09-30T07:36:32Z</time>
      </trkpt>
      <trkpt lat="44.60586" lon="0.93874">
        <ele>234</ele>
        <time>2012-09-30T07:36:37Z</time>
      </trkpt>
      <trkpt lat="44.60561" lon="0.93866">
        <ele>235</ele>
        <time>2012-09-30T07:36:42Z</time>
      </trkpt>
      <trkpt lat="44.60536" lon="0.93858">
        <ele>236</ele>
        <time>2012-09-30T07:36:47Z</time>
      </trkpt>
      <trkpt lat="44.60512" lon="0.93849">
        <ele>236</ele>
        <time>2012-09-30T07:36:52Z</time>
      </trkpt>
      <trkpt lat="44.60487" lon="0.93842">
        <ele>238</ele>
        <time>2012-09-30T07:36:57Z</time>
      </trkpt>
      <trkpt lat="44.60465" lon="0.93829">
        <ele>240</ele>
        <time>2012-09-30T07:37:02Z</time>
      </trkpt>
      <trkpt lat="44.60444" lon="0.93813">
        <ele>240</ele>
        <time>2012-09-30T07:37:07Z</time>
      </trkpt>
      <trkpt lat="44.60421" lon="0.93796">
        <ele>242</ele>
        <time>2012-09-30T07:37:12Z</time>
      </trkpt>
      <trkpt lat="44.604" lon="0.93779">
        <ele>245</ele>
        <time>2012-09-30T07:37:17Z</time>
      </trkpt>
      <trkpt lat="44.60377" lon="0.93761">
        <ele>246</ele>
        <time>2012-09-30T07:37:22Z</time>
      </trkpt>
      <trkpt lat="44.60352" lon="0.93743">
        <ele>246</ele>
        <time>2012-09-30T07:37:27Z</time>
      </trkpt>
      <trkpt lat="44.60329" lon="0.93726">
        <ele>246</ele>
        <time>2012-09-30T07:37:32Z</time>
      </trkpt>
      <trkpt lat="44.60306" lon="0.93712">
        <ele>246</ele>
        <time>2012-09-30T07:37:37Z</time>
      </trkpt>
      <trkpt lat="44.60284" lon="0.93697">
        <ele>246</ele>
        <time>2012-09-30T07:37:42Z</time>
      </trkpt>
      <trkpt lat="44.60267" lon="0.93686">
        <ele>247</ele>
        <time>2012-09-30T07:37:47Z</time>
      </trkpt>
      <trkpt lat="44.60251" lon="0.93676">
        <ele>249</ele>
        <time>2012-09-30T07:37:52Z</time>
      </trkpt>
      <trkpt lat="44.60235" lon="0.93666">
        <ele>250</ele>
        <time>2012-09-30T07:37:57Z</time>
      </trkpt>
      <trkpt lat="44.60223" lon="0.93661">
        <ele>250</ele>
        <time>2012-09-30T07:38:02Z</time>
      </trkpt>
      <trkpt lat="44.60216" lon="0.93651">
        <ele>250</ele>
        <time>2012-09-30T07:38:07Z</time>
      </trkpt>
      <trkpt lat="44.6021" lon="0.93646">
        <ele>250</ele>
        <time>2012-09-30T07:38:14Z</time>
      </trkpt>
      <trkpt lat="44.60207" lon="0.93643">
        <ele>250</ele>
        <time>2012-09-30T07:38:19Z</time>
      </trkpt>
      <trkpt lat="44.60208" lon="0.93639">
        <ele>247</ele>
        <time>2012-09-30T07:38:24Z</time>
      </trkpt>
      <trkpt lat="44.6021" lon="0.93634">
        <ele>244</ele>
        <time>2012-09-30T07:38:30Z</time>
      </trkpt>
      <trkpt lat="44.6021" lon="0.93636">
        <ele>239</ele>
        <time>2012-09-30T07:38:35Z</time>
      </trkpt>
      <trkpt lat="44.6021" lon="0.93638">
        <ele>237</ele>
        <time>2012-09-30T07:38:42Z</time>
      </trkpt>
      <trkpt lat="44.6021" lon="0.93635">
        <ele>236</ele>
        <time>2012-09-30T07:38:48Z</time>
      </trkpt>
      <trkpt lat="44.60211" lon="0.9363">
        <ele>236</ele>
        <time>2012-09-30T07:38:55Z</time>
      </trkpt>
      <trkpt lat="44.60216" lon="0.93622">
        <ele>236</ele>
        <time>2012-09-30T07:39:00Z</time>
      </trkpt>
      <trkpt lat="44.60225" lon="0.93614">
        <ele>238</ele>
        <time>2012-09-30T07:39:05Z</time>
      </trkpt>
      <trkpt lat="44.60238" lon="0.93606">
        <ele>239</ele>
        <time>2012-09-30T07:39:10Z</time>
      </trkpt>
      <trkpt lat="44.60251" lon="0.93588">
        <ele>239</ele>
        <time>2012-09-30T07:39:15Z</time>
      </trkpt>
      <trkpt lat="44.60265" lon="0.93569">
        <ele>239</ele>
        <time>2012-09-30T07:39:20Z</time>
      </trkpt>
      <trkpt lat="44.60279" lon="0.9355">
        <ele>239</ele>
        <time>2012-09-30T07:39:25Z</time>
      </trkpt>
      <trkpt lat="44.60287" lon="0.93528">
        <ele>241</ele>
        <time>2012-09-30T07:39:30Z</time>
      </trkpt>
      <trkpt lat="44.6029" lon="0.93504">
        <ele>246</ele>
        <time>2012-09-30T07:39:35Z</time>
      </trkpt>
      <trkpt lat="44.60294" lon="0.93465">
        <ele>247</ele>
        <time>2012-09-30T07:39:40Z</time>
      </trkpt>
      <trkpt lat="44.60307" lon="0.93409">
        <ele>247</ele>
        <time>2012-09-30T07:39:45Z</time>
      </trkpt>
      <trkpt lat="44.60318" lon="0.9337">
        <ele>247</ele>
        <time>2012-09-30T07:39:50Z</time>
      </trkpt>
      <trkpt lat="44.60323" lon="0.93337">
        <ele>247</ele>
        <time>2012-09-30T07:39:55Z</time>
      </trkpt>
      <trkpt lat="44.60332" lon="0.93301">
        <ele>247</ele>
        <time>2012-09-30T07:40:00Z</time>
      </trkpt>
      <trkpt lat="44.60337" lon="0.93269">
        <ele>247</ele>
        <time>2012-09-30T07:40:05Z</time>
      </trkpt>
      <trkpt lat="44.60339" lon="0.9323">
        <ele>247</ele>
        <time>2012-09-30T07:40:10Z</time>
      </trkpt>
      <trkpt lat="44.60326" lon="0.93183">
        <ele>247</ele>
        <time>2012-09-30T07:40:15Z</time>
      </trkpt>
      <trkpt lat="44.60309" lon="0.93141">
        <ele>247</ele>
        <time>2012-09-30T07:40:20Z</time>
      </trkpt>
      <trkpt lat="44.60287" lon="0.93106">
        <ele>244</ele>
        <time>2012-09-30T07:40:25Z</time>
      </trkpt>
      <trkpt lat="44.60276" lon="0.9307">
        <ele>244</ele>
        <time>2012-09-30T07:40:30Z</time>
      </trkpt>
      <trkpt lat="44.60279" lon="0.93028">
        <ele>244</ele>
        <time>2012-09-30T07:40:35Z</time>
      </trkpt>
      <trkpt lat="44.60281" lon="0.92983">
        <ele>244</ele>
        <time>2012-09-30T07:40:40Z</time>
      </trkpt>
      <trkpt lat="44.60276" lon="0.92928">
        <ele>241</ele>
        <time>2012-09-30T07:40:45Z</time>
      </trkpt>
      <trkpt lat="44.60269" lon="0.92875">
        <ele>238</ele>
        <time>2012-09-30T07:40:50Z</time>
      </trkpt>
      <trkpt lat="44.60265" lon="0.92822">
        <ele>237</ele>
        <time>2012-09-30T07:40:55Z</time>
      </trkpt>
      <trkpt lat="44.60259" lon="0.9279">
        <ele>236</ele>
        <time>2012-09-30T07:41:00Z</time>
      </trkpt>
      <trkpt lat="44.60258" lon="0.92779">
        <ele>236</ele>
        <time>2012-09-30T07:41:05Z</time>
      </trkpt>
      <trkpt lat="44.60252" lon="0.9277">
        <ele>236</ele>
        <time>2012-09-30T07:41:10Z</time>
      </trkpt>
      <trkpt lat="44.60245" lon="0.92758">
        <ele>236</ele>
        <time>2012-09-30T07:41:15Z</time>
      </trkpt>
      <trkpt lat="44.60256" lon="0.9275">
        <ele>236</ele>
        <time>2012-09-30T07:41:20Z</time>
      </trkpt>
      <trkpt lat="44.60269" lon="0.92739">
        <ele>236</ele>
        <time>2012-09-30T07:41:25Z</time>
      </trkpt>
      <trkpt lat="44.60283" lon="0.92728">
        <ele>236</ele>
        <time>2012-09-30T07:41:30Z</time>
      </trkpt>
      <trkpt lat="44.60298" lon="0.92716">
        <ele>236</ele>
        <time>2012-09-30T07:41:35Z</time>
      </trkpt>
      <trkpt lat="44.60316" lon="0.92709">
        <ele>236</ele>
        <time>2012-09-30T07:41:40Z</time>
      </trkpt>
      <trkpt lat="44.60336" lon="0.92707">
        <ele>236</ele>
        <time>2012-09-30T07:41:45Z</time>
      </trkpt>
      <trkpt lat="44.60357" lon="0.92708">
        <ele>236</ele>
        <time>2012-09-30T07:41:50Z</time>
      </trkpt>
      <trkpt lat="44.60378" lon="0.9271">
        <ele>236</ele>
        <time>2012-09-30T07:41:55Z</time>
      </trkpt>
      <trkpt lat="44.60398" lon="0.92709">
        <ele>236</ele>
        <time>2012-09-30T07:42:00Z</time>
      </trkpt>
      <trkpt lat="44.60425" lon="0.92703">
        <ele>236</ele>
        <time>2012-09-30T07:42:05Z</time>
      </trkpt>
      <trkpt lat="44.60457" lon="0.92694">
        <ele>236</ele>
        <time>2012-09-30T07:42:10Z</time>
      </trkpt>
      <trkpt lat="44.60488" lon="0.92674">
        <ele>236</ele>
        <time>2012-09-30T07:42:15Z</time>
      </trkpt>
      <trkpt lat="44.60519" lon="0.92649">
        <ele>235</ele>
        <time>2012-09-30T07:42:20Z</time>
      </trkpt>
      <trkpt lat="44.60544" lon="0.92625">
        <ele>233</ele>
        <time>2012-09-30T07:42:25Z</time>
      </trkpt>
      <trkpt lat="44.60572" lon="0.92635">
        <ele>230</ele>
        <time>2012-09-30T07:42:30Z</time>
      </trkpt>
      <trkpt lat="44.60604" lon="0.92654">
        <ele>225</ele>
        <time>2012-09-30T07:42:35Z</time>
      </trkpt>
      <trkpt lat="44.60645" lon="0.92663">
        <ele>224</ele>
        <time>2012-09-30T07:42:40Z</time>
      </trkpt>
      <trkpt lat="44.60683" lon="0.92682">
        <ele>224</ele>
        <time>2012-09-30T07:42:45Z</time>
      </trkpt>
      <trkpt lat="44.60723" lon="0.92697">
        <ele>223</ele>
        <time>2012-09-30T07:42:50Z</time>
      </trkpt>
      <trkpt lat="44.60751" lon="0.92703">
        <ele>221</ele>
        <time>2012-09-30T07:42:55Z</time>
      </trkpt>
      <trkpt lat="44.60754" lon="0.92694">
        <ele>221</ele>
        <time>2012-09-30T07:43:00Z</time>
      </trkpt>
      <trkpt lat="44.60763" lon="0.92681">
        <ele>221</ele>
        <time>2012-09-30T07:43:05Z</time>
      </trkpt>
      <trkpt lat="44.60777" lon="0.92662">
        <ele>221</ele>
        <time>2012-09-30T07:43:10Z</time>
      </trkpt>
      <trkpt lat="44.60804" lon="0.9262">
        <ele>221</ele>
        <time>2012-09-30T07:43:15Z</time>
      </trkpt>
      <trkpt lat="44.60842" lon="0.92582">
        <ele>218</ele>
        <time>2012-09-30T07:43:20Z</time>
      </trkpt>
      <trkpt lat="44.6088" lon="0.92544">
        <ele>213</ele>
        <time>2012-09-30T07:43:25Z</time>
      </trkpt>
      <trkpt lat="44.60919" lon="0.9251">
        <ele>208</ele>
        <time>2012-09-30T07:43:30Z</time>
      </trkpt>
      <trkpt lat="44.60961" lon="0.92481">
        <ele>203</ele>
        <time>2012-09-30T07:43:35Z</time>
      </trkpt>
      <trkpt lat="44.61002" lon="0.92441">
        <ele>200</ele>
        <time>2012-09-30T07:43:40Z</time>
      </trkpt>
      <trkpt lat="44.61036" lon="0.92397">
        <ele>199</ele>
        <time>2012-09-30T07:43:45Z</time>
      </trkpt>
      <trkpt lat="44.61079" lon="0.9237">
        <ele>199</ele>
        <time>2012-09-30T07:43:50Z</time>
      </trkpt>
      <trkpt lat="44.6111" lon="0.9237">
        <ele>197</ele>
        <time>2012-09-30T07:43:55Z</time>
      </trkpt>
      <trkpt lat="44.61137" lon="0.92378">
        <ele>192</ele>
        <time>2012-09-30T07:44:00Z</time>
      </trkpt>
      <trkpt lat="44.61153" lon="0.92393">
        <ele>187</ele>
        <time>2012-09-30T07:44:05Z</time>
      </trkpt>
      <trkpt lat="44.61173" lon="0.9241">
        <ele>182</ele>
        <time>2012-09-30T07:44:10Z</time>
      </trkpt>
      <trkpt lat="44.61201" lon="0.92396">
        <ele>177</ele>
        <time>2012-09-30T07:44:15Z</time>
      </trkpt>
      <trkpt lat="44.61228" lon="0.92377">
        <ele>174</ele>
        <time>2012-09-30T07:44:20Z</time>
      </trkpt>
      <trkpt lat="44.61237" lon="0.92375">
        <ele>174</ele>
        <time>2012-09-30T07:44:32Z</time>
      </trkpt>
      <trkpt lat="44.61237" lon="0.92374">
        <ele>174</ele>
        <time>2012-09-30T07:44:42Z</time>
      </trkpt>
      <trkpt lat="44.61238" lon="0.92372">
        <ele>174</ele>
        <time>2012-09-30T07:44:52Z</time>
      </trkpt>
      <trkpt lat="44.61237" lon="0.92371">
        <ele>173</ele>
        <time>2012-09-30T07:45:08Z</time>
      </trkpt>
      <trkpt lat="44.61236" lon="0.92369">
        <ele>170</ele>
        <time>2012-09-30T07:45:15Z</time>
      </trkpt>
      <trkpt lat="44.61236" lon="0.92367">
        <ele>167</ele>
        <time>2012-09-30T07:45:26Z</time>
      </trkpt>
      <trkpt lat="44.61237" lon="0.92367">
        <ele>166</ele>
        <time>2012-09-30T07:45:36Z</time>
      </trkpt>
      <trkpt lat="44.61239" lon="0.92366">
        <ele>166</ele>
        <time>2012-09-30T07:45:46Z</time>
      </trkpt>
      <trkpt lat="44.61236" lon="0.92355">
        <ele>166</ele>
        <time>2012-09-30T07:45:51Z</time>
      </trkpt>
      <trkpt lat="44.61229" lon="0.92338">
        <ele>166</ele>
        <time>2012-09-30T07:45:56Z</time>
      </trkpt>
      <trkpt lat="44.61221" lon="0.92318">
        <ele>169</ele>
        <time>2012-09-30T07:46:01Z</time>
      </trkpt>
      <trkpt lat="44.61213" lon="0.92295">
        <ele>172</ele>
        <time>2012-09-30T07:46:06Z</time>
      </trkpt>
      <trkpt lat="44.612" lon="0.92269">
        <ele>172</ele>
        <time>2012-09-30T07:46:11Z</time>
      </trkpt>
      <trkpt lat="44.61187" lon="0.92242">
        <ele>172</ele>
        <time>2012-09-30T07:46:16Z</time>
      </trkpt>
      <trkpt lat="44.61174" lon="0.92212">
        <ele>172</ele>
        <time>2012-09-30T07:46:21Z</time>
      </trkpt>
      <trkpt lat="44.61169" lon="0.92177">
        <ele>172</ele>
        <time>2012-09-30T07:46:26Z</time>
      </trkpt>
      <trkpt lat="44.61179" lon="0.92139">
        <ele>173</ele>
        <time>2012-09-30T07:46:31Z</time>
      </trkpt>
      <trkpt lat="44.61197" lon="0.92106">
        <ele>174</ele>
        <time>2012-09-30T07:46:36Z</time>
      </trkpt>
      <trkpt lat="44.61218" lon="0.92076">
        <ele>174</ele>
        <time>2012-09-30T07:46:41Z</time>
      </trkpt>
      <trkpt lat="44.61237" lon="0.92047">
        <ele>174</ele>
        <time>2012-09-30T07:46:46Z</time>
      </trkpt>
      <trkpt lat="44.61255" lon="0.92009">
        <ele>174</ele>
        <time>2012-09-30T07:46:51Z</time>
      </trkpt>
      <trkpt lat="44.61274" lon="0.91969">
        <ele>170</ele>
        <time>2012-09-30T07:46:56Z</time>
      </trkpt>
      <trkpt lat="44.6129" lon="0.91925">
        <ele>168</ele>
        <time>2012-09-30T07:47:01Z</time>
      </trkpt>
      <trkpt lat="44.61292" lon="0.91879">
        <ele>167</ele>
        <time>2012-09-30T07:47:06Z</time>
      </trkpt>
      <trkpt lat="44.61288" lon="0.91834">
        <ele>166</ele>
        <time>2012-09-30T07:47:11Z</time>
      </trkpt>
      <trkpt lat="44.61283" lon="0.91783">
        <ele>164</ele>
        <time>2012-09-30T07:47:16Z</time>
      </trkpt>
      <trkpt lat="44.61279" lon="0.91731">
        <ele>163</ele>
        <time>2012-09-30T07:47:21Z</time>
      </trkpt>
      <trkpt lat="44.61277" lon="0.9168">
        <ele>162</ele>
        <time>2012-09-30T07:47:26Z</time>
      </trkpt>
      <trkpt lat="44.61274" lon="0.91629">
        <ele>160</ele>
        <time>2012-09-30T07:47:31Z</time>
      </trkpt>
      <trkpt lat="44.61263" lon="0.91579">
        <ele>158</ele>
        <time>2012-09-30T07:47:36Z</time>
      </trkpt>
      <trkpt lat="44.61246" lon="0.91534">
        <ele>157</ele>
        <time>2012-09-30T07:47:41Z</time>
      </trkpt>
      <trkpt lat="44.61225" lon="0.91491">
        <ele>157</ele>
        <time>2012-09-30T07:47:46Z</time>
      </trkpt>
      <trkpt lat="44.61203" lon="0.91446">
        <ele>157</ele>
        <time>2012-09-30T07:47:51Z</time>
      </trkpt>
      <trkpt lat="44.61183" lon="0.914">
        <ele>157</ele>
        <time>2012-09-30T07:47:56Z</time>
      </trkpt>
      <trkpt lat="44.61163" lon="0.91356">
        <ele>154</ele>
        <time>2012-09-30T07:48:01Z</time>
      </trkpt>
      <trkpt lat="44.61135" lon="0.91327">
        <ele>154</ele>
        <time>2012-09-30T07:48:06Z</time>
      </trkpt>
      <trkpt lat="44.61109" lon="0.91293">
        <ele>154</ele>
        <time>2012-09-30T07:48:11Z</time>
      </trkpt>
      <trkpt lat="44.6109" lon="0.91251">
        <ele>154</ele>
        <time>2012-09-30T07:48:16Z</time>
      </trkpt>
      <trkpt lat="44.61074" lon="0.91213">
        <ele>153</ele>
        <time>2012-09-30T07:48:21Z</time>
      </trkpt>
      <trkpt lat="44.61077" lon="0.91193">
        <ele>153</ele>
        <time>2012-09-30T07:48:26Z</time>
      </trkpt>
      <trkpt lat="44.61087" lon="0.91171">
        <ele>153</ele>
        <time>2012-09-30T07:48:31Z</time>
      </trkpt>
      <trkpt lat="44.611" lon="0.91152">
        <ele>154</ele>
        <time>2012-09-30T07:48:36Z</time>
      </trkpt>
      <trkpt lat="44.61116" lon="0.91135">
        <ele>158</ele>
        <time>2012-09-30T07:48:41Z</time>
      </trkpt>
      <trkpt lat="44.61137" lon="0.91122">
        <ele>160</ele>
        <time>2012-09-30T07:48:46Z</time>
      </trkpt>
      <trkpt lat="44.61156" lon="0.91116">
        <ele>163</ele>
        <time>2012-09-30T07:48:51Z</time>
      </trkpt>
      <trkpt lat="44.61175" lon="0.91116">
        <ele>165</ele>
        <time>2012-09-30T07:48:56Z</time>
      </trkpt>
      <trkpt lat="44.61192" lon="0.91118">
        <ele>167</ele>
        <time>2012-09-30T07:49:01Z</time>
      </trkpt>
      <trkpt lat="44.61211" lon="0.91118">
        <ele>169</ele>
        <time>2012-09-30T07:49:06Z</time>
      </trkpt>
      <trkpt lat="44.61225" lon="0.91117">
        <ele>169</ele>
        <time>2012-09-30T07:49:11Z</time>
      </trkpt>
      <trkpt lat="44.61249" lon="0.9111">
        <ele>171</ele>
        <time>2012-09-30T07:49:16Z</time>
      </trkpt>
      <trkpt lat="44.61271" lon="0.91106">
        <ele>171</ele>
        <time>2012-09-30T07:49:21Z</time>
      </trkpt>
      <trkpt lat="44.61294" lon="0.9111">
        <ele>171</ele>
        <time>2012-09-30T07:49:26Z</time>
      </trkpt>
      <trkpt lat="44.6131" lon="0.9112">
        <ele>171</ele>
        <time>2012-09-30T07:49:31Z</time>
      </trkpt>
      <trkpt lat="44.61332" lon="0.91119">
        <ele>171</ele>
        <time>2012-09-30T07:49:36Z</time>
      </trkpt>
      <trkpt lat="44.61353" lon="0.91118">
        <ele>171</ele>
        <time>2012-09-30T07:49:41Z</time>
      </trkpt>
      <trkpt lat="44.61379" lon="0.91114">
        <ele>171</ele>
        <time>2012-09-30T07:49:46Z</time>
      </trkpt>
      <trkpt lat="44.61396" lon="0.91112">
        <ele>176</ele>
        <time>2012-09-30T07:49:51Z</time>
      </trkpt>
      <trkpt lat="44.61414" lon="0.9111">
        <ele>178</ele>
        <time>2012-09-30T07:49:56Z</time>
      </trkpt>
      <trkpt lat="44.61426" lon="0.91097">
        <ele>178</ele>
        <time>2012-09-30T07:50:01Z</time>
      </trkpt>
      <trkpt lat="44.6143" lon="0.91081">
        <ele>179</ele>
        <time>2012-09-30T07:50:06Z</time>
      </trkpt>
      <trkpt lat="44.61425" lon="0.91058">
        <ele>179</ele>
        <time>2012-09-30T07:50:11Z</time>
      </trkpt>
      <trkpt lat="44.61421" lon="0.91039">
        <ele>179</ele>
        <time>2012-09-30T07:50:16Z</time>
      </trkpt>
      <trkpt lat="44.61417" lon="0.9102">
        <ele>180</ele>
        <time>2012-09-30T07:50:21Z</time>
      </trkpt>
      <trkpt lat="44.61416" lon="0.90995">
        <ele>180</ele>
        <time>2012-09-30T07:50:26Z</time>
      </trkpt>
      <trkpt lat="44.61418" lon="0.90973">
        <ele>183</ele>
        <time>2012-09-30T07:50:31Z</time>
      </trkpt>
      <trkpt lat="44.61414" lon="0.90949">
        <ele>184</ele>
        <time>2012-09-30T07:50:36Z</time>
      </trkpt>
      <trkpt lat="44.61415" lon="0.90928">
        <ele>186</ele>
        <time>2012-09-30T07:50:41Z</time>
      </trkpt>
      <trkpt lat="44.61417" lon="0.90909">
        <ele>188</ele>
        <time>2012-09-30T07:50:46Z</time>
      </trkpt>
      <trkpt lat="44.61419" lon="0.90884">
        <ele>188</ele>
        <time>2012-09-30T07:50:51Z</time>
      </trkpt>
      <trkpt lat="44.61415" lon="0.90862">
        <ele>186</ele>
        <time>2012-09-30T07:50:56Z</time>
      </trkpt>
      <trkpt lat="44.61413" lon="0.90842">
        <ele>186</ele>
        <time>2012-09-30T07:51:01Z</time>
      </trkpt>
      <trkpt lat="44.61412" lon="0.90822">
        <ele>186</ele>
        <time>2012-09-30T07:51:06Z</time>
      </trkpt>
      <trkpt lat="44.61416" lon="0.90804">
        <ele>186</ele>
        <time>2012-09-30T07:51:11Z</time>
      </trkpt>
      <trkpt lat="44.61417" lon="0.90787">
        <ele>188</ele>
        <time>2012-09-30T07:51:16Z</time>
      </trkpt>
      <trkpt lat="44.61418" lon="0.90768">
        <ele>188</ele>
        <time>2012-09-30T07:51:21Z</time>
      </trkpt>
      <trkpt lat="44.6142" lon="0.90745">
        <ele>188</ele>
        <time>2012-09-30T07:51:26Z</time>
      </trkpt>
      <trkpt lat="44.6142" lon="0.90721">
        <ele>188</ele>
        <time>2012-09-30T07:51:31Z</time>
      </trkpt>
      <trkpt lat="44.6142" lon="0.90703">
        <ele>192</ele>
        <time>2012-09-30T07:51:36Z</time>
      </trkpt>
      <trkpt lat="44.61417" lon="0.90684">
        <ele>197</ele>
        <time>2012-09-30T07:51:41Z</time>
      </trkpt>
      <trkpt lat="44.61413" lon="0.90666">
        <ele>197</ele>
        <time>2012-09-30T07:51:46Z</time>
      </trkpt>
      <trkpt lat="44.61406" lon="0.90649">
        <ele>197</ele>
        <time>2012-09-30T07:51:51Z</time>
      </trkpt>
      <trkpt lat="44.61399" lon="0.90634">
        <ele>197</ele>
        <time>2012-09-30T07:51:56Z</time>
      </trkpt>
      <trkpt lat="44.61397" lon="0.90619">
        <ele>197</ele>
        <time>2012-09-30T07:52:01Z</time>
      </trkpt>
      <trkpt lat="44.61392" lon="0.90608">
        <ele>197</ele>
        <time>2012-09-30T07:52:06Z</time>
      </trkpt>
      <trkpt lat="44.61388" lon="0.90596">
        <ele>197</ele>
        <time>2012-09-30T07:52:11Z</time>
      </trkpt>
      <trkpt lat="44.61385" lon="0.90583">
        <ele>198</ele>
        <time>2012-09-30T07:52:16Z</time>
      </trkpt>
      <trkpt lat="44.61379" lon="0.9057">
        <ele>198</ele>
        <time>2012-09-30T07:52:21Z</time>
      </trkpt>
      <trkpt lat="44.61374" lon="0.90558">
        <ele>198</ele>
        <time>2012-09-30T07:52:26Z</time>
      </trkpt>
      <trkpt lat="44.61372" lon="0.90544">
        <ele>199</ele>
        <time>2012-09-30T07:52:31Z</time>
      </trkpt>
      <trkpt lat="44.61372" lon="0.90533">
        <ele>203</ele>
        <time>2012-09-30T07:52:36Z</time>
      </trkpt>
      <trkpt lat="44.61374" lon="0.90522">
        <ele>206</ele>
        <time>2012-09-30T07:52:41Z</time>
      </trkpt>
      <trkpt lat="44.61378" lon="0.90509">
        <ele>207</ele>
        <time>2012-09-30T07:52:46Z</time>
      </trkpt>
      <trkpt lat="44.61377" lon="0.90505">
        <ele>207</ele>
        <time>2012-09-30T07:52:53Z</time>
      </trkpt>
      <trkpt lat="44.6138" lon="0.90501">
        <ele>207</ele>
        <time>2012-09-30T07:52:58Z</time>
      </trkpt>
      <trkpt lat="44.61385" lon="0.90496">
        <ele>208</ele>
        <time>2012-09-30T07:53:03Z</time>
      </trkpt>
      <trkpt lat="44.61386" lon="0.90493">
        <ele>209</ele>
        <time>2012-09-30T07:53:08Z</time>
      </trkpt>
      <trkpt lat="44.61386" lon="0.90495">
        <ele>210</ele>
        <time>2012-09-30T07:53:15Z</time>
      </trkpt>
      <trkpt lat="44.61385" lon="0.90496">
        <ele>210</ele>
        <time>2012-09-30T07:53:20Z</time>
      </trkpt>
      <trkpt lat="44.61386" lon="0.90498">
        <ele>210</ele>
        <time>2012-09-30T07:53:41Z</time>
      </trkpt>
      <trkpt lat="44.61389" lon="0.90498">
        <ele>210</ele>
        <time>2012-09-30T07:53:54Z</time>
      </trkpt>
      <trkpt lat="44.61386" lon="0.905">
        <ele>210</ele>
        <time>2012-09-30T07:54:03Z</time>
      </trkpt>
      <trkpt lat="44.61384" lon="0.90501">
        <ele>210</ele>
        <time>2012-09-30T07:54:10Z</time>
      </trkpt>
      <trkpt lat="44.61382" lon="0.90502">
        <ele>210</ele>
        <time>2012-09-30T07:54:19Z</time>
      </trkpt>
      <trkpt lat="44.61381" lon="0.90501">
        <ele>213</ele>
        <time>2012-09-30T07:54:31Z</time>
      </trkpt>
      <trkpt lat="44.61381" lon="0.90503">
        <ele>213</ele>
        <time>2012-09-30T07:54:40Z</time>
      </trkpt>
      <trkpt lat="44.61382" lon="0.90504">
        <ele>215</ele>
        <time>2012-09-30T07:54:53Z</time>
      </trkpt>
      <trkpt lat="44.61381" lon="0.90504">
        <ele>215</ele>
        <time>2012-09-30T07:54:58Z</time>
      </trkpt>
      <trkpt lat="44.6138" lon="0.90503">
        <ele>215</ele>
        <time>2012-09-30T07:55:05Z</time>
      </trkpt>
      <trkpt lat="44.61379" lon="0.90502">
        <ele>215</ele>
        <time>2012-09-30T07:55:15Z</time>
      </trkpt>
      <trkpt lat="44.61379" lon="0.90503">
        <ele>215</ele>
        <time>2012-09-30T07:55:29Z</time>
      </trkpt>
      <trkpt lat="44.6138" lon="0.90501">
        <ele>215</ele>
        <time>2012-09-30T07:55:35Z</time>
      </trkpt>
      <trkpt lat="44.61384" lon="0.90491">
        <ele>215</ele>
        <time>2012-09-30T07:55:40Z</time>
      </trkpt>
      <trkpt lat="44.61385" lon="0.90469">
        <ele>215</ele>
        <time>2012-09-30T07:55:45Z</time>
      </trkpt>
      <trkpt lat="44.61386" lon="0.90437">
        <ele>215</ele>
        <time>2012-09-30T07:55:50Z</time>
      </trkpt>
      <trkpt lat="44.61395" lon="0.90402">
        <ele>215</ele>
        <time>2012-09-30T07:55:55Z</time>
      </trkpt>
      <trkpt lat="44.61417" lon="0.90377">
        <ele>214</ele>
        <time>2012-09-30T07:56:00Z</time>
      </trkpt>
      <trkpt lat="44.61441" lon="0.90358">
        <ele>214</ele>
        <time>2012-09-30T07:56:05Z</time>
      </trkpt>
      <trkpt lat="44.61464" lon="0.90338">
        <ele>214</ele>
        <time>2012-09-30T07:56:11Z</time>
      </trkpt>
      <trkpt lat="44.61487" lon="0.90327">
        <ele>214</ele>
        <time>2012-09-30T07:56:16Z</time>
      </trkpt>
      <trkpt lat="44.61508" lon="0.90326">
        <ele>214</ele>
        <time>2012-09-30T07:56:21Z</time>
      </trkpt>
      <trkpt lat="44.61533" lon="0.90325">
        <ele>214</ele>
        <time>2012-09-30T07:56:27Z</time>
      </trkpt>
      <trkpt lat="44.61546" lon="0.90323">
        <ele>214</ele>
        <time>2012-09-30T07:56:32Z</time>
      </trkpt>
      <trkpt lat="44.61536" lon="0.90288">
        <ele>214</ele>
        <time>2012-09-30T07:56:37Z</time>
      </trkpt>
      <trkpt lat="44.61518" lon="0.90242">
        <ele>211</ele>
        <time>2012-09-30T07:56:42Z</time>
      </trkpt>
      <trkpt lat="44.61494" lon="0.90195">
        <ele>207</ele>
        <time>2012-09-30T07:56:47Z</time>
      </trkpt>
      <trkpt lat="44.61468" lon="0.90156">
        <ele>204</ele>
        <time>2012-09-30T07:56:52Z</time>
      </trkpt>
      <trkpt lat="44.61441" lon="0.90122">
        <ele>201</ele>
        <time>2012-09-30T07:56:57Z</time>
      </trkpt>
      <trkpt lat="44.61412" lon="0.90086">
        <ele>196</ele>
        <time>2012-09-30T07:57:03Z</time>
      </trkpt>
      <trkpt lat="44.61414" lon="0.90071">
        <ele>195</ele>
        <time>2012-09-30T07:57:08Z</time>
      </trkpt>
      <trkpt lat="44.61431" lon="0.9007">
        <ele>195</ele>
        <time>2012-09-30T07:57:13Z</time>
      </trkpt>
      <trkpt lat="44.61456" lon="0.90072">
        <ele>196</ele>
        <time>2012-09-30T07:57:18Z</time>
      </trkpt>
      <trkpt lat="44.61483" lon="0.90071">
        <ele>199</ele>
        <time>2012-09-30T07:57:24Z</time>
      </trkpt>
      <trkpt lat="44.61501" lon="0.90071">
        <ele>204</ele>
        <time>2012-09-30T07:57:29Z</time>
      </trkpt>
      <trkpt lat="44.61526" lon="0.90065">
        <ele>206</ele>
        <time>2012-09-30T07:57:34Z</time>
      </trkpt>
      <trkpt lat="44.61557" lon="0.90059">
        <ele>206</ele>
        <time>2012-09-30T07:57:39Z</time>
      </trkpt>
      <trkpt lat="44.6159" lon="0.90054">
        <ele>206</ele>
        <time>2012-09-30T07:57:44Z</time>
      </trkpt>
      <trkpt lat="44.61631" lon="0.90049">
        <ele>204</ele>
        <time>2012-09-30T07:57:50Z</time>
      </trkpt>
      <trkpt lat="44.6166" lon="0.90044">
        <ele>201</ele>
        <time>2012-09-30T07:57:55Z</time>
      </trkpt>
      <trkpt lat="44.61697" lon="0.90035">
        <ele>198</ele>
        <time>2012-09-30T07:58:01Z</time>
      </trkpt>
      <trkpt lat="44.61734" lon="0.90024">
        <ele>195</ele>
        <time>2012-09-30T07:58:06Z</time>
      </trkpt>
      <trkpt lat="44.61737" lon="0.90004">
        <ele>191</ele>
        <time>2012-09-30T07:58:12Z</time>
      </trkpt>
      <trkpt lat="44.61719" lon="0.89972">
        <ele>186</ele>
        <time>2012-09-30T07:58:17Z</time>
      </trkpt>
      <trkpt lat="44.61702" lon="0.89936">
        <ele>183</ele>
        <time>2012-09-30T07:58:22Z</time>
      </trkpt>
      <trkpt lat="44.61682" lon="0.8989">
        <ele>183</ele>
        <time>2012-09-30T07:58:28Z</time>
      </trkpt>
      <trkpt lat="44.6167" lon="0.89855">
        <ele>183</ele>
        <time>2012-09-30T07:58:33Z</time>
      </trkpt>
      <trkpt lat="44.61653" lon="0.89817">
        <ele>183</ele>
        <time>2012-09-30T07:58:38Z</time>
      </trkpt>
      <trkpt lat="44.61628" lon="0.89772">
        <ele>183</ele>
        <time>2012-09-30T07:58:43Z</time>
      </trkpt>
      <trkpt lat="44.61605" lon="0.89712">
        <ele>183</ele>
        <time>2012-09-30T07:58:48Z</time>
      </trkpt>
      <trkpt lat="44.6159" lon="0.89647">
        <ele>183</ele>
        <time>2012-09-30T07:58:53Z</time>
      </trkpt>
      <trkpt lat="44.61595" lon="0.89561">
        <ele>185</ele>
        <time>2012-09-30T07:58:59Z</time>
      </trkpt>
      <trkpt lat="44.61609" lon="0.89494">
        <ele>185</ele>
        <time>2012-09-30T07:59:04Z</time>
      </trkpt>
      <trkpt lat="44.6161" lon="0.89421">
        <ele>185</ele>
        <time>2012-09-30T07:59:09Z</time>
      </trkpt>
      <trkpt lat="44.61598" lon="0.89347">
        <ele>184</ele>
        <time>2012-09-30T07:59:14Z</time>
      </trkpt>
      <trkpt lat="44.61578" lon="0.89287">
        <ele>181</ele>
        <time>2012-09-30T07:59:19Z</time>
      </trkpt>
      <trkpt lat="44.61566" lon="0.89237">
        <ele>180</ele>
        <time>2012-09-30T07:59:24Z</time>
      </trkpt>
      <trkpt lat="44.6156" lon="0.89192">
        <ele>180</ele>
        <time>2012-09-30T07:59:29Z</time>
      </trkpt>
      <trkpt lat="44.61552" lon="0.89144">
        <ele>177</ele>
        <time>2012-09-30T07:59:34Z</time>
      </trkpt>
      <trkpt lat="44.61543" lon="0.891">
        <ele>177</ele>
        <time>2012-09-30T07:59:39Z</time>
      </trkpt>
      <trkpt lat="44.61533" lon="0.89059">
        <ele>177</ele>
        <time>2012-09-30T07:59:44Z</time>
      </trkpt>
      <trkpt lat="44.6152" lon="0.89025">
        <ele>177</ele>
        <time>2012-09-30T07:59:49Z</time>
      </trkpt>
      <trkpt lat="44.61502" lon="0.88998">
        <ele>176</ele>
        <time>2012-09-30T07:59:54Z</time>
      </trkpt>
      <trkpt lat="44.6148" lon="0.88979">
        <ele>176</ele>
        <time>2012-09-30T07:59:59Z</time>
      </trkpt>
      <trkpt lat="44.61456" lon="0.88955">
        <ele>176</ele>
        <time>2012-09-30T08:00:04Z</time>
      </trkpt>
      <trkpt lat="44.61427" lon="0.88936">
        <ele>176</ele>
        <time>2012-09-30T08:00:09Z</time>
      </trkpt>
      <trkpt lat="44.61398" lon="0.88915">
        <ele>176</ele>
        <time>2012-09-30T08:00:14Z</time>
      </trkpt>
      <trkpt lat="44.61371" lon="0.88885">
        <ele>176</ele>
        <time>2012-09-30T08:00:19Z</time>
      </trkpt>
      <trkpt lat="44.61341" lon="0.8885">
        <ele>176</ele>
        <time>2012-09-30T08:00:24Z</time>
      </trkpt>
      <trkpt lat="44.61305" lon="0.88821">
        <ele>171</ele>
        <time>2012-09-30T08:00:29Z</time>
      </trkpt>
      <trkpt lat="44.6127" lon="0.88797">
        <ele>168</ele>
        <time>2012-09-30T08:00:34Z</time>
      </trkpt>
      <trkpt lat="44.61245" lon="0.88777">
        <ele>168</ele>
        <time>2012-09-30T08:00:39Z</time>
      </trkpt>
      <trkpt lat="44.61224" lon="0.88757">
        <ele>168</ele>
        <time>2012-09-30T08:00:44Z</time>
      </trkpt>
      <trkpt lat="44.61206" lon="0.88736">
        <ele>169</ele>
        <time>2012-09-30T08:00:49Z</time>
      </trkpt>
      <trkpt lat="44.61188" lon="0.88717">
        <ele>172</ele>
        <time>2012-09-30T08:00:54Z</time>
      </trkpt>
      <trkpt lat="44.61169" lon="0.88697">
        <ele>177</ele>
        <time>2012-09-30T08:00:59Z</time>
      </trkpt>
      <trkpt lat="44.61153" lon="0.88682">
        <ele>177</ele>
        <time>2012-09-30T08:01:04Z</time>
      </trkpt>
      <trkpt lat="44.61145" lon="0.88672">
        <ele>177</ele>
        <time>2012-09-30T08:01:09Z</time>
      </trkpt>
      <trkpt lat="44.61152" lon="0.88658">
        <ele>178</ele>
        <time>2012-09-30T08:01:14Z</time>
      </trkpt>
      <trkpt lat="44.6116" lon="0.88649">
        <ele>178</ele>
        <time>2012-09-30T08:01:19Z</time>
      </trkpt>
      <trkpt lat="44.61175" lon="0.88635">
        <ele>178</ele>
        <time>2012-09-30T08:01:24Z</time>
      </trkpt>
      <trkpt lat="44.61196" lon="0.88616">
        <ele>179</ele>
        <time>2012-09-30T08:01:29Z</time>
      </trkpt>
      <trkpt lat="44.6121" lon="0.88606">
        <ele>181</ele>
        <time>2012-09-30T08:01:34Z</time>
      </trkpt>
      <trkpt lat="44.61221" lon="0.88597">
        <ele>184</ele>
        <time>2012-09-30T08:01:39Z</time>
      </trkpt>
      <trkpt lat="44.61239" lon="0.88587">
        <ele>186</ele>
        <time>2012-09-30T08:01:44Z</time>
      </trkpt>
      <trkpt lat="44.61259" lon="0.88578">
        <ele>191</ele>
        <time>2012-09-30T08:01:49Z</time>
      </trkpt>
      <trkpt lat="44.61274" lon="0.88564">
        <ele>194</ele>
        <time>2012-09-30T08:01:54Z</time>
      </trkpt>
      <trkpt lat="44.6129" lon="0.88551">
        <ele>194</ele>
        <time>2012-09-30T08:01:59Z</time>
      </trkpt>
      <trkpt lat="44.61307" lon="0.88535">
        <ele>194</ele>
        <time>2012-09-30T08:02:04Z</time>
      </trkpt>
      <trkpt lat="44.61322" lon="0.88525">
        <ele>194</ele>
        <time>2012-09-30T08:02:09Z</time>
      </trkpt>
      <trkpt lat="44.61339" lon="0.88512">
        <ele>193</ele>
        <time>2012-09-30T08:02:14Z</time>
      </trkpt>
      <trkpt lat="44.61358" lon="0.88498">
        <ele>193</ele>
        <time>2012-09-30T08:02:19Z</time>
      </trkpt>
      <trkpt lat="44.61375" lon="0.88489">
        <ele>193</ele>
        <time>2012-09-30T08:02:24Z</time>
      </trkpt>
      <trkpt lat="44.61395" lon="0.88483">
        <ele>193</ele>
        <time>2012-09-30T08:02:29Z</time>
      </trkpt>
      <trkpt lat="44.61413" lon="0.88481">
        <ele>193</ele>
        <time>2012-09-30T08:02:34Z</time>
      </trkpt>
      <trkpt lat="44.61432" lon="0.88479">
        <ele>193</ele>
        <time>2012-09-30T08:02:39Z</time>
      </trkpt>
      <trkpt lat="44.61449" lon="0.8848">
        <ele>193</ele>
        <time>2012-09-30T08:02:44Z</time>
      </trkpt>
      <trkpt lat="44.61459" lon="0.88479">
        <ele>193</ele>
        <time>2012-09-30T08:02:49Z</time>
      </trkpt>
      <trkpt lat="44.61472" lon="0.88473">
        <ele>194</ele>
        <time>2012-09-30T08:02:54Z</time>
      </trkpt>
      <trkpt lat="44.61486" lon="0.88466">
        <ele>194</ele>
        <time>2012-09-30T08:02:59Z</time>
      </trkpt>
      <trkpt lat="44.61494" lon="0.88465">
        <ele>195</ele>
        <time>2012-09-30T08:03:04Z</time>
      </trkpt>
      <trkpt lat="44.61502" lon="0.88465">
        <ele>196</ele>
        <time>2012-09-30T08:03:09Z</time>
      </trkpt>
      <trkpt lat="44.61512" lon="0.88465">
        <ele>196</ele>
        <time>2012-09-30T08:03:14Z</time>
      </trkpt>
      <trkpt lat="44.61528" lon="0.88461">
        <ele>197</ele>
        <time>2012-09-30T08:03:19Z</time>
      </trkpt>
      <trkpt lat="44.61546" lon="0.88455">
        <ele>198</ele>
        <time>2012-09-30T08:03:24Z</time>
      </trkpt>
      <trkpt lat="44.6156" lon="0.88456">
        <ele>199</ele>
        <time>2012-09-30T08:03:29Z</time>
      </trkpt>
      <trkpt lat="44.61579" lon="0.88454">
        <ele>199</ele>
        <time>2012-09-30T08:03:34Z</time>
      </trkpt>
      <trkpt lat="44.616" lon="0.88449">
        <ele>199</ele>
        <time>2012-09-30T08:03:39Z</time>
      </trkpt>
      <trkpt lat="44.61623" lon="0.88445">
        <ele>199</ele>
        <time>2012-09-30T08:03:44Z</time>
      </trkpt>
      <trkpt lat="44.61644" lon="0.88443">
        <ele>199</ele>
        <time>2012-09-30T08:03:49Z</time>
      </trkpt>
      <trkpt lat="44.61659" lon="0.88444">
        <ele>199</ele>
        <time>2012-09-30T08:03:54Z</time>
      </trkpt>
      <trkpt lat="44.61674" lon="0.88451">
        <ele>199</ele>
        <time>2012-09-30T08:03:59Z</time>
      </trkpt>
      <trkpt lat="44.61689" lon="0.88463">
        <ele>199</ele>
        <time>2012-09-30T08:04:04Z</time>
      </trkpt>
      <trkpt lat="44.61699" lon="0.88468">
        <ele>199</ele>
        <time>2012-09-30T08:04:09Z</time>
      </trkpt>
      <trkpt lat="44.61712" lon="0.88463">
        <ele>199</ele>
        <time>2012-09-30T08:04:14Z</time>
      </trkpt>
      <trkpt lat="44.61742" lon="0.88447">
        <ele>199</ele>
        <time>2012-09-30T08:04:19Z</time>
      </trkpt>
      <trkpt lat="44.61767" lon="0.88429">
        <ele>199</ele>
        <time>2012-09-30T08:04:24Z</time>
      </trkpt>
      <trkpt lat="44.61795" lon="0.88412">
        <ele>199</ele>
        <time>2012-09-30T08:04:29Z</time>
      </trkpt>
      <trkpt lat="44.61829" lon="0.88383">
        <ele>194</ele>
        <time>2012-09-30T08:04:34Z</time>
      </trkpt>
      <trkpt lat="44.61863" lon="0.88342">
        <ele>189</ele>
        <time>2012-09-30T08:04:39Z</time>
      </trkpt>
      <trkpt lat="44.61894" lon="0.88323">
        <ele>185</ele>
        <time>2012-09-30T08:04:44Z</time>
      </trkpt>
      <trkpt lat="44.61929" lon="0.88307">
        <ele>181</ele>
        <time>2012-09-30T08:04:49Z</time>
      </trkpt>
      <trkpt lat="44.61971" lon="0.88299">
        <ele>181</ele>
        <time>2012-09-30T08:04:54Z</time>
      </trkpt>
      <trkpt lat="44.62012" lon="0.88289">
        <ele>177</ele>
        <time>2012-09-30T08:04:59Z</time>
      </trkpt>
      <trkpt lat="44.62059" lon="0.88273">
        <ele>172</ele>
        <time>2012-09-30T08:05:04Z</time>
      </trkpt>
      <trkpt lat="44.62105" lon="0.8825">
        <ele>170</ele>
        <time>2012-09-30T08:05:09Z</time>
      </trkpt>
      <trkpt lat="44.6213" lon="0.88232">
        <ele>170</ele>
        <time>2012-09-30T08:05:14Z</time>
      </trkpt>
      <trkpt lat="44.6213" lon="0.88252">
        <ele>169</ele>
        <time>2012-09-30T08:05:19Z</time>
      </trkpt>
      <trkpt lat="44.62132" lon="0.88286">
        <ele>165</ele>
        <time>2012-09-30T08:05:24Z</time>
      </trkpt>
      <trkpt lat="44.62148" lon="0.88306">
        <ele>160</ele>
        <time>2012-09-30T08:05:29Z</time>
      </trkpt>
      <trkpt lat="44.62174" lon="0.88314">
        <ele>159</ele>
        <time>2012-09-30T08:05:34Z</time>
      </trkpt>
      <trkpt lat="44.62202" lon="0.88311">
        <ele>159</ele>
        <time>2012-09-30T08:05:39Z</time>
      </trkpt>
      <trkpt lat="44.62227" lon="0.8831">
        <ele>159</ele>
        <time>2012-09-30T08:05:44Z</time>
      </trkpt>
      <trkpt lat="44.62243" lon="0.88314">
        <ele>159</ele>
        <time>2012-09-30T08:05:49Z</time>
      </trkpt>
      <trkpt lat="44.62259" lon="0.88305">
        <ele>159</ele>
        <time>2012-09-30T08:05:54Z</time>
      </trkpt>
      <trkpt lat="44.62286" lon="0.88291">
        <ele>159</ele>
        <time>2012-09-30T08:05:59Z</time>
      </trkpt>
      <trkpt lat="44.62313" lon="0.88288">
        <ele>159</ele>
        <time>2012-09-30T08:06:04Z</time>
      </trkpt>
      <trkpt lat="44.62338" lon="0.88288">
        <ele>159</ele>
        <time>2012-09-30T08:06:09Z</time>
      </trkpt>
      <trkpt lat="44.62355" lon="0.88276">
        <ele>159</ele>
        <time>2012-09-30T08:06:14Z</time>
      </trkpt>
      <trkpt lat="44.62367" lon="0.88251">
        <ele>159</ele>
        <time>2012-09-30T08:06:19Z</time>
      </trkpt>
      <trkpt lat="44.62381" lon="0.88231">
        <ele>159</ele>
        <time>2012-09-30T08:06:24Z</time>
      </trkpt>
      <trkpt lat="44.62392" lon="0.88209">
        <ele>159</ele>
        <time>2012-09-30T08:06:29Z</time>
      </trkpt>
      <trkpt lat="44.62403" lon="0.88191">
        <ele>159</ele>
        <time>2012-09-30T08:06:34Z</time>
      </trkpt>
      <trkpt lat="44.62412" lon="0.88206">
        <ele>159</ele>
        <time>2012-09-30T08:06:39Z</time>
      </trkpt>
      <trkpt lat="44.62425" lon="0.88227">
        <ele>159</ele>
        <time>2012-09-30T08:06:44Z</time>
      </trkpt>
      <trkpt lat="44.62442" lon="0.88237">
        <ele>159</ele>
        <time>2012-09-30T08:06:49Z</time>
      </trkpt>
      <trkpt lat="44.62458" lon="0.88232">
        <ele>159</ele>
        <time>2012-09-30T08:06:54Z</time>
      </trkpt>
      <trkpt lat="44.62468" lon="0.88211">
        <ele>159</ele>
        <time>2012-09-30T08:06:59Z</time>
      </trkpt>
      <trkpt lat="44.6248" lon="0.88196">
        <ele>162</ele>
        <time>2012-09-30T08:07:04Z</time>
      </trkpt>
      <trkpt lat="44.62494" lon="0.88196">
        <ele>165</ele>
        <time>2012-09-30T08:07:09Z</time>
      </trkpt>
      <trkpt lat="44.62506" lon="0.882">
        <ele>167</ele>
        <time>2012-09-30T08:07:14Z</time>
      </trkpt>
      <trkpt lat="44.62519" lon="0.88211">
        <ele>168</ele>
        <time>2012-09-30T08:07:19Z</time>
      </trkpt>
      <trkpt lat="44.62532" lon="0.88219">
        <ele>169</ele>
        <time>2012-09-30T08:07:24Z</time>
      </trkpt>
      <trkpt lat="44.62547" lon="0.88222">
        <ele>169</ele>
        <time>2012-09-30T08:07:29Z</time>
      </trkpt>
      <trkpt lat="44.6256" lon="0.88216">
        <ele>172</ele>
        <time>2012-09-30T08:07:34Z</time>
      </trkpt>
      <trkpt lat="44.62571" lon="0.88211">
        <ele>173</ele>
        <time>2012-09-30T08:07:39Z</time>
      </trkpt>
      <trkpt lat="44.62585" lon="0.88204">
        <ele>175</ele>
        <time>2012-09-30T08:07:44Z</time>
      </trkpt>
      <trkpt lat="44.62596" lon="0.88199">
        <ele>176</ele>
        <time>2012-09-30T08:07:49Z</time>
      </trkpt>
      <trkpt lat="44.62606" lon="0.88192">
        <ele>176</ele>
        <time>2012-09-30T08:07:54Z</time>
      </trkpt>
      <trkpt lat="44.62617" lon="0.88182">
        <ele>178</ele>
        <time>2012-09-30T08:07:59Z</time>
      </trkpt>
      <trkpt lat="44.6263" lon="0.88174">
        <ele>181</ele>
        <time>2012-09-30T08:08:04Z</time>
      </trkpt>
      <trkpt lat="44.62641" lon="0.88163">
        <ele>183</ele>
        <time>2012-09-30T08:08:09Z</time>
      </trkpt>
      <trkpt lat="44.62649" lon="0.88151">
        <ele>183</ele>
        <time>2012-09-30T08:08:14Z</time>
      </trkpt>
      <trkpt lat="44.62654" lon="0.88135">
        <ele>183</ele>
        <time>2012-09-30T08:08:19Z</time>
      </trkpt>
      <trkpt lat="44.62661" lon="0.88114">
        <ele>184</ele>
        <time>2012-09-30T08:08:24Z</time>
      </trkpt>
      <trkpt lat="44.62666" lon="0.88094">
        <ele>184</ele>
        <time>2012-09-30T08:08:29Z</time>
      </trkpt>
      <trkpt lat="44.62677" lon="0.88065">
        <ele>184</ele>
        <time>2012-09-30T08:08:34Z</time>
      </trkpt>
      <trkpt lat="44.62697" lon="0.88044">
        <ele>186</ele>
        <time>2012-09-30T08:08:39Z</time>
      </trkpt>
      <trkpt lat="44.6272" lon="0.88017">
        <ele>186</ele>
        <time>2012-09-30T08:08:44Z</time>
      </trkpt>
      <trkpt lat="44.62745" lon="0.87987">
        <ele>186</ele>
        <time>2012-09-30T08:08:49Z</time>
      </trkpt>
      <trkpt lat="44.6277" lon="0.87955">
        <ele>186</ele>
        <time>2012-09-30T08:08:54Z</time>
      </trkpt>
      <trkpt lat="44.62793" lon="0.87924">
        <ele>184</ele>
        <time>2012-09-30T08:08:59Z</time>
      </trkpt>
      <trkpt lat="44.62812" lon="0.87897">
        <ele>184</ele>
        <time>2012-09-30T08:09:04Z</time>
      </trkpt>
      <trkpt lat="44.62826" lon="0.87876">
        <ele>184</ele>
        <time>2012-09-30T08:09:09Z</time>
      </trkpt>
      <trkpt lat="44.62841" lon="0.87876">
        <ele>184</ele>
        <time>2012-09-30T08:09:14Z</time>
      </trkpt>
      <trkpt lat="44.62855" lon="0.87886">
        <ele>184</ele>
        <time>2012-09-30T08:09:19Z</time>
      </trkpt>
      <trkpt lat="44.62869" lon="0.87895">
        <ele>186</ele>
        <time>2012-09-30T08:09:24Z</time>
      </trkpt>
      <trkpt lat="44.62881" lon="0.87898">
        <ele>189</ele>
        <time>2012-09-30T08:09:29Z</time>
      </trkpt>
      <trkpt lat="44.62896" lon="0.87891">
        <ele>190</ele>
        <time>2012-09-30T08:09:34Z</time>
      </trkpt>
      <trkpt lat="44.62915" lon="0.87876">
        <ele>190</ele>
        <time>2012-09-30T08:09:39Z</time>
      </trkpt>
      <trkpt lat="44.62936" lon="0.87861">
        <ele>190</ele>
        <time>2012-09-30T08:09:44Z</time>
      </trkpt>
      <trkpt lat="44.62951" lon="0.87852">
        <ele>191</ele>
        <time>2012-09-30T08:09:49Z</time>
      </trkpt>
      <trkpt lat="44.62951" lon="0.87852">
        <ele>192</ele>
        <time>2012-09-30T08:09:56Z</time>
      </trkpt>
      <trkpt lat="44.62949" lon="0.87854">
        <ele>192</ele>
        <time>2012-09-30T08:10:02Z</time>
      </trkpt>
      <trkpt lat="44.62948" lon="0.87855">
        <ele>193</ele>
        <time>2012-09-30T08:10:07Z</time>
      </trkpt>
      <trkpt lat="44.62947" lon="0.87855">
        <ele>193</ele>
        <time>2012-09-30T08:10:15Z</time>
      </trkpt>
      <trkpt lat="44.62946" lon="0.87853">
        <ele>194</ele>
        <time>2012-09-30T08:10:20Z</time>
      </trkpt>
      <trkpt lat="44.62948" lon="0.87852">
        <ele>198</ele>
        <time>2012-09-30T08:10:28Z</time>
      </trkpt>
      <trkpt lat="44.62947" lon="0.87853">
        <ele>198</ele>
        <time>2012-09-30T08:10:34Z</time>
      </trkpt>
      <trkpt lat="44.62946" lon="0.87852">
        <ele>201</ele>
        <time>2012-09-30T08:10:49Z</time>
      </trkpt>
      <trkpt lat="44.62946" lon="0.87854">
        <ele>201</ele>
        <time>2012-09-30T08:10:54Z</time>
      </trkpt>
      <trkpt lat="44.62947" lon="0.87858">
        <ele>194</ele>
        <time>2012-09-30T08:11:02Z</time>
      </trkpt>
      <trkpt lat="44.62945" lon="0.8786">
        <ele>194</ele>
        <time>2012-09-30T08:11:11Z</time>
      </trkpt>
      <trkpt lat="44.62943" lon="0.8786">
        <ele>193</ele>
        <time>2012-09-30T08:11:26Z</time>
      </trkpt>
      <trkpt lat="44.62944" lon="0.87858">
        <ele>193</ele>
        <time>2012-09-30T08:11:36Z</time>
      </trkpt>
      <trkpt lat="44.62945" lon="0.87858">
        <ele>193</ele>
        <time>2012-09-30T08:11:43Z</time>
      </trkpt>
      <trkpt lat="44.62945" lon="0.87858">
        <ele>193</ele>
        <time>2012-09-30T08:11:53Z</time>
      </trkpt>
      <trkpt lat="44.62946" lon="0.87858">
        <ele>193</ele>
        <time>2012-09-30T08:11:59Z</time>
      </trkpt>
      <trkpt lat="44.62948" lon="0.87856">
        <ele>193</ele>
        <time>2012-09-30T08:12:04Z</time>
      </trkpt>
      <trkpt lat="44.62949" lon="0.87855">
        <ele>193</ele>
        <time>2012-09-30T08:12:37Z</time>
      </trkpt>
      <trkpt lat="44.6295" lon="0.87854">
        <ele>193</ele>
        <time>2012-09-30T08:12:42Z</time>
      </trkpt>
      <trkpt lat="44.62951" lon="0.87853">
        <ele>193</ele>
        <time>2012-09-30T08:12:47Z</time>
      </trkpt>
      <trkpt lat="44.62954" lon="0.87851">
        <ele>193</ele>
        <time>2012-09-30T08:12:57Z</time>
      </trkpt>
      <trkpt lat="44.62955" lon="0.8785">
        <ele>193</ele>
        <time>2012-09-30T08:13:05Z</time>
      </trkpt>
      <trkpt lat="44.62956" lon="0.8785">
        <ele>193</ele>
        <time>2012-09-30T08:13:35Z</time>
      </trkpt>
      <trkpt lat="44.62955" lon="0.8785">
        <ele>193</ele>
        <time>2012-09-30T08:13:55Z</time>
      </trkpt>
      <trkpt lat="44.62955" lon="0.87847">
        <ele>193</ele>
        <time>2012-09-30T08:14:07Z</time>
      </trkpt>
      <trkpt lat="44.62958" lon="0.87832">
        <ele>193</ele>
        <time>2012-09-30T08:14:12Z</time>
      </trkpt>
      <trkpt lat="44.62963" lon="0.8781">
        <ele>193</ele>
        <time>2012-09-30T08:14:17Z</time>
      </trkpt>
      <trkpt lat="44.6297" lon="0.87784">
        <ele>193</ele>
        <time>2012-09-30T08:14:22Z</time>
      </trkpt>
      <trkpt lat="44.62977" lon="0.87756">
        <ele>193</ele>
        <time>2012-09-30T08:14:27Z</time>
      </trkpt>
      <trkpt lat="44.62981" lon="0.87732">
        <ele>193</ele>
        <time>2012-09-30T08:14:32Z</time>
      </trkpt>
      <trkpt lat="44.62983" lon="0.87712">
        <ele>193</ele>
        <time>2012-09-30T08:14:37Z</time>
      </trkpt>
      <trkpt lat="44.62982" lon="0.87697">
        <ele>193</ele>
        <time>2012-09-30T08:14:42Z</time>
      </trkpt>
      <trkpt lat="44.62979" lon="0.87685">
        <ele>193</ele>
        <time>2012-09-30T08:14:47Z</time>
      </trkpt>
      <trkpt lat="44.62974" lon="0.87673">
        <ele>193</ele>
        <time>2012-09-30T08:14:52Z</time>
      </trkpt>
      <trkpt lat="44.62967" lon="0.8766">
        <ele>193</ele>
        <time>2012-09-30T08:14:57Z</time>
      </trkpt>
      <trkpt lat="44.62954" lon="0.87646">
        <ele>193</ele>
        <time>2012-09-30T08:15:02Z</time>
      </trkpt>
      <trkpt lat="44.62939" lon="0.87633">
        <ele>193</ele>
        <time>2012-09-30T08:15:07Z</time>
      </trkpt>
      <trkpt lat="44.62921" lon="0.87616">
        <ele>193</ele>
        <time>2012-09-30T08:15:12Z</time>
      </trkpt>
      <trkpt lat="44.62903" lon="0.87597">
        <ele>193</ele>
        <time>2012-09-30T08:15:17Z</time>
      </trkpt>
      <trkpt lat="44.62882" lon="0.87578">
        <ele>193</ele>
        <time>2012-09-30T08:15:22Z</time>
      </trkpt>
      <trkpt lat="44.62865" lon="0.87563">
        <ele>193</ele>
        <time>2012-09-30T08:15:27Z</time>
      </trkpt>
      <trkpt lat="44.62862" lon="0.87558">
        <ele>193</ele>
        <time>2012-09-30T08:15:32Z</time>
      </trkpt>
      <trkpt lat="44.62862" lon="0.87556">
        <ele>193</ele>
        <time>2012-09-30T08:15:46Z</time>
      </trkpt>
      <trkpt lat="44.62863" lon="0.87556">
        <ele>193</ele>
        <time>2012-09-30T08:16:01Z</time>
      </trkpt>
      <trkpt lat="44.62862" lon="0.87554">
        <ele>193</ele>
        <time>2012-09-30T08:16:22Z</time>
      </trkpt>
      <trkpt lat="44.6286" lon="0.87546">
        <ele>193</ele>
        <time>2012-09-30T08:16:27Z</time>
      </trkpt>
      <trkpt lat="44.62874" lon="0.87543">
        <ele>192</ele>
        <time>2012-09-30T08:16:32Z</time>
      </trkpt>
      <trkpt lat="44.62891" lon="0.87542">
        <ele>191</ele>
        <time>2012-09-30T08:16:37Z</time>
      </trkpt>
      <trkpt lat="44.6291" lon="0.87537">
        <ele>190</ele>
        <time>2012-09-30T08:16:42Z</time>
      </trkpt>
      <trkpt lat="44.6293" lon="0.87532">
        <ele>190</ele>
        <time>2012-09-30T08:16:47Z</time>
      </trkpt>
      <trkpt lat="44.62952" lon="0.87527">
        <ele>190</ele>
        <time>2012-09-30T08:16:52Z</time>
      </trkpt>
      <trkpt lat="44.62972" lon="0.8752">
        <ele>190</ele>
        <time>2012-09-30T08:16:57Z</time>
      </trkpt>
      <trkpt lat="44.62991" lon="0.87514">
        <ele>190</ele>
        <time>2012-09-30T08:17:02Z</time>
      </trkpt>
      <trkpt lat="44.6301" lon="0.87509">
        <ele>189</ele>
        <time>2012-09-30T08:17:07Z</time>
      </trkpt>
      <trkpt lat="44.63027" lon="0.87506">
        <ele>189</ele>
        <time>2012-09-30T08:17:12Z</time>
      </trkpt>
      <trkpt lat="44.63042" lon="0.87499">
        <ele>189</ele>
        <time>2012-09-30T08:17:17Z</time>
      </trkpt>
      <trkpt lat="44.63053" lon="0.8749">
        <ele>189</ele>
        <time>2012-09-30T08:17:22Z</time>
      </trkpt>
      <trkpt lat="44.63064" lon="0.87478">
        <ele>189</ele>
        <time>2012-09-30T08:17:27Z</time>
      </trkpt>
      <trkpt lat="44.6307" lon="0.87455">
        <ele>189</ele>
        <time>2012-09-30T08:17:32Z</time>
      </trkpt>
      <trkpt lat="44.63071" lon="0.87429">
        <ele>189</ele>
        <time>2012-09-30T08:17:37Z</time>
      </trkpt>
      <trkpt lat="44.63073" lon="0.87405">
        <ele>189</ele>
        <time>2012-09-30T08:17:42Z</time>
      </trkpt>
      <trkpt lat="44.63073" lon="0.87384">
        <ele>189</ele>
        <time>2012-09-30T08:17:47Z</time>
      </trkpt>
      <trkpt lat="44.63074" lon="0.87362">
        <ele>191</ele>
        <time>2012-09-30T08:17:52Z</time>
      </trkpt>
      <trkpt lat="44.63074" lon="0.8734">
        <ele>192</ele>
        <time>2012-09-30T08:17:57Z</time>
      </trkpt>
      <trkpt lat="44.63074" lon="0.87317">
        <ele>193</ele>
        <time>2012-09-30T08:18:02Z</time>
      </trkpt>
      <trkpt lat="44.63074" lon="0.87295">
        <ele>194</ele>
        <time>2012-09-30T08:18:07Z</time>
      </trkpt>
      <trkpt lat="44.63074" lon="0.87273">
        <ele>196</ele>
        <time>2012-09-30T08:18:12Z</time>
      </trkpt>
      <trkpt lat="44.63076" lon="0.87249">
        <ele>196</ele>
        <time>2012-09-30T08:18:17Z</time>
      </trkpt>
      <trkpt lat="44.63078" lon="0.87226">
        <ele>197</ele>
        <time>2012-09-30T08:18:22Z</time>
      </trkpt>
      <trkpt lat="44.63082" lon="0.87201">
        <ele>198</ele>
        <time>2012-09-30T08:18:27Z</time>
      </trkpt>
      <trkpt lat="44.63086" lon="0.87178">
        <ele>198</ele>
        <time>2012-09-30T08:18:32Z</time>
      </trkpt>
      <trkpt lat="44.63092" lon="0.87159">
        <ele>198</ele>
        <time>2012-09-30T08:18:37Z</time>
      </trkpt>
      <trkpt lat="44.6309" lon="0.87146">
        <ele>199</ele>
        <time>2012-09-30T08:18:42Z</time>
      </trkpt>
      <trkpt lat="44.63088" lon="0.87143">
        <ele>201</ele>
        <time>2012-09-30T08:18:52Z</time>
      </trkpt>
    </trkseg>
  </trk>
</gpx>